<?xml version="1.0" encoding="UTF-8" ?>
<gpx
 version="1.0"
 creator="Maverick - http://www.maverickgps.com"
 xmlns:xsi="http://www.w3.org/2001/XMLSchema-instance"
 xmlns="http://www.topografix.com/GPX/1/0"
 xsi:schemaLocation="http://www.topografix.com/GPX/1/0 http://www.topografix.com/GPX/1/0/gpx.xsd">
<time>2014-06-15T19:58:08Z</time>
<trk>
 <name>2014-06-15 @ 14-58-08</name>
 <trkseg>
  <trkpt lat="6.164047" lon="-75.460333">
    <ele>2258</ele>
    <time>2014-06-15T19:50:16Z</time>
    <speed>10.679143</speed>
  </trkpt>
  <trkpt lat="6.164245" lon="-75.460387">
    <ele>2260</ele>
    <time>2014-06-15T19:50:18Z</time>
    <speed>10.216313</speed>
  </trkpt>
  <trkpt lat="6.164447" lon="-75.460455">
    <ele>2262</ele>
    <time>2014-06-15T19:50:20Z</time>
    <speed>10.550564</speed>
  </trkpt>
  <trkpt lat="6.164629" lon="-75.460560">
    <ele>2264</ele>
    <time>2014-06-15T19:50:22Z</time>
    <speed>11.062478</speed>
  </trkpt>
  <trkpt lat="6.164771" lon="-75.460723">
    <ele>2264</ele>
    <time>2014-06-15T19:50:24Z</time>
    <speed>11.287198</speed>
  </trkpt>
  <trkpt lat="6.164924" lon="-75.460879">
    <ele>2266</ele>
    <time>2014-06-15T19:50:26Z</time>
    <speed>10.661939</speed>
  </trkpt>
  <trkpt lat="6.164986" lon="-75.461059">
    <ele>2268</ele>
    <time>2014-06-15T19:50:28Z</time>
    <speed>10.821443</speed>
  </trkpt>
  <trkpt lat="6.165061" lon="-75.461248">
    <ele>2271</ele>
    <time>2014-06-15T19:50:30Z</time>
    <speed>11.083346</speed>
  </trkpt>
  <trkpt lat="6.165145" lon="-75.461443">
    <ele>2272</ele>
    <time>2014-06-15T19:50:32Z</time>
    <speed>10.855044</speed>
  </trkpt>
  <trkpt lat="6.165297" lon="-75.461601">
    <ele>2273</ele>
    <time>2014-06-15T19:50:34Z</time>
    <speed>10.808305</speed>
  </trkpt>
  <trkpt lat="6.165469" lon="-75.461735">
    <ele>2274</ele>
    <time>2014-06-15T19:50:36Z</time>
    <speed>10.980297</speed>
  </trkpt>
  <trkpt lat="6.165642" lon="-75.461861">
    <ele>2276</ele>
    <time>2014-06-15T19:50:38Z</time>
    <speed>10.9693365</speed>
  </trkpt>
  <trkpt lat="6.165814" lon="-75.461983">
    <ele>2279</ele>
    <time>2014-06-15T19:50:40Z</time>
    <speed>10.832816</speed>
  </trkpt>
  <trkpt lat="6.165973" lon="-75.462093">
    <ele>2280</ele>
    <time>2014-06-15T19:50:42Z</time>
    <speed>10.02507</speed>
  </trkpt>
  <trkpt lat="6.166140" lon="-75.462212">
    <ele>2282</ele>
    <time>2014-06-15T19:50:44Z</time>
    <speed>11.399786</speed>
  </trkpt>
  <trkpt lat="6.166322" lon="-75.462341">
    <ele>2284</ele>
    <time>2014-06-15T19:50:46Z</time>
    <speed>10.674041</speed>
  </trkpt>
  <trkpt lat="6.166475" lon="-75.462497">
    <ele>2284</ele>
    <time>2014-06-15T19:50:48Z</time>
    <speed>12.317988</speed>
  </trkpt>
  <trkpt lat="6.166602" lon="-75.462694">
    <ele>2285</ele>
    <time>2014-06-15T19:50:50Z</time>
    <speed>12.66441</speed>
  </trkpt>
  <trkpt lat="6.166723" lon="-75.462903">
    <ele>2287</ele>
    <time>2014-06-15T19:50:52Z</time>
    <speed>12.220575</speed>
  </trkpt>
  <trkpt lat="6.166837" lon="-75.463115">
    <ele>2288</ele>
    <time>2014-06-15T19:50:54Z</time>
    <speed>11.806751</speed>
  </trkpt>
  <trkpt lat="6.166941" lon="-75.463317">
    <ele>2291</ele>
    <time>2014-06-15T19:50:56Z</time>
    <speed>11.2315035</speed>
  </trkpt>
  <trkpt lat="6.167082" lon="-75.463492">
    <ele>2291</ele>
    <time>2014-06-15T19:50:58Z</time>
    <speed>10.571802</speed>
  </trkpt>
  <trkpt lat="6.167237" lon="-75.463636">
    <ele>2294</ele>
    <time>2014-06-15T19:51:00Z</time>
    <speed>10.266295</speed>
  </trkpt>
  <trkpt lat="6.167405" lon="-75.463774">
    <ele>2295</ele>
    <time>2014-06-15T19:51:02Z</time>
    <speed>10.823518</speed>
  </trkpt>
  <trkpt lat="6.167571" lon="-75.463905">
    <ele>2296</ele>
    <time>2014-06-15T19:51:04Z</time>
    <speed>10.419491</speed>
  </trkpt>
  <trkpt lat="6.167638" lon="-75.464131">
    <ele>2298</ele>
    <time>2014-06-15T19:51:06Z</time>
    <speed>11.623538</speed>
  </trkpt>
  <trkpt lat="6.167678" lon="-75.464353">
    <ele>2300</ele>
    <time>2014-06-15T19:51:08Z</time>
    <speed>12.354294</speed>
  </trkpt>
  <trkpt lat="6.167728" lon="-75.464531">
    <ele>2301</ele>
    <time>2014-06-15T19:51:10Z</time>
    <speed>10.93944</speed>
  </trkpt>
  <trkpt lat="6.167737" lon="-75.464724">
    <ele>2303</ele>
    <time>2014-06-15T19:51:12Z</time>
    <speed>11.615355</speed>
  </trkpt>
  <trkpt lat="6.167755" lon="-75.464912">
    <ele>2305</ele>
    <time>2014-06-15T19:51:14Z</time>
    <speed>11.368139</speed>
  </trkpt>
  <trkpt lat="6.167766" lon="-75.465108">
    <ele>2307</ele>
    <time>2014-06-15T19:51:16Z</time>
    <speed>11.793105</speed>
  </trkpt>
  <trkpt lat="6.167778" lon="-75.465320">
    <ele>2309</ele>
    <time>2014-06-15T19:51:18Z</time>
    <speed>11.7094965</speed>
  </trkpt>
  <trkpt lat="6.167840" lon="-75.465564">
    <ele>2309</ele>
    <time>2014-06-15T19:51:20Z</time>
    <speed>11.520378</speed>
  </trkpt>
  <trkpt lat="6.167939" lon="-75.465771">
    <ele>2311</ele>
    <time>2014-06-15T19:51:22Z</time>
    <speed>10.889519</speed>
  </trkpt>
  <trkpt lat="6.168146" lon="-75.465955">
    <ele>2313</ele>
    <time>2014-06-15T19:51:24Z</time>
    <speed>11.669285</speed>
  </trkpt>
  <trkpt lat="6.168362" lon="-75.466138">
    <ele>2313</ele>
    <time>2014-06-15T19:51:26Z</time>
    <speed>11.180883</speed>
  </trkpt>
  <trkpt lat="6.168574" lon="-75.466309">
    <ele>2314</ele>
    <time>2014-06-15T19:51:28Z</time>
    <speed>11.391216</speed>
  </trkpt>
  <trkpt lat="6.168746" lon="-75.466463">
    <ele>2315</ele>
    <time>2014-06-15T19:51:30Z</time>
    <speed>11.318981</speed>
  </trkpt>
  <trkpt lat="6.168919" lon="-75.466607">
    <ele>2317</ele>
    <time>2014-06-15T19:51:32Z</time>
    <speed>11.893834</speed>
  </trkpt>
  <trkpt lat="6.169101" lon="-75.466745">
    <ele>2318</ele>
    <time>2014-06-15T19:51:34Z</time>
    <speed>11.248977</speed>
  </trkpt>
  <trkpt lat="6.169259" lon="-75.466877">
    <ele>2318</ele>
    <time>2014-06-15T19:51:36Z</time>
    <speed>11.14474</speed>
  </trkpt>
  <trkpt lat="6.169410" lon="-75.467001">
    <ele>2321</ele>
    <time>2014-06-15T19:51:38Z</time>
    <speed>10.562204</speed>
  </trkpt>
  <trkpt lat="6.169564" lon="-75.467136">
    <ele>2323</ele>
    <time>2014-06-15T19:51:40Z</time>
    <speed>10.870395</speed>
  </trkpt>
  <trkpt lat="6.169738" lon="-75.467290">
    <ele>2324</ele>
    <time>2014-06-15T19:51:42Z</time>
    <speed>11.112756</speed>
  </trkpt>
  <trkpt lat="6.169886" lon="-75.467451">
    <ele>2326</ele>
    <time>2014-06-15T19:51:44Z</time>
    <speed>11.3344345</speed>
  </trkpt>
  <trkpt lat="6.169968" lon="-75.467654">
    <ele>2327</ele>
    <time>2014-06-15T19:51:46Z</time>
    <speed>12.128699</speed>
  </trkpt>
  <trkpt lat="6.170032" lon="-75.467837">
    <ele>2329</ele>
    <time>2014-06-15T19:51:48Z</time>
    <speed>11.664899</speed>
  </trkpt>
  <trkpt lat="6.170098" lon="-75.468038">
    <ele>2332</ele>
    <time>2014-06-15T19:51:50Z</time>
    <speed>11.478971</speed>
  </trkpt>
  <trkpt lat="6.170160" lon="-75.468236">
    <ele>2331</ele>
    <time>2014-06-15T19:51:52Z</time>
    <speed>10.719474</speed>
  </trkpt>
  <trkpt lat="6.170222" lon="-75.468439">
    <ele>2336</ele>
    <time>2014-06-15T19:51:54Z</time>
    <speed>11.187062</speed>
  </trkpt>
  <trkpt lat="6.170291" lon="-75.468646">
    <ele>2337</ele>
    <time>2014-06-15T19:51:56Z</time>
    <speed>10.420185</speed>
  </trkpt>
  <trkpt lat="6.170376" lon="-75.468869">
    <ele>2339</ele>
    <time>2014-06-15T19:51:58Z</time>
    <speed>11.578769</speed>
  </trkpt>
  <trkpt lat="6.170510" lon="-75.469052">
    <ele>2342</ele>
    <time>2014-06-15T19:52:00Z</time>
    <speed>10.948733</speed>
  </trkpt>
  <trkpt lat="6.170684" lon="-75.469212">
    <ele>2343</ele>
    <time>2014-06-15T19:52:02Z</time>
    <speed>11.772177</speed>
  </trkpt>
  <trkpt lat="6.170850" lon="-75.469353">
    <ele>2344</ele>
    <time>2014-06-15T19:52:04Z</time>
    <speed>10.214497</speed>
  </trkpt>
  <trkpt lat="6.170991" lon="-75.469473">
    <ele>2345</ele>
    <time>2014-06-15T19:52:06Z</time>
    <speed>9.114135</speed>
  </trkpt>
  <trkpt lat="6.171129" lon="-75.469600">
    <ele>2347</ele>
    <time>2014-06-15T19:52:08Z</time>
    <speed>9.293219</speed>
  </trkpt>
  <trkpt lat="6.171228" lon="-75.469759">
    <ele>2347</ele>
    <time>2014-06-15T19:52:10Z</time>
    <speed>10.641424</speed>
  </trkpt>
  <trkpt lat="6.171307" lon="-75.469977">
    <ele>2350</ele>
    <time>2014-06-15T19:52:12Z</time>
    <speed>11.085335</speed>
  </trkpt>
  <trkpt lat="6.171364" lon="-75.470214">
    <ele>2353</ele>
    <time>2014-06-15T19:52:14Z</time>
    <speed>11.108178</speed>
  </trkpt>
  <trkpt lat="6.171370" lon="-75.470434">
    <ele>2355</ele>
    <time>2014-06-15T19:52:16Z</time>
    <speed>10.260066</speed>
  </trkpt>
  <trkpt lat="6.171373" lon="-75.470656">
    <ele>2356</ele>
    <time>2014-06-15T19:52:18Z</time>
    <speed>10.488092</speed>
  </trkpt>
  <trkpt lat="6.171369" lon="-75.470875">
    <ele>2359</ele>
    <time>2014-06-15T19:52:20Z</time>
    <speed>10.682251</speed>
  </trkpt>
  <trkpt lat="6.171369" lon="-75.471108">
    <ele>2360</ele>
    <time>2014-06-15T19:52:22Z</time>
    <speed>10.857484</speed>
  </trkpt>
  <trkpt lat="6.171351" lon="-75.471333">
    <ele>2362</ele>
    <time>2014-06-15T19:52:24Z</time>
    <speed>10.954177</speed>
  </trkpt>
  <trkpt lat="6.171282" lon="-75.471562">
    <ele>2365</ele>
    <time>2014-06-15T19:52:26Z</time>
    <speed>11.840549</speed>
  </trkpt>
  <trkpt lat="6.171208" lon="-75.471749">
    <ele>2366</ele>
    <time>2014-06-15T19:52:28Z</time>
    <speed>10.59703</speed>
  </trkpt>
  <trkpt lat="6.171205" lon="-75.471951">
    <ele>2369</ele>
    <time>2014-06-15T19:52:30Z</time>
    <speed>11.443896</speed>
  </trkpt>
  <trkpt lat="6.171281" lon="-75.472123">
    <ele>2369</ele>
    <time>2014-06-15T19:52:32Z</time>
    <speed>9.836521</speed>
  </trkpt>
  <trkpt lat="6.171420" lon="-75.472297">
    <ele>2372</ele>
    <time>2014-06-15T19:52:34Z</time>
    <speed>10.654309</speed>
  </trkpt>
  <trkpt lat="6.171567" lon="-75.472471">
    <ele>2373</ele>
    <time>2014-06-15T19:52:36Z</time>
    <speed>10.911073</speed>
  </trkpt>
  <trkpt lat="6.171708" lon="-75.472649">
    <ele>2374</ele>
    <time>2014-06-15T19:52:38Z</time>
    <speed>10.934079</speed>
  </trkpt>
  <trkpt lat="6.171846" lon="-75.472814">
    <ele>2373</ele>
    <time>2014-06-15T19:52:40Z</time>
    <speed>10.863223</speed>
  </trkpt>
  <trkpt lat="6.171987" lon="-75.472964">
    <ele>2376</ele>
    <time>2014-06-15T19:52:42Z</time>
    <speed>10.243503</speed>
  </trkpt>
  <trkpt lat="6.172137" lon="-75.473065">
    <ele>2376</ele>
    <time>2014-06-15T19:52:44Z</time>
    <speed>9.186649</speed>
  </trkpt>
  <trkpt lat="6.172318" lon="-75.473121">
    <ele>2379</ele>
    <time>2014-06-15T19:52:46Z</time>
    <speed>10.050266</speed>
  </trkpt>
  <trkpt lat="6.172499" lon="-75.473184">
    <ele>2381</ele>
    <time>2014-06-15T19:52:48Z</time>
    <speed>10.280356</speed>
  </trkpt>
  <trkpt lat="6.172688" lon="-75.473258">
    <ele>2383</ele>
    <time>2014-06-15T19:52:50Z</time>
    <speed>10.40984</speed>
  </trkpt>
  <trkpt lat="6.172904" lon="-75.473388">
    <ele>2384</ele>
    <time>2014-06-15T19:52:52Z</time>
    <speed>10.717877</speed>
  </trkpt>
  <trkpt lat="6.173110" lon="-75.473482">
    <ele>2386</ele>
    <time>2014-06-15T19:52:54Z</time>
    <speed>10.014194</speed>
  </trkpt>
  <trkpt lat="6.173180" lon="-75.473692">
    <ele>2387</ele>
    <time>2014-06-15T19:52:56Z</time>
    <speed>10.643254</speed>
  </trkpt>
  <trkpt lat="6.173241" lon="-75.473918">
    <ele>2388</ele>
    <time>2014-06-15T19:52:58Z</time>
    <speed>11.806156</speed>
  </trkpt>
  <trkpt lat="6.173279" lon="-75.474131">
    <ele>2391</ele>
    <time>2014-06-15T19:53:00Z</time>
    <speed>11.431029</speed>
  </trkpt>
  <trkpt lat="6.173295" lon="-75.474334">
    <ele>2392</ele>
    <time>2014-06-15T19:53:02Z</time>
    <speed>10.60522</speed>
  </trkpt>
  <trkpt lat="6.173302" lon="-75.474545">
    <ele>2394</ele>
    <time>2014-06-15T19:53:04Z</time>
    <speed>10.705806</speed>
  </trkpt>
  <trkpt lat="6.173299" lon="-75.474767">
    <ele>2397</ele>
    <time>2014-06-15T19:53:06Z</time>
    <speed>11.3084755</speed>
  </trkpt>
  <trkpt lat="6.173401" lon="-75.474952">
    <ele>2399</ele>
    <time>2014-06-15T19:53:08Z</time>
    <speed>10.305562</speed>
  </trkpt>
  <trkpt lat="6.173515" lon="-75.475127">
    <ele>2399</ele>
    <time>2014-06-15T19:53:10Z</time>
    <speed>10.427488</speed>
  </trkpt>
  <trkpt lat="6.173701" lon="-75.475132">
    <ele>2399</ele>
    <time>2014-06-15T19:53:12Z</time>
    <speed>10.290752</speed>
  </trkpt>
  <trkpt lat="6.173907" lon="-75.475097">
    <ele>2401</ele>
    <time>2014-06-15T19:53:14Z</time>
    <speed>10.329141</speed>
  </trkpt>
  <trkpt lat="6.174126" lon="-75.475066">
    <ele>2405</ele>
    <time>2014-06-15T19:53:16Z</time>
    <speed>10.549445</speed>
  </trkpt>
  <trkpt lat="6.174352" lon="-75.475087">
    <ele>2406</ele>
    <time>2014-06-15T19:53:18Z</time>
    <speed>10.918494</speed>
  </trkpt>
  <trkpt lat="6.174578" lon="-75.475167">
    <ele>2408</ele>
    <time>2014-06-15T19:53:20Z</time>
    <speed>10.750711</speed>
  </trkpt>
  <trkpt lat="6.174762" lon="-75.475288">
    <ele>2408</ele>
    <time>2014-06-15T19:53:22Z</time>
    <speed>10.242278</speed>
  </trkpt>
  <trkpt lat="6.174916" lon="-75.475423">
    <ele>2410</ele>
    <time>2014-06-15T19:53:24Z</time>
    <speed>9.357494</speed>
  </trkpt>
  <trkpt lat="6.174985" lon="-75.475551">
    <ele>2411</ele>
    <time>2014-06-15T19:53:26Z</time>
    <speed>7.3011584</speed>
  </trkpt>
  <trkpt lat="6.174923" lon="-75.475759">
    <ele>2413</ele>
    <time>2014-06-15T19:53:28Z</time>
    <speed>10.302695</speed>
  </trkpt>
  <trkpt lat="6.174796" lon="-75.476012">
    <ele>2415</ele>
    <time>2014-06-15T19:53:30Z</time>
    <speed>11.353198</speed>
  </trkpt>
  <trkpt lat="6.174674" lon="-75.476243">
    <ele>2416</ele>
    <time>2014-06-15T19:53:32Z</time>
    <speed>11.244771</speed>
  </trkpt>
  <trkpt lat="6.174548" lon="-75.476466">
    <ele>2418</ele>
    <time>2014-06-15T19:53:34Z</time>
    <speed>11.3176565</speed>
  </trkpt>
  <trkpt lat="6.174387" lon="-75.476655">
    <ele>2421</ele>
    <time>2014-06-15T19:53:36Z</time>
    <speed>11.531909</speed>
  </trkpt>
  <trkpt lat="6.174198" lon="-75.476813">
    <ele>2423</ele>
    <time>2014-06-15T19:53:38Z</time>
    <speed>11.424004</speed>
  </trkpt>
  <trkpt lat="6.174023" lon="-75.476946">
    <ele>2424</ele>
    <time>2014-06-15T19:53:40Z</time>
    <speed>11.31756</speed>
  </trkpt>
  <trkpt lat="6.173834" lon="-75.477068">
    <ele>2425</ele>
    <time>2014-06-15T19:53:42Z</time>
    <speed>11.2455015</speed>
  </trkpt>
  <trkpt lat="6.173648" lon="-75.477159">
    <ele>2428</ele>
    <time>2014-06-15T19:53:44Z</time>
    <speed>11.200013</speed>
  </trkpt>
  <trkpt lat="6.173445" lon="-75.477246">
    <ele>2431</ele>
    <time>2014-06-15T19:53:46Z</time>
    <speed>11.462777</speed>
  </trkpt>
  <trkpt lat="6.173241" lon="-75.477319">
    <ele>2432</ele>
    <time>2014-06-15T19:53:48Z</time>
    <speed>11.501337</speed>
  </trkpt>
  <trkpt lat="6.173041" lon="-75.477385">
    <ele>2432</ele>
    <time>2014-06-15T19:53:50Z</time>
    <speed>11.073098</speed>
  </trkpt>
  <trkpt lat="6.172856" lon="-75.477448">
    <ele>2435</ele>
    <time>2014-06-15T19:53:52Z</time>
    <speed>10.922936</speed>
  </trkpt>
  <trkpt lat="6.172655" lon="-75.477518">
    <ele>2436</ele>
    <time>2014-06-15T19:53:54Z</time>
    <speed>11.087325</speed>
  </trkpt>
  <trkpt lat="6.172454" lon="-75.477593">
    <ele>2439</ele>
    <time>2014-06-15T19:53:56Z</time>
    <speed>11.232988</speed>
  </trkpt>
  <trkpt lat="6.172263" lon="-75.477666">
    <ele>2440</ele>
    <time>2014-06-15T19:53:58Z</time>
    <speed>11.595463</speed>
  </trkpt>
  <trkpt lat="6.172074" lon="-75.477736">
    <ele>2442</ele>
    <time>2014-06-15T19:54:00Z</time>
    <speed>10.509325</speed>
  </trkpt>
  <trkpt lat="6.171880" lon="-75.477870">
    <ele>2443</ele>
    <time>2014-06-15T19:54:02Z</time>
    <speed>11.059386</speed>
  </trkpt>
  <trkpt lat="6.171725" lon="-75.477992">
    <ele>2444</ele>
    <time>2014-06-15T19:54:04Z</time>
    <speed>9.968867</speed>
  </trkpt>
  <trkpt lat="6.171570" lon="-75.478128">
    <ele>2446</ele>
    <time>2014-06-15T19:54:06Z</time>
    <speed>11.29609</speed>
  </trkpt>
  <trkpt lat="6.171402" lon="-75.478283">
    <ele>2445</ele>
    <time>2014-06-15T19:54:08Z</time>
    <speed>11.291353</speed>
  </trkpt>
  <trkpt lat="6.171241" lon="-75.478443">
    <ele>2447</ele>
    <time>2014-06-15T19:54:10Z</time>
    <speed>11.292361</speed>
  </trkpt>
  <trkpt lat="6.171080" lon="-75.478604">
    <ele>2447</ele>
    <time>2014-06-15T19:54:12Z</time>
    <speed>12.137124</speed>
  </trkpt>
  <trkpt lat="6.170901" lon="-75.478763">
    <ele>2446</ele>
    <time>2014-06-15T19:54:14Z</time>
    <speed>13.947948</speed>
  </trkpt>
  <trkpt lat="6.170670" lon="-75.478894">
    <ele>2445</ele>
    <time>2014-06-15T19:54:16Z</time>
    <speed>15.276865</speed>
  </trkpt>
  <trkpt lat="6.170371" lon="-75.479026">
    <ele>2443</ele>
    <time>2014-06-15T19:54:18Z</time>
    <speed>18.564148</speed>
  </trkpt>
  <trkpt lat="6.170025" lon="-75.479183">
    <ele>2440</ele>
    <time>2014-06-15T19:54:20Z</time>
    <speed>19.416294</speed>
  </trkpt>
  <trkpt lat="6.169692" lon="-75.479296">
    <ele>2439</ele>
    <time>2014-06-15T19:54:22Z</time>
    <speed>19.76427</speed>
  </trkpt>
  <trkpt lat="6.169424" lon="-75.479511">
    <ele>2437</ele>
    <time>2014-06-15T19:54:24Z</time>
    <speed>19.2727</speed>
  </trkpt>
  <trkpt lat="6.169226" lon="-75.479801">
    <ele>2434</ele>
    <time>2014-06-15T19:54:26Z</time>
    <speed>19.127449</speed>
  </trkpt>
  <trkpt lat="6.169077" lon="-75.480118">
    <ele>2435</ele>
    <time>2014-06-15T19:54:28Z</time>
    <speed>19.186825</speed>
  </trkpt>
  <trkpt lat="6.169013" lon="-75.480458">
    <ele>2435</ele>
    <time>2014-06-15T19:54:30Z</time>
    <speed>17.770641</speed>
  </trkpt>
  <trkpt lat="6.168998" lon="-75.480796">
    <ele>2436</ele>
    <time>2014-06-15T19:54:32Z</time>
    <speed>18.058138</speed>
  </trkpt>
  <trkpt lat="6.169061" lon="-75.481132">
    <ele>2436</ele>
    <time>2014-06-15T19:54:34Z</time>
    <speed>18.452333</speed>
  </trkpt>
  <trkpt lat="6.169177" lon="-75.481472">
    <ele>2437</ele>
    <time>2014-06-15T19:54:36Z</time>
    <speed>18.347555</speed>
  </trkpt>
  <trkpt lat="6.169278" lon="-75.481810">
    <ele>2435</ele>
    <time>2014-06-15T19:54:38Z</time>
    <speed>18.308805</speed>
  </trkpt>
  <trkpt lat="6.169382" lon="-75.482118">
    <ele>2436</ele>
    <time>2014-06-15T19:54:40Z</time>
    <speed>17.541422</speed>
  </trkpt>
  <trkpt lat="6.169501" lon="-75.482432">
    <ele>2436</ele>
    <time>2014-06-15T19:54:42Z</time>
    <speed>18.13933</speed>
  </trkpt>
  <trkpt lat="6.169606" lon="-75.482758">
    <ele>2437</ele>
    <time>2014-06-15T19:54:44Z</time>
    <speed>18.16546</speed>
  </trkpt>
  <trkpt lat="6.169649" lon="-75.483097">
    <ele>2440</ele>
    <time>2014-06-15T19:54:46Z</time>
    <speed>18.01645</speed>
  </trkpt>
  <trkpt lat="6.169612" lon="-75.483429">
    <ele>2441</ele>
    <time>2014-06-15T19:54:48Z</time>
    <speed>17.790743</speed>
  </trkpt>
  <trkpt lat="6.169456" lon="-75.483717">
    <ele>2440</ele>
    <time>2014-06-15T19:54:50Z</time>
    <speed>17.492506</speed>
  </trkpt>
  <trkpt lat="6.169227" lon="-75.483985">
    <ele>2440</ele>
    <time>2014-06-15T19:54:52Z</time>
    <speed>17.657108</speed>
  </trkpt>
  <trkpt lat="6.168929" lon="-75.484168">
    <ele>2441</ele>
    <time>2014-06-15T19:54:54Z</time>
    <speed>18.83215</speed>
  </trkpt>
  <trkpt lat="6.168586" lon="-75.484325">
    <ele>2440</ele>
    <time>2014-06-15T19:54:56Z</time>
    <speed>18.729921</speed>
  </trkpt>
  <trkpt lat="6.168262" lon="-75.484464">
    <ele>2441</ele>
    <time>2014-06-15T19:54:58Z</time>
    <speed>17.929474</speed>
  </trkpt>
  <trkpt lat="6.167929" lon="-75.484620">
    <ele>2439</ele>
    <time>2014-06-15T19:55:00Z</time>
    <speed>18.20361</speed>
  </trkpt>
  <trkpt lat="6.167744" lon="-75.484858">
    <ele>2439</ele>
    <time>2014-06-15T19:55:02Z</time>
    <speed>18.019955</speed>
  </trkpt>
  <trkpt lat="6.167682" lon="-75.485167">
    <ele>2438</ele>
    <time>2014-06-15T19:55:04Z</time>
    <speed>18.619104</speed>
  </trkpt>
  <trkpt lat="6.167661" lon="-75.485505">
    <ele>2440</ele>
    <time>2014-06-15T19:55:06Z</time>
    <speed>18.307226</speed>
  </trkpt>
  <trkpt lat="6.167718" lon="-75.485815">
    <ele>2440</ele>
    <time>2014-06-15T19:55:08Z</time>
    <speed>17.236546</speed>
  </trkpt>
  <trkpt lat="6.167851" lon="-75.486118">
    <ele>2439</ele>
    <time>2014-06-15T19:55:10Z</time>
    <speed>17.614815</speed>
  </trkpt>
  <trkpt lat="6.167978" lon="-75.486411">
    <ele>2440</ele>
    <time>2014-06-15T19:55:12Z</time>
    <speed>18.076414</speed>
  </trkpt>
  <trkpt lat="6.168110" lon="-75.486708">
    <ele>2443</ele>
    <time>2014-06-15T19:55:14Z</time>
    <speed>17.992638</speed>
  </trkpt>
  <trkpt lat="6.168223" lon="-75.487015">
    <ele>2444</ele>
    <time>2014-06-15T19:55:16Z</time>
    <speed>17.195679</speed>
  </trkpt>
  <trkpt lat="6.168343" lon="-75.487341">
    <ele>2444</ele>
    <time>2014-06-15T19:55:18Z</time>
    <speed>17.614204</speed>
  </trkpt>
  <trkpt lat="6.168458" lon="-75.487654">
    <ele>2445</ele>
    <time>2014-06-15T19:55:20Z</time>
    <speed>18.151096</speed>
  </trkpt>
  <trkpt lat="6.168601" lon="-75.487980">
    <ele>2444</ele>
    <time>2014-06-15T19:55:22Z</time>
    <speed>18.865164</speed>
  </trkpt>
  <trkpt lat="6.168774" lon="-75.488297">
    <ele>2445</ele>
    <time>2014-06-15T19:55:24Z</time>
    <speed>19.392122</speed>
  </trkpt>
  <trkpt lat="6.168993" lon="-75.488610">
    <ele>2443</ele>
    <time>2014-06-15T19:55:26Z</time>
    <speed>20.158255</speed>
  </trkpt>
  <trkpt lat="6.169263" lon="-75.488882">
    <ele>2442</ele>
    <time>2014-06-15T19:55:28Z</time>
    <speed>20.080294</speed>
  </trkpt>
  <trkpt lat="6.169576" lon="-75.489111">
    <ele>2440</ele>
    <time>2014-06-15T19:55:30Z</time>
    <speed>21.27669</speed>
  </trkpt>
  <trkpt lat="6.169961" lon="-75.489337">
    <ele>2440</ele>
    <time>2014-06-15T19:55:32Z</time>
    <speed>22.849182</speed>
  </trkpt>
  <trkpt lat="6.170328" lon="-75.489560">
    <ele>2436</ele>
    <time>2014-06-15T19:55:34Z</time>
    <speed>23.742836</speed>
  </trkpt>
  <trkpt lat="6.170679" lon="-75.489799">
    <ele>2435</ele>
    <time>2014-06-15T19:55:36Z</time>
    <speed>23.726583</speed>
  </trkpt>
  <trkpt lat="6.171011" lon="-75.490027">
    <ele>2436</ele>
    <time>2014-06-15T19:55:38Z</time>
    <speed>21.894127</speed>
  </trkpt>
  <trkpt lat="6.171323" lon="-75.490242">
    <ele>2434</ele>
    <time>2014-06-15T19:55:40Z</time>
    <speed>20.953995</speed>
  </trkpt>
  <trkpt lat="6.171623" lon="-75.490453">
    <ele>2437</ele>
    <time>2014-06-15T19:55:42Z</time>
    <speed>19.944082</speed>
  </trkpt>
  <trkpt lat="6.171922" lon="-75.490642">
    <ele>2435</ele>
    <time>2014-06-15T19:55:44Z</time>
    <speed>19.290192</speed>
  </trkpt>
  <trkpt lat="6.172208" lon="-75.490827">
    <ele>2436</ele>
    <time>2014-06-15T19:55:46Z</time>
    <speed>19.960155</speed>
  </trkpt>
  <trkpt lat="6.172522" lon="-75.491043">
    <ele>2432</ele>
    <time>2014-06-15T19:55:48Z</time>
    <speed>21.480623</speed>
  </trkpt>
  <trkpt lat="6.172856" lon="-75.491276">
    <ele>2431</ele>
    <time>2014-06-15T19:55:50Z</time>
    <speed>22.124315</speed>
  </trkpt>
  <trkpt lat="6.173183" lon="-75.491506">
    <ele>2429</ele>
    <time>2014-06-15T19:55:52Z</time>
    <speed>22.248804</speed>
  </trkpt>
  <trkpt lat="6.173510" lon="-75.491727">
    <ele>2432</ele>
    <time>2014-06-15T19:55:54Z</time>
    <speed>21.94322</speed>
  </trkpt>
  <trkpt lat="6.173818" lon="-75.491946">
    <ele>2430</ele>
    <time>2014-06-15T19:55:56Z</time>
    <speed>21.433332</speed>
  </trkpt>
  <trkpt lat="6.174101" lon="-75.492203">
    <ele>2429</ele>
    <time>2014-06-15T19:55:58Z</time>
    <speed>21.372002</speed>
  </trkpt>
  <trkpt lat="6.174326" lon="-75.492489">
    <ele>2428</ele>
    <time>2014-06-15T19:56:00Z</time>
    <speed>21.110748</speed>
  </trkpt>
  <trkpt lat="6.174503" lon="-75.492831">
    <ele>2426</ele>
    <time>2014-06-15T19:56:02Z</time>
    <speed>20.68981</speed>
  </trkpt>
  <trkpt lat="6.174610" lon="-75.493182">
    <ele>2424</ele>
    <time>2014-06-15T19:56:04Z</time>
    <speed>20.144724</speed>
  </trkpt>
  <trkpt lat="6.174708" lon="-75.493534">
    <ele>2425</ele>
    <time>2014-06-15T19:56:06Z</time>
    <speed>20.51144</speed>
  </trkpt>
  <trkpt lat="6.174798" lon="-75.493896">
    <ele>2424</ele>
    <time>2014-06-15T19:56:08Z</time>
    <speed>20.768349</speed>
  </trkpt>
  <trkpt lat="6.174835" lon="-75.494264">
    <ele>2422</ele>
    <time>2014-06-15T19:56:10Z</time>
    <speed>20.210455</speed>
  </trkpt>
  <trkpt lat="6.174831" lon="-75.494647">
    <ele>2420</ele>
    <time>2014-06-15T19:56:12Z</time>
    <speed>20.083767</speed>
  </trkpt>
  <trkpt lat="6.174710" lon="-75.495002">
    <ele>2421</ele>
    <time>2014-06-15T19:56:14Z</time>
    <speed>20.960432</speed>
  </trkpt>
  <trkpt lat="6.174543" lon="-75.495334">
    <ele>2419</ele>
    <time>2014-06-15T19:56:16Z</time>
    <speed>20.357649</speed>
  </trkpt>
  <trkpt lat="6.174304" lon="-75.495628">
    <ele>2421</ele>
    <time>2014-06-15T19:56:18Z</time>
    <speed>20.867489</speed>
  </trkpt>
  <trkpt lat="6.174033" lon="-75.495943">
    <ele>2418</ele>
    <time>2014-06-15T19:56:20Z</time>
    <speed>21.779646</speed>
  </trkpt>
  <trkpt lat="6.173773" lon="-75.496253">
    <ele>2415</ele>
    <time>2014-06-15T19:56:22Z</time>
    <speed>21.88824</speed>
  </trkpt>
  <trkpt lat="6.173530" lon="-75.496549">
    <ele>2413</ele>
    <time>2014-06-15T19:56:24Z</time>
    <speed>20.726076</speed>
  </trkpt>
  <trkpt lat="6.173281" lon="-75.496856">
    <ele>2410</ele>
    <time>2014-06-15T19:56:26Z</time>
    <speed>20.777412</speed>
  </trkpt>
  <trkpt lat="6.173044" lon="-75.497163">
    <ele>2407</ele>
    <time>2014-06-15T19:56:28Z</time>
    <speed>21.045559</speed>
  </trkpt>
  <trkpt lat="6.172821" lon="-75.497456">
    <ele>2405</ele>
    <time>2014-06-15T19:56:30Z</time>
    <speed>20.31665</speed>
  </trkpt>
  <trkpt lat="6.172598" lon="-75.497714">
    <ele>2403</ele>
    <time>2014-06-15T19:56:32Z</time>
    <speed>19.1701</speed>
  </trkpt>
  <trkpt lat="6.172388" lon="-75.497936">
    <ele>2403</ele>
    <time>2014-06-15T19:56:34Z</time>
    <speed>16.911013</speed>
  </trkpt>
  <trkpt lat="6.172128" lon="-75.498066">
    <ele>2404</ele>
    <time>2014-06-15T19:56:36Z</time>
    <speed>14.974813</speed>
  </trkpt>
  <trkpt lat="6.171864" lon="-75.498059">
    <ele>2406</ele>
    <time>2014-06-15T19:56:38Z</time>
    <speed>13.561364</speed>
  </trkpt>
  <trkpt lat="6.171599" lon="-75.498027">
    <ele>2408</ele>
    <time>2014-06-15T19:56:40Z</time>
    <speed>13.983149</speed>
  </trkpt>
  <trkpt lat="6.171330" lon="-75.498000">
    <ele>2410</ele>
    <time>2014-06-15T19:56:42Z</time>
    <speed>13.718972</speed>
  </trkpt>
  <trkpt lat="6.171092" lon="-75.497971">
    <ele>2411</ele>
    <time>2014-06-15T19:56:44Z</time>
    <speed>13.347923</speed>
  </trkpt>
  <trkpt lat="6.170862" lon="-75.497952">
    <ele>2412</ele>
    <time>2014-06-15T19:56:46Z</time>
    <speed>13.165974</speed>
  </trkpt>
  <trkpt lat="6.170630" lon="-75.497938">
    <ele>2415</ele>
    <time>2014-06-15T19:56:48Z</time>
    <speed>13.250209</speed>
  </trkpt>
  <trkpt lat="6.170378" lon="-75.497954">
    <ele>2414</ele>
    <time>2014-06-15T19:56:50Z</time>
    <speed>12.328809</speed>
  </trkpt>
  <trkpt lat="6.170162" lon="-75.498076">
    <ele>2416</ele>
    <time>2014-06-15T19:56:52Z</time>
    <speed>13.077032</speed>
  </trkpt>
  <trkpt lat="6.169985" lon="-75.498202">
    <ele>2418</ele>
    <time>2014-06-15T19:56:54Z</time>
    <speed>10.83689</speed>
  </trkpt>
  <trkpt lat="6.169891" lon="-75.498393">
    <ele>2418</ele>
    <time>2014-06-15T19:56:56Z</time>
    <speed>11.851585</speed>
  </trkpt>
  <trkpt lat="6.169869" lon="-75.498656">
    <ele>2420</ele>
    <time>2014-06-15T19:56:58Z</time>
    <speed>15.2724905</speed>
  </trkpt>
  <trkpt lat="6.169891" lon="-75.498911">
    <ele>2421</ele>
    <time>2014-06-15T19:57:00Z</time>
    <speed>14.495614</speed>
  </trkpt>
  <trkpt lat="6.170043" lon="-75.499149">
    <ele>2422</ele>
    <time>2014-06-15T19:57:02Z</time>
    <speed>13.955902</speed>
  </trkpt>
  <trkpt lat="6.170228" lon="-75.499415">
    <ele>2424</ele>
    <time>2014-06-15T19:57:04Z</time>
    <speed>13.980305</speed>
  </trkpt>
  <trkpt lat="6.170410" lon="-75.499649">
    <ele>2426</ele>
    <time>2014-06-15T19:57:06Z</time>
    <speed>13.873193</speed>
  </trkpt>
  <trkpt lat="6.170577" lon="-75.499880">
    <ele>2427</ele>
    <time>2014-06-15T19:57:08Z</time>
    <speed>14.684211</speed>
  </trkpt>
  <trkpt lat="6.170689" lon="-75.500133">
    <ele>2427</ele>
    <time>2014-06-15T19:57:10Z</time>
    <speed>15.221226</speed>
  </trkpt>
  <trkpt lat="6.170749" lon="-75.500409">
    <ele>2430</ele>
    <time>2014-06-15T19:57:12Z</time>
    <speed>14.703475</speed>
  </trkpt>
  <trkpt lat="6.170703" lon="-75.500665">
    <ele>2432</ele>
    <time>2014-06-15T19:57:14Z</time>
    <speed>14.357447</speed>
  </trkpt>
  <trkpt lat="6.170585" lon="-75.500906">
    <ele>2433</ele>
    <time>2014-06-15T19:57:16Z</time>
    <speed>14.349992</speed>
  </trkpt>
  <trkpt lat="6.170355" lon="-75.501101">
    <ele>2434</ele>
    <time>2014-06-15T19:57:18Z</time>
    <speed>15.110666</speed>
  </trkpt>
  <trkpt lat="6.170105" lon="-75.501259">
    <ele>2438</ele>
    <time>2014-06-15T19:57:20Z</time>
    <speed>15.478879</speed>
  </trkpt>
  <trkpt lat="6.169804" lon="-75.501333">
    <ele>2438</ele>
    <time>2014-06-15T19:57:22Z</time>
    <speed>15.7674465</speed>
  </trkpt>
  <trkpt lat="6.169498" lon="-75.501317">
    <ele>2439</ele>
    <time>2014-06-15T19:57:24Z</time>
    <speed>16.56568</speed>
  </trkpt>
  <trkpt lat="6.169155" lon="-75.501280">
    <ele>2440</ele>
    <time>2014-06-15T19:57:26Z</time>
    <speed>17.227102</speed>
  </trkpt>
  <trkpt lat="6.168817" lon="-75.501213">
    <ele>2440</ele>
    <time>2014-06-15T19:57:28Z</time>
    <speed>18.184904</speed>
  </trkpt>
  <trkpt lat="6.168482" lon="-75.501159">
    <ele>2440</ele>
    <time>2014-06-15T19:57:30Z</time>
    <speed>18.572895</speed>
  </trkpt>
  <trkpt lat="6.168146" lon="-75.501092">
    <ele>2442</ele>
    <time>2014-06-15T19:57:32Z</time>
    <speed>18.63977</speed>
  </trkpt>
  <trkpt lat="6.167799" lon="-75.501032">
    <ele>2441</ele>
    <time>2014-06-15T19:57:34Z</time>
    <speed>18.695839</speed>
  </trkpt>
  <trkpt lat="6.167455" lon="-75.500987">
    <ele>2444</ele>
    <time>2014-06-15T19:57:36Z</time>
    <speed>18.418648</speed>
  </trkpt>
  <trkpt lat="6.167120" lon="-75.500939">
    <ele>2443</ele>
    <time>2014-06-15T19:57:38Z</time>
    <speed>17.824884</speed>
  </trkpt>
  <trkpt lat="6.166794" lon="-75.501013">
    <ele>2447</ele>
    <time>2014-06-15T19:57:40Z</time>
    <speed>17.78665</speed>
  </trkpt>
  <trkpt lat="6.166487" lon="-75.501121">
    <ele>2450</ele>
    <time>2014-06-15T19:57:42Z</time>
    <speed>17.751236</speed>
  </trkpt>
  <trkpt lat="6.166197" lon="-75.501251">
    <ele>2450</ele>
    <time>2014-06-15T19:57:44Z</time>
    <speed>17.460516</speed>
  </trkpt>
  <trkpt lat="6.165910" lon="-75.501408">
    <ele>2450</ele>
    <time>2014-06-15T19:57:46Z</time>
    <speed>17.079239</speed>
  </trkpt>
  <trkpt lat="6.165647" lon="-75.501557">
    <ele>2453</ele>
    <time>2014-06-15T19:57:48Z</time>
    <speed>16.73128</speed>
  </trkpt>
  <trkpt lat="6.165384" lon="-75.501704">
    <ele>2455</ele>
    <time>2014-06-15T19:57:50Z</time>
    <speed>16.21703</speed>
  </trkpt>
  <trkpt lat="6.165129" lon="-75.501854">
    <ele>2456</ele>
    <time>2014-06-15T19:57:52Z</time>
    <speed>15.7001705</speed>
  </trkpt>
  <trkpt lat="6.164873" lon="-75.501997">
    <ele>2459</ele>
    <time>2014-06-15T19:57:54Z</time>
    <speed>15.577611</speed>
  </trkpt>
  <trkpt lat="6.164615" lon="-75.502124">
    <ele>2460</ele>
    <time>2014-06-15T19:57:56Z</time>
    <speed>15.48294</speed>
  </trkpt>
  <trkpt lat="6.164351" lon="-75.502241">
    <ele>2462</ele>
    <time>2014-06-15T19:57:58Z</time>
    <speed>15.231316</speed>
  </trkpt>
  <trkpt lat="6.164094" lon="-75.502348">
    <ele>2464</ele>
    <time>2014-06-15T19:58:00Z</time>
    <speed>15.217574</speed>
  </trkpt>
  <trkpt lat="6.163825" lon="-75.502448">
    <ele>2465</ele>
    <time>2014-06-15T19:58:02Z</time>
    <speed>15.212214</speed>
  </trkpt>
  <trkpt lat="6.163564" lon="-75.502543">
    <ele>2466</ele>
    <time>2014-06-15T19:58:04Z</time>
    <speed>15.189695</speed>
  </trkpt>
  <trkpt lat="6.163287" lon="-75.502645">
    <ele>2468</ele>
    <time>2014-06-15T19:58:06Z</time>
    <speed>15.19731</speed>
  </trkpt>
  <trkpt lat="6.163018" lon="-75.502752">
    <ele>2469</ele>
    <time>2014-06-15T19:58:08Z</time>
    <speed>15.415565</speed>
  </trkpt>
  <trkpt lat="6.162754" lon="-75.502870">
    <ele>2471</ele>
    <time>2014-06-15T19:58:10Z</time>
    <speed>15.865604</speed>
  </trkpt>
  <trkpt lat="6.162486" lon="-75.503008">
    <ele>2472</ele>
    <time>2014-06-15T19:58:12Z</time>
    <speed>16.039526</speed>
  </trkpt>
  <trkpt lat="6.162234" lon="-75.503155">
    <ele>2475</ele>
    <time>2014-06-15T19:58:14Z</time>
    <speed>16.00565</speed>
  </trkpt>
  <trkpt lat="6.161997" lon="-75.503305">
    <ele>2476</ele>
    <time>2014-06-15T19:58:16Z</time>
    <speed>15.875787</speed>
  </trkpt>
  <trkpt lat="6.161764" lon="-75.503458">
    <ele>2478</ele>
    <time>2014-06-15T19:58:18Z</time>
    <speed>15.548255</speed>
  </trkpt>
  <trkpt lat="6.161536" lon="-75.503626">
    <ele>2481</ele>
    <time>2014-06-15T19:58:20Z</time>
    <speed>15.781205</speed>
  </trkpt>
  <trkpt lat="6.161331" lon="-75.503796">
    <ele>2481</ele>
    <time>2014-06-15T19:58:22Z</time>
    <speed>15.507967</speed>
  </trkpt>
  <trkpt lat="6.161117" lon="-75.503971">
    <ele>2482</ele>
    <time>2014-06-15T19:58:24Z</time>
    <speed>15.65479</speed>
  </trkpt>
  <trkpt lat="6.160910" lon="-75.504146">
    <ele>2482</ele>
    <time>2014-06-15T19:58:26Z</time>
    <speed>15.558262</speed>
  </trkpt>
  <trkpt lat="6.160708" lon="-75.504324">
    <ele>2483</ele>
    <time>2014-06-15T19:58:28Z</time>
    <speed>15.407347</speed>
  </trkpt>
  <trkpt lat="6.160514" lon="-75.504510">
    <ele>2484</ele>
    <time>2014-06-15T19:58:30Z</time>
    <speed>14.891331</speed>
  </trkpt>
  <trkpt lat="6.160317" lon="-75.504715">
    <ele>2486</ele>
    <time>2014-06-15T19:58:32Z</time>
    <speed>14.56496</speed>
  </trkpt>
  <trkpt lat="6.160149" lon="-75.504933">
    <ele>2489</ele>
    <time>2014-06-15T19:58:34Z</time>
    <speed>14.035484</speed>
  </trkpt>
  <trkpt lat="6.160015" lon="-75.505166">
    <ele>2491</ele>
    <time>2014-06-15T19:58:36Z</time>
    <speed>13.734871</speed>
  </trkpt>
  <trkpt lat="6.159922" lon="-75.505392">
    <ele>2494</ele>
    <time>2014-06-15T19:58:38Z</time>
    <speed>13.275313</speed>
  </trkpt>
  <trkpt lat="6.159821" lon="-75.505644">
    <ele>2496</ele>
    <time>2014-06-15T19:58:40Z</time>
    <speed>13.8446455</speed>
  </trkpt>
  <trkpt lat="6.159718" lon="-75.505902">
    <ele>2497</ele>
    <time>2014-06-15T19:58:42Z</time>
    <speed>13.675935</speed>
  </trkpt>
  <trkpt lat="6.159617" lon="-75.506153">
    <ele>2498</ele>
    <time>2014-06-15T19:58:44Z</time>
    <speed>13.283682</speed>
  </trkpt>
  <trkpt lat="6.159518" lon="-75.506381">
    <ele>2500</ele>
    <time>2014-06-15T19:58:46Z</time>
    <speed>13.29682</speed>
  </trkpt>
  <trkpt lat="6.159422" lon="-75.506602">
    <ele>2501</ele>
    <time>2014-06-15T19:58:48Z</time>
    <speed>13.569561</speed>
  </trkpt>
  <trkpt lat="6.159337" lon="-75.506850">
    <ele>2502</ele>
    <time>2014-06-15T19:58:50Z</time>
    <speed>14.189793</speed>
  </trkpt>
  <trkpt lat="6.159273" lon="-75.507079">
    <ele>2503</ele>
    <time>2014-06-15T19:58:52Z</time>
    <speed>12.9979725</speed>
  </trkpt>
  <trkpt lat="6.159317" lon="-75.507309">
    <ele>2505</ele>
    <time>2014-06-15T19:58:54Z</time>
    <speed>13.653223</speed>
  </trkpt>
  <trkpt lat="6.159469" lon="-75.507550">
    <ele>2504</ele>
    <time>2014-06-15T19:58:56Z</time>
    <speed>13.157323</speed>
  </trkpt>
  <trkpt lat="6.159667" lon="-75.507752">
    <ele>2504</ele>
    <time>2014-06-15T19:58:58Z</time>
    <speed>13.94736</speed>
  </trkpt>
  <trkpt lat="6.159897" lon="-75.507900">
    <ele>2506</ele>
    <time>2014-06-15T19:59:00Z</time>
    <speed>12.373566</speed>
  </trkpt>
  <trkpt lat="6.160107" lon="-75.508044">
    <ele>2508</ele>
    <time>2014-06-15T19:59:02Z</time>
    <speed>12.598192</speed>
  </trkpt>
  <trkpt lat="6.160332" lon="-75.508186">
    <ele>2510</ele>
    <time>2014-06-15T19:59:04Z</time>
    <speed>12.435533</speed>
  </trkpt>
  <trkpt lat="6.160558" lon="-75.508324">
    <ele>2512</ele>
    <time>2014-06-15T19:59:06Z</time>
    <speed>12.366503</speed>
  </trkpt>
  <trkpt lat="6.160776" lon="-75.508459">
    <ele>2512</ele>
    <time>2014-06-15T19:59:08Z</time>
    <speed>12.188651</speed>
  </trkpt>
  <trkpt lat="6.160992" lon="-75.508606">
    <ele>2515</ele>
    <time>2014-06-15T19:59:10Z</time>
    <speed>13.539965</speed>
  </trkpt>
  <trkpt lat="6.161209" lon="-75.508787">
    <ele>2516</ele>
    <time>2014-06-15T19:59:12Z</time>
    <speed>14.806558</speed>
  </trkpt>
  <trkpt lat="6.161415" lon="-75.509001">
    <ele>2514</ele>
    <time>2014-06-15T19:59:14Z</time>
    <speed>15.533507</speed>
  </trkpt>
  <trkpt lat="6.161580" lon="-75.509228">
    <ele>2512</ele>
    <time>2014-06-15T19:59:16Z</time>
    <speed>16.730345</speed>
  </trkpt>
  <trkpt lat="6.161751" lon="-75.509525">
    <ele>2509</ele>
    <time>2014-06-15T19:59:18Z</time>
    <speed>19.134327</speed>
  </trkpt>
  <trkpt lat="6.161882" lon="-75.509829">
    <ele>2508</ele>
    <time>2014-06-15T19:59:20Z</time>
    <speed>19.412207</speed>
  </trkpt>
  <trkpt lat="6.162022" lon="-75.510190">
    <ele>2506</ele>
    <time>2014-06-15T19:59:22Z</time>
    <speed>19.777933</speed>
  </trkpt>
  <trkpt lat="6.162152" lon="-75.510580">
    <ele>2505</ele>
    <time>2014-06-15T19:59:24Z</time>
    <speed>19.910456</speed>
  </trkpt>
  <trkpt lat="6.162257" lon="-75.510943">
    <ele>2508</ele>
    <time>2014-06-15T19:59:26Z</time>
    <speed>19.817835</speed>
  </trkpt>
  <trkpt lat="6.162361" lon="-75.511281">
    <ele>2506</ele>
    <time>2014-06-15T19:59:28Z</time>
    <speed>19.66011</speed>
  </trkpt>
  <trkpt lat="6.162477" lon="-75.511609">
    <ele>2506</ele>
    <time>2014-06-15T19:59:30Z</time>
    <speed>19.712101</speed>
  </trkpt>
  <trkpt lat="6.162608" lon="-75.511940">
    <ele>2507</ele>
    <time>2014-06-15T19:59:32Z</time>
    <speed>19.646038</speed>
  </trkpt>
  <trkpt lat="6.162740" lon="-75.512271">
    <ele>2505</ele>
    <time>2014-06-15T19:59:34Z</time>
    <speed>19.56215</speed>
  </trkpt>
  <trkpt lat="6.162871" lon="-75.512610">
    <ele>2504</ele>
    <time>2014-06-15T19:59:36Z</time>
    <speed>19.629395</speed>
  </trkpt>
  <trkpt lat="6.162999" lon="-75.512944">
    <ele>2504</ele>
    <time>2014-06-15T19:59:38Z</time>
    <speed>19.694777</speed>
  </trkpt>
  <trkpt lat="6.163124" lon="-75.513283">
    <ele>2502</ele>
    <time>2014-06-15T19:59:40Z</time>
    <speed>19.937782</speed>
  </trkpt>
  <trkpt lat="6.163259" lon="-75.513639">
    <ele>2499</ele>
    <time>2014-06-15T19:59:42Z</time>
    <speed>20.581705</speed>
  </trkpt>
  <trkpt lat="6.163345" lon="-75.514003">
    <ele>2495</ele>
    <time>2014-06-15T19:59:44Z</time>
    <speed>20.41228</speed>
  </trkpt>
  <trkpt lat="6.163350" lon="-75.514339">
    <ele>2493</ele>
    <time>2014-06-15T19:59:46Z</time>
    <speed>18.838358</speed>
  </trkpt>
  <trkpt lat="6.163271" lon="-75.514666">
    <ele>2493</ele>
    <time>2014-06-15T19:59:48Z</time>
    <speed>18.989138</speed>
  </trkpt>
  <trkpt lat="6.163057" lon="-75.514957">
    <ele>2494</ele>
    <time>2014-06-15T19:59:50Z</time>
    <speed>18.362757</speed>
  </trkpt>
  <trkpt lat="6.162795" lon="-75.515190">
    <ele>2490</ele>
    <time>2014-06-15T19:59:52Z</time>
    <speed>18.297539</speed>
  </trkpt>
  <trkpt lat="6.162481" lon="-75.515361">
    <ele>2491</ele>
    <time>2014-06-15T19:59:54Z</time>
    <speed>18.348595</speed>
  </trkpt>
  <trkpt lat="6.162127" lon="-75.515431">
    <ele>2492</ele>
    <time>2014-06-15T19:59:56Z</time>
    <speed>18.278406</speed>
  </trkpt>
  <trkpt lat="6.161774" lon="-75.515483">
    <ele>2489</ele>
    <time>2014-06-15T19:59:58Z</time>
    <speed>18.608635</speed>
  </trkpt>
  <trkpt lat="6.161438" lon="-75.515518">
    <ele>2487</ele>
    <time>2014-06-15T20:00:00Z</time>
    <speed>18.743092</speed>
  </trkpt>
  <trkpt lat="6.161093" lon="-75.515542">
    <ele>2485</ele>
    <time>2014-06-15T20:00:02Z</time>
    <speed>18.398659</speed>
  </trkpt>
  <trkpt lat="6.160763" lon="-75.515563">
    <ele>2484</ele>
    <time>2014-06-15T20:00:04Z</time>
    <speed>17.828411</speed>
  </trkpt>
  <trkpt lat="6.160445" lon="-75.515588">
    <ele>2483</ele>
    <time>2014-06-15T20:00:06Z</time>
    <speed>17.106907</speed>
  </trkpt>
  <trkpt lat="6.160147" lon="-75.515636">
    <ele>2481</ele>
    <time>2014-06-15T20:00:08Z</time>
    <speed>17.10301</speed>
  </trkpt>
  <trkpt lat="6.159896" lon="-75.515757">
    <ele>2481</ele>
    <time>2014-06-15T20:00:10Z</time>
    <speed>16.353691</speed>
  </trkpt>
  <trkpt lat="6.159670" lon="-75.515943">
    <ele>2478</ele>
    <time>2014-06-15T20:00:12Z</time>
    <speed>16.6238</speed>
  </trkpt>
  <trkpt lat="6.159472" lon="-75.516183">
    <ele>2476</ele>
    <time>2014-06-15T20:00:14Z</time>
    <speed>16.616716</speed>
  </trkpt>
  <trkpt lat="6.159355" lon="-75.516439">
    <ele>2472</ele>
    <time>2014-06-15T20:00:16Z</time>
    <speed>16.34027</speed>
  </trkpt>
  <trkpt lat="6.159256" lon="-75.516753">
    <ele>2470</ele>
    <time>2014-06-15T20:00:18Z</time>
    <speed>17.329695</speed>
  </trkpt>
  <trkpt lat="6.159166" lon="-75.517067">
    <ele>2466</ele>
    <time>2014-06-15T20:00:20Z</time>
    <speed>16.123465</speed>
  </trkpt>
  <trkpt lat="6.159098" lon="-75.517344">
    <ele>2462</ele>
    <time>2014-06-15T20:00:22Z</time>
    <speed>14.9431095</speed>
  </trkpt>
  <trkpt lat="6.159045" lon="-75.517580">
    <ele>2463</ele>
    <time>2014-06-15T20:00:24Z</time>
    <speed>12.936408</speed>
  </trkpt>
  <trkpt lat="6.158994" lon="-75.517785">
    <ele>2461</ele>
    <time>2014-06-15T20:00:26Z</time>
    <speed>11.436597</speed>
  </trkpt>
  <trkpt lat="6.158949" lon="-75.517967">
    <ele>2458</ele>
    <time>2014-06-15T20:00:28Z</time>
    <speed>9.110861</speed>
  </trkpt>
  <trkpt lat="6.158923" lon="-75.518077">
    <ele>2456</ele>
    <time>2014-06-15T20:00:30Z</time>
    <speed>6.1011047</speed>
  </trkpt>
  <trkpt lat="6.158910" lon="-75.518134">
    <ele>2457</ele>
    <time>2014-06-15T20:00:33Z</time>
    <speed>2.476948</speed>
  </trkpt>
  <trkpt lat="6.158894" lon="-75.518182">
    <ele>2455</ele>
    <time>2014-06-15T20:00:35Z</time>
    <speed>2.6721585</speed>
  </trkpt>
  <trkpt lat="6.158874" lon="-75.518234">
    <ele>2457</ele>
    <time>2014-06-15T20:00:37Z</time>
    <speed>2.8198586</speed>
  </trkpt>
  <trkpt lat="6.158838" lon="-75.518296">
    <ele>2456</ele>
    <time>2014-06-15T20:00:54Z</time>
    <speed>2.7572622</speed>
  </trkpt>
  <trkpt lat="6.158810" lon="-75.518382">
    <ele>2456</ele>
    <time>2014-06-15T20:00:56Z</time>
    <speed>2.9759617</speed>
  </trkpt>
  <trkpt lat="6.158806" lon="-75.518465">
    <ele>2457</ele>
    <time>2014-06-15T20:00:58Z</time>
    <speed>2.6527567</speed>
  </trkpt>
  <trkpt lat="6.158791" lon="-75.518551">
    <ele>2456</ele>
    <time>2014-06-15T20:01:00Z</time>
    <speed>5.185696</speed>
  </trkpt>
  <trkpt lat="6.158756" lon="-75.518674">
    <ele>2456</ele>
    <time>2014-06-15T20:01:02Z</time>
    <speed>6.648271</speed>
  </trkpt>
  <trkpt lat="6.158721" lon="-75.518814">
    <ele>2457</ele>
    <time>2014-06-15T20:01:04Z</time>
    <speed>8.149367</speed>
  </trkpt>
  <trkpt lat="6.158674" lon="-75.518988">
    <ele>2456</ele>
    <time>2014-06-15T20:01:06Z</time>
    <speed>9.999596</speed>
  </trkpt>
  <trkpt lat="6.158625" lon="-75.519179">
    <ele>2457</ele>
    <time>2014-06-15T20:01:08Z</time>
    <speed>11.942608</speed>
  </trkpt>
  <trkpt lat="6.158561" lon="-75.519403">
    <ele>2457</ele>
    <time>2014-06-15T20:01:10Z</time>
    <speed>12.615458</speed>
  </trkpt>
  <trkpt lat="6.158491" lon="-75.519648">
    <ele>2459</ele>
    <time>2014-06-15T20:01:12Z</time>
    <speed>13.60997</speed>
  </trkpt>
  <trkpt lat="6.158427" lon="-75.519889">
    <ele>2460</ele>
    <time>2014-06-15T20:01:14Z</time>
    <speed>13.465605</speed>
  </trkpt>
  <trkpt lat="6.158373" lon="-75.520131">
    <ele>2460</ele>
    <time>2014-06-15T20:01:16Z</time>
    <speed>13.299829</speed>
  </trkpt>
  <trkpt lat="6.158387" lon="-75.520384">
    <ele>2461</ele>
    <time>2014-06-15T20:01:18Z</time>
    <speed>13.2423</speed>
  </trkpt>
  <trkpt lat="6.158455" lon="-75.520666">
    <ele>2461</ele>
    <time>2014-06-15T20:01:20Z</time>
    <speed>13.721944</speed>
  </trkpt>
  <trkpt lat="6.158629" lon="-75.520902">
    <ele>2463</ele>
    <time>2014-06-15T20:01:22Z</time>
    <speed>15.154911</speed>
  </trkpt>
  <trkpt lat="6.158834" lon="-75.521099">
    <ele>2464</ele>
    <time>2014-06-15T20:01:24Z</time>
    <speed>15.271465</speed>
  </trkpt>
  <trkpt lat="6.159089" lon="-75.521275">
    <ele>2466</ele>
    <time>2014-06-15T20:01:26Z</time>
    <speed>15.445872</speed>
  </trkpt>
  <trkpt lat="6.159374" lon="-75.521443">
    <ele>2468</ele>
    <time>2014-06-15T20:01:28Z</time>
    <speed>15.944335</speed>
  </trkpt>
  <trkpt lat="6.159655" lon="-75.521599">
    <ele>2466</ele>
    <time>2014-06-15T20:01:30Z</time>
    <speed>16.590307</speed>
  </trkpt>
  <trkpt lat="6.159937" lon="-75.521776">
    <ele>2467</ele>
    <time>2014-06-15T20:01:32Z</time>
    <speed>17.086657</speed>
  </trkpt>
  <trkpt lat="6.160130" lon="-75.522006">
    <ele>2469</ele>
    <time>2014-06-15T20:01:34Z</time>
    <speed>16.689367</speed>
  </trkpt>
  <trkpt lat="6.160287" lon="-75.522314">
    <ele>2470</ele>
    <time>2014-06-15T20:01:36Z</time>
    <speed>16.365595</speed>
  </trkpt>
  <trkpt lat="6.160363" lon="-75.522622">
    <ele>2470</ele>
    <time>2014-06-15T20:01:38Z</time>
    <speed>14.377014</speed>
  </trkpt>
  <trkpt lat="6.160362" lon="-75.522972">
    <ele>2471</ele>
    <time>2014-06-15T20:01:40Z</time>
    <speed>11.400751</speed>
  </trkpt>
  <trkpt lat="6.160221" lon="-75.523339">
    <ele>2474</ele>
    <time>2014-06-15T20:01:42Z</time>
    <speed>18.50074</speed>
  </trkpt>
  <trkpt lat="6.160154" lon="-75.523699">
    <ele>2472</ele>
    <time>2014-06-15T20:01:44Z</time>
    <speed>18.624952</speed>
  </trkpt>
  <trkpt lat="6.160083" lon="-75.524041">
    <ele>2475</ele>
    <time>2014-06-15T20:01:46Z</time>
    <speed>18.108044</speed>
  </trkpt>
  <trkpt lat="6.160009" lon="-75.524376">
    <ele>2476</ele>
    <time>2014-06-15T20:01:48Z</time>
    <speed>18.234392</speed>
  </trkpt>
  <trkpt lat="6.159944" lon="-75.524709">
    <ele>2473</ele>
    <time>2014-06-15T20:01:50Z</time>
    <speed>18.11254</speed>
  </trkpt>
  <trkpt lat="6.159892" lon="-75.525053">
    <ele>2475</ele>
    <time>2014-06-15T20:01:52Z</time>
    <speed>18.021614</speed>
  </trkpt>
  <trkpt lat="6.159840" lon="-75.525380">
    <ele>2476</ele>
    <time>2014-06-15T20:01:54Z</time>
    <speed>17.635347</speed>
  </trkpt>
  <trkpt lat="6.159792" lon="-75.525697">
    <ele>2475</ele>
    <time>2014-06-15T20:01:56Z</time>
    <speed>17.600101</speed>
  </trkpt>
  <trkpt lat="6.159743" lon="-75.526017">
    <ele>2475</ele>
    <time>2014-06-15T20:01:58Z</time>
    <speed>17.265572</speed>
  </trkpt>
  <trkpt lat="6.159693" lon="-75.526335">
    <ele>2474</ele>
    <time>2014-06-15T20:02:00Z</time>
    <speed>17.376118</speed>
  </trkpt>
  <trkpt lat="6.159644" lon="-75.526658">
    <ele>2470</ele>
    <time>2014-06-15T20:02:02Z</time>
    <speed>17.810312</speed>
  </trkpt>
  <trkpt lat="6.159601" lon="-75.526980">
    <ele>2470</ele>
    <time>2014-06-15T20:02:04Z</time>
    <speed>18.433064</speed>
  </trkpt>
  <trkpt lat="6.159563" lon="-75.527302">
    <ele>2468</ele>
    <time>2014-06-15T20:02:06Z</time>
    <speed>18.866537</speed>
  </trkpt>
  <trkpt lat="6.159529" lon="-75.527615">
    <ele>2465</ele>
    <time>2014-06-15T20:02:08Z</time>
    <speed>19.222168</speed>
  </trkpt>
  <trkpt lat="6.159502" lon="-75.527960">
    <ele>2463</ele>
    <time>2014-06-15T20:02:10Z</time>
    <speed>19.330467</speed>
  </trkpt>
  <trkpt lat="6.159473" lon="-75.528311">
    <ele>2460</ele>
    <time>2014-06-15T20:02:12Z</time>
    <speed>19.131495</speed>
  </trkpt>
  <trkpt lat="6.159435" lon="-75.528675">
    <ele>2459</ele>
    <time>2014-06-15T20:02:14Z</time>
    <speed>19.588</speed>
  </trkpt>
  <trkpt lat="6.159390" lon="-75.529034">
    <ele>2456</ele>
    <time>2014-06-15T20:02:16Z</time>
    <speed>18.790632</speed>
  </trkpt>
  <trkpt lat="6.159340" lon="-75.529362">
    <ele>2453</ele>
    <time>2014-06-15T20:02:18Z</time>
    <speed>18.603416</speed>
  </trkpt>
  <trkpt lat="6.159297" lon="-75.529685">
    <ele>2449</ele>
    <time>2014-06-15T20:02:20Z</time>
    <speed>18.177355</speed>
  </trkpt>
  <trkpt lat="6.159270" lon="-75.530015">
    <ele>2448</ele>
    <time>2014-06-15T20:02:22Z</time>
    <speed>18.205923</speed>
  </trkpt>
  <trkpt lat="6.159264" lon="-75.530348">
    <ele>2446</ele>
    <time>2014-06-15T20:02:24Z</time>
    <speed>18.100166</speed>
  </trkpt>
  <trkpt lat="6.159262" lon="-75.530673">
    <ele>2442</ele>
    <time>2014-06-15T20:02:26Z</time>
    <speed>18.146847</speed>
  </trkpt>
  <trkpt lat="6.159262" lon="-75.531003">
    <ele>2440</ele>
    <time>2014-06-15T20:02:28Z</time>
    <speed>18.263517</speed>
  </trkpt>
  <trkpt lat="6.159266" lon="-75.531336">
    <ele>2440</ele>
    <time>2014-06-15T20:02:30Z</time>
    <speed>18.888964</speed>
  </trkpt>
  <trkpt lat="6.159267" lon="-75.531664">
    <ele>2436</ele>
    <time>2014-06-15T20:02:32Z</time>
    <speed>18.101763</speed>
  </trkpt>
  <trkpt lat="6.159233" lon="-75.531972">
    <ele>2437</ele>
    <time>2014-06-15T20:02:34Z</time>
    <speed>17.074886</speed>
  </trkpt>
  <trkpt lat="6.159117" lon="-75.532248">
    <ele>2435</ele>
    <time>2014-06-15T20:02:36Z</time>
    <speed>15.907576</speed>
  </trkpt>
  <trkpt lat="6.158941" lon="-75.532491">
    <ele>2434</ele>
    <time>2014-06-15T20:02:38Z</time>
    <speed>16.021824</speed>
  </trkpt>
  <trkpt lat="6.158766" lon="-75.532732">
    <ele>2433</ele>
    <time>2014-06-15T20:02:40Z</time>
    <speed>16.514494</speed>
  </trkpt>
  <trkpt lat="6.158557" lon="-75.532949">
    <ele>2430</ele>
    <time>2014-06-15T20:02:42Z</time>
    <speed>16.208147</speed>
  </trkpt>
  <trkpt lat="6.158303" lon="-75.533108">
    <ele>2429</ele>
    <time>2014-06-15T20:02:44Z</time>
    <speed>14.668031</speed>
  </trkpt>
  <trkpt lat="6.158021" lon="-75.533195">
    <ele>2426</ele>
    <time>2014-06-15T20:02:46Z</time>
    <speed>14.710507</speed>
  </trkpt>
  <trkpt lat="6.157731" lon="-75.533239">
    <ele>2427</ele>
    <time>2014-06-15T20:02:48Z</time>
    <speed>15.240509</speed>
  </trkpt>
  <trkpt lat="6.157431" lon="-75.533264">
    <ele>2426</ele>
    <time>2014-06-15T20:02:50Z</time>
    <speed>15.578839</speed>
  </trkpt>
  <trkpt lat="6.157127" lon="-75.533285">
    <ele>2424</ele>
    <time>2014-06-15T20:02:52Z</time>
    <speed>15.593636</speed>
  </trkpt>
  <trkpt lat="6.156824" lon="-75.533302">
    <ele>2425</ele>
    <time>2014-06-15T20:02:54Z</time>
    <speed>15.74729</speed>
  </trkpt>
  <trkpt lat="6.156520" lon="-75.533247">
    <ele>2422</ele>
    <time>2014-06-15T20:02:56Z</time>
    <speed>15.653975</speed>
  </trkpt>
  <trkpt lat="6.156250" lon="-75.533172">
    <ele>2421</ele>
    <time>2014-06-15T20:02:58Z</time>
    <speed>15.013615</speed>
  </trkpt>
  <trkpt lat="6.156040" lon="-75.532989">
    <ele>2419</ele>
    <time>2014-06-15T20:03:00Z</time>
    <speed>14.66634</speed>
  </trkpt>
  <trkpt lat="6.155885" lon="-75.532734">
    <ele>2419</ele>
    <time>2014-06-15T20:03:02Z</time>
    <speed>15.210901</speed>
  </trkpt>
  <trkpt lat="6.155787" lon="-75.532451">
    <ele>2418</ele>
    <time>2014-06-15T20:03:04Z</time>
    <speed>14.893933</speed>
  </trkpt>
  <trkpt lat="6.155752" lon="-75.532162">
    <ele>2415</ele>
    <time>2014-06-15T20:03:06Z</time>
    <speed>14.479623</speed>
  </trkpt>
  <trkpt lat="6.155734" lon="-75.531882">
    <ele>2414</ele>
    <time>2014-06-15T20:03:08Z</time>
    <speed>15.009204</speed>
  </trkpt>
  <trkpt lat="6.155716" lon="-75.531618">
    <ele>2411</ele>
    <time>2014-06-15T20:03:10Z</time>
    <speed>14.252353</speed>
  </trkpt>
  <trkpt lat="6.155577" lon="-75.531390">
    <ele>2408</ele>
    <time>2014-06-15T20:03:12Z</time>
    <speed>15.138851</speed>
  </trkpt>
  <trkpt lat="6.155360" lon="-75.531234">
    <ele>2408</ele>
    <time>2014-06-15T20:03:14Z</time>
    <speed>14.72891</speed>
  </trkpt>
  <trkpt lat="6.155116" lon="-75.531109">
    <ele>2406</ele>
    <time>2014-06-15T20:03:16Z</time>
    <speed>14.523615</speed>
  </trkpt>
  <trkpt lat="6.154845" lon="-75.531108">
    <ele>2405</ele>
    <time>2014-06-15T20:03:18Z</time>
    <speed>14.378485</speed>
  </trkpt>
  <trkpt lat="6.154578" lon="-75.531167">
    <ele>2404</ele>
    <time>2014-06-15T20:03:20Z</time>
    <speed>14.029715</speed>
  </trkpt>
  <trkpt lat="6.154347" lon="-75.531305">
    <ele>2401</ele>
    <time>2014-06-15T20:03:22Z</time>
    <speed>13.774557</speed>
  </trkpt>
  <trkpt lat="6.154176" lon="-75.531491">
    <ele>2400</ele>
    <time>2014-06-15T20:03:24Z</time>
    <speed>13.294711</speed>
  </trkpt>
  <trkpt lat="6.154047" lon="-75.531711">
    <ele>2398</ele>
    <time>2014-06-15T20:03:26Z</time>
    <speed>13.411916</speed>
  </trkpt>
  <trkpt lat="6.153910" lon="-75.531977">
    <ele>2399</ele>
    <time>2014-06-15T20:03:28Z</time>
    <speed>14.221279</speed>
  </trkpt>
  <trkpt lat="6.153783" lon="-75.532228">
    <ele>2395</ele>
    <time>2014-06-15T20:03:30Z</time>
    <speed>13.748772</speed>
  </trkpt>
  <trkpt lat="6.153679" lon="-75.532425">
    <ele>2394</ele>
    <time>2014-06-15T20:03:32Z</time>
    <speed>11.398098</speed>
  </trkpt>
  <trkpt lat="6.153597" lon="-75.532584">
    <ele>2391</ele>
    <time>2014-06-15T20:03:34Z</time>
    <speed>9.235731</speed>
  </trkpt>
  <trkpt lat="6.153547" lon="-75.532689">
    <ele>2389</ele>
    <time>2014-06-15T20:03:36Z</time>
    <speed>5.0092797</speed>
  </trkpt>
  <trkpt lat="6.153554" lon="-75.532746">
    <ele>2390</ele>
    <time>2014-06-15T20:03:39Z</time>
    <speed>0.95073766</speed>
  </trkpt>
  <trkpt lat="6.153549" lon="-75.532802">
    <ele>2388</ele>
    <time>2014-06-15T20:03:43Z</time>
    <speed>2.2462833</speed>
  </trkpt>
  <trkpt lat="6.153538" lon="-75.532864">
    <ele>2387</ele>
    <time>2014-06-15T20:03:45Z</time>
    <speed>3.2927387</speed>
  </trkpt>
  <trkpt lat="6.153518" lon="-75.532947">
    <ele>2388</ele>
    <time>2014-06-15T20:03:47Z</time>
    <speed>5.333093</speed>
  </trkpt>
  <trkpt lat="6.153502" lon="-75.533074">
    <ele>2387</ele>
    <time>2014-06-15T20:03:49Z</time>
    <speed>6.3597536</speed>
  </trkpt>
  <trkpt lat="6.153509" lon="-75.533195">
    <ele>2387</ele>
    <time>2014-06-15T20:03:51Z</time>
    <speed>6.8046813</speed>
  </trkpt>
  <trkpt lat="6.153546" lon="-75.533357">
    <ele>2387</ele>
    <time>2014-06-15T20:03:53Z</time>
    <speed>7.623912</speed>
  </trkpt>
  <trkpt lat="6.153611" lon="-75.533500">
    <ele>2387</ele>
    <time>2014-06-15T20:03:55Z</time>
    <speed>9.009552</speed>
  </trkpt>
  <trkpt lat="6.153705" lon="-75.533672">
    <ele>2388</ele>
    <time>2014-06-15T20:03:57Z</time>
    <speed>10.575498</speed>
  </trkpt>
  <trkpt lat="6.153821" lon="-75.533854">
    <ele>2390</ele>
    <time>2014-06-15T20:03:59Z</time>
    <speed>11.289704</speed>
  </trkpt>
  <trkpt lat="6.153943" lon="-75.534056">
    <ele>2390</ele>
    <time>2014-06-15T20:04:01Z</time>
    <speed>12.521608</speed>
  </trkpt>
  <trkpt lat="6.154020" lon="-75.534294">
    <ele>2392</ele>
    <time>2014-06-15T20:04:03Z</time>
    <speed>12.837892</speed>
  </trkpt>
  <trkpt lat="6.154078" lon="-75.534500">
    <ele>2393</ele>
    <time>2014-06-15T20:04:05Z</time>
    <speed>12.666187</speed>
  </trkpt>
  <trkpt lat="6.154132" lon="-75.534734">
    <ele>2393</ele>
    <time>2014-06-15T20:04:07Z</time>
    <speed>13.88582</speed>
  </trkpt>
  <trkpt lat="6.154192" lon="-75.535009">
    <ele>2393</ele>
    <time>2014-06-15T20:04:09Z</time>
    <speed>14.747621</speed>
  </trkpt>
  <trkpt lat="6.154249" lon="-75.535281">
    <ele>2393</ele>
    <time>2014-06-15T20:04:11Z</time>
    <speed>15.631814</speed>
  </trkpt>
  <trkpt lat="6.154311" lon="-75.535574">
    <ele>2397</ele>
    <time>2014-06-15T20:04:13Z</time>
    <speed>15.89782</speed>
  </trkpt>
  <trkpt lat="6.154356" lon="-75.535870">
    <ele>2398</ele>
    <time>2014-06-15T20:04:15Z</time>
    <speed>16.200947</speed>
  </trkpt>
  <trkpt lat="6.154370" lon="-75.536162">
    <ele>2398</ele>
    <time>2014-06-15T20:04:17Z</time>
    <speed>16.086937</speed>
  </trkpt>
  <trkpt lat="6.154359" lon="-75.536452">
    <ele>2401</ele>
    <time>2014-06-15T20:04:19Z</time>
    <speed>16.12539</speed>
  </trkpt>
  <trkpt lat="6.154332" lon="-75.536740">
    <ele>2403</ele>
    <time>2014-06-15T20:04:21Z</time>
    <speed>15.977121</speed>
  </trkpt>
  <trkpt lat="6.154293" lon="-75.537026">
    <ele>2408</ele>
    <time>2014-06-15T20:04:23Z</time>
    <speed>16.08316</speed>
  </trkpt>
  <trkpt lat="6.154255" lon="-75.537280">
    <ele>2409</ele>
    <time>2014-06-15T20:04:25Z</time>
    <speed>14.336665</speed>
  </trkpt>
  <trkpt lat="6.154220" lon="-75.537504">
    <ele>2412</ele>
    <time>2014-06-15T20:04:27Z</time>
    <speed>13.392909</speed>
  </trkpt>
  <trkpt lat="6.154177" lon="-75.537694">
    <ele>2414</ele>
    <time>2014-06-15T20:04:29Z</time>
    <speed>11.4009695</speed>
  </trkpt>
  <trkpt lat="6.154123" lon="-75.537881">
    <ele>2415</ele>
    <time>2014-06-15T20:04:31Z</time>
    <speed>10.156228</speed>
  </trkpt>
  <trkpt lat="6.154059" lon="-75.538048">
    <ele>2416</ele>
    <time>2014-06-15T20:04:33Z</time>
    <speed>10.517226</speed>
  </trkpt>
  <trkpt lat="6.153985" lon="-75.538225">
    <ele>2418</ele>
    <time>2014-06-15T20:04:35Z</time>
    <speed>10.621909</speed>
  </trkpt>
  <trkpt lat="6.153911" lon="-75.538418">
    <ele>2419</ele>
    <time>2014-06-15T20:04:37Z</time>
    <speed>10.96371</speed>
  </trkpt>
  <trkpt lat="6.153825" lon="-75.538608">
    <ele>2419</ele>
    <time>2014-06-15T20:04:39Z</time>
    <speed>11.141223</speed>
  </trkpt>
  <trkpt lat="6.153684" lon="-75.538767">
    <ele>2421</ele>
    <time>2014-06-15T20:04:41Z</time>
    <speed>11.459783</speed>
  </trkpt>
  <trkpt lat="6.153514" lon="-75.538910">
    <ele>2421</ele>
    <time>2014-06-15T20:04:43Z</time>
    <speed>11.6452465</speed>
  </trkpt>
  <trkpt lat="6.153351" lon="-75.539065">
    <ele>2423</ele>
    <time>2014-06-15T20:04:45Z</time>
    <speed>11.805457</speed>
  </trkpt>
  <trkpt lat="6.153218" lon="-75.539232">
    <ele>2424</ele>
    <time>2014-06-15T20:04:47Z</time>
    <speed>11.961857</speed>
  </trkpt>
  <trkpt lat="6.153095" lon="-75.539404">
    <ele>2425</ele>
    <time>2014-06-15T20:04:49Z</time>
    <speed>11.900163</speed>
  </trkpt>
  <trkpt lat="6.152988" lon="-75.539571">
    <ele>2426</ele>
    <time>2014-06-15T20:04:51Z</time>
    <speed>11.6972475</speed>
  </trkpt>
  <trkpt lat="6.152916" lon="-75.539758">
    <ele>2427</ele>
    <time>2014-06-15T20:04:53Z</time>
    <speed>10.816203</speed>
  </trkpt>
  <trkpt lat="6.152938" lon="-75.539973">
    <ele>2429</ele>
    <time>2014-06-15T20:04:55Z</time>
    <speed>10.880946</speed>
  </trkpt>
  <trkpt lat="6.153035" lon="-75.540172">
    <ele>2429</ele>
    <time>2014-06-15T20:04:57Z</time>
    <speed>11.551019</speed>
  </trkpt>
  <trkpt lat="6.153152" lon="-75.540385">
    <ele>2430</ele>
    <time>2014-06-15T20:04:59Z</time>
    <speed>12.000725</speed>
  </trkpt>
  <trkpt lat="6.153272" lon="-75.540600">
    <ele>2431</ele>
    <time>2014-06-15T20:05:01Z</time>
    <speed>12.289007</speed>
  </trkpt>
  <trkpt lat="6.153389" lon="-75.540807">
    <ele>2432</ele>
    <time>2014-06-15T20:05:03Z</time>
    <speed>12.2067585</speed>
  </trkpt>
  <trkpt lat="6.153502" lon="-75.541006">
    <ele>2433</ele>
    <time>2014-06-15T20:05:05Z</time>
    <speed>12.428223</speed>
  </trkpt>
  <trkpt lat="6.153616" lon="-75.541203">
    <ele>2435</ele>
    <time>2014-06-15T20:05:07Z</time>
    <speed>12.212939</speed>
  </trkpt>
  <trkpt lat="6.153728" lon="-75.541404">
    <ele>2435</ele>
    <time>2014-06-15T20:05:09Z</time>
    <speed>12.328165</speed>
  </trkpt>
  <trkpt lat="6.153821" lon="-75.541596">
    <ele>2436</ele>
    <time>2014-06-15T20:05:11Z</time>
    <speed>12.751204</speed>
  </trkpt>
  <trkpt lat="6.153918" lon="-75.541795">
    <ele>2433</ele>
    <time>2014-06-15T20:05:13Z</time>
    <speed>12.545867</speed>
  </trkpt>
  <trkpt lat="6.154014" lon="-75.541998">
    <ele>2433</ele>
    <time>2014-06-15T20:05:15Z</time>
    <speed>12.566645</speed>
  </trkpt>
  <trkpt lat="6.154110" lon="-75.542208">
    <ele>2430</ele>
    <time>2014-06-15T20:05:17Z</time>
    <speed>12.78134</speed>
  </trkpt>
  <trkpt lat="6.154215" lon="-75.542428">
    <ele>2429</ele>
    <time>2014-06-15T20:05:19Z</time>
    <speed>12.669847</speed>
  </trkpt>
  <trkpt lat="6.154316" lon="-75.542646">
    <ele>2428</ele>
    <time>2014-06-15T20:05:21Z</time>
    <speed>12.111223</speed>
  </trkpt>
  <trkpt lat="6.154376" lon="-75.542836">
    <ele>2426</ele>
    <time>2014-06-15T20:05:23Z</time>
    <speed>10.625513</speed>
  </trkpt>
  <trkpt lat="6.154348" lon="-75.543057">
    <ele>2424</ele>
    <time>2014-06-15T20:05:25Z</time>
    <speed>11.949943</speed>
  </trkpt>
  <trkpt lat="6.154221" lon="-75.543273">
    <ele>2423</ele>
    <time>2014-06-15T20:05:27Z</time>
    <speed>11.772903</speed>
  </trkpt>
  <trkpt lat="6.154030" lon="-75.543420">
    <ele>2419</ele>
    <time>2014-06-15T20:05:29Z</time>
    <speed>11.734938</speed>
  </trkpt>
  <trkpt lat="6.153776" lon="-75.543466">
    <ele>2418</ele>
    <time>2014-06-15T20:05:31Z</time>
    <speed>12.929683</speed>
  </trkpt>
  <trkpt lat="6.153517" lon="-75.543434">
    <ele>2416</ele>
    <time>2014-06-15T20:05:33Z</time>
    <speed>12.687363</speed>
  </trkpt>
  <trkpt lat="6.153275" lon="-75.543399">
    <ele>2416</ele>
    <time>2014-06-15T20:05:35Z</time>
    <speed>12.098547</speed>
  </trkpt>
  <trkpt lat="6.153036" lon="-75.543405">
    <ele>2414</ele>
    <time>2014-06-15T20:05:37Z</time>
    <speed>11.488297</speed>
  </trkpt>
  <trkpt lat="6.152834" lon="-75.543476">
    <ele>2414</ele>
    <time>2014-06-15T20:05:39Z</time>
    <speed>11.206613</speed>
  </trkpt>
  <trkpt lat="6.152689" lon="-75.543612">
    <ele>2411</ele>
    <time>2014-06-15T20:05:41Z</time>
    <speed>10.566266</speed>
  </trkpt>
  <trkpt lat="6.152561" lon="-75.543772">
    <ele>2410</ele>
    <time>2014-06-15T20:05:43Z</time>
    <speed>11.825426</speed>
  </trkpt>
  <trkpt lat="6.152465" lon="-75.543940">
    <ele>2409</ele>
    <time>2014-06-15T20:05:45Z</time>
    <speed>12.31271</speed>
  </trkpt>
  <trkpt lat="6.152363" lon="-75.544118">
    <ele>2406</ele>
    <time>2014-06-15T20:05:47Z</time>
    <speed>12.49101</speed>
  </trkpt>
  <trkpt lat="6.152242" lon="-75.544320">
    <ele>2404</ele>
    <time>2014-06-15T20:05:49Z</time>
    <speed>12.689602</speed>
  </trkpt>
  <trkpt lat="6.152117" lon="-75.544534">
    <ele>2403</ele>
    <time>2014-06-15T20:05:51Z</time>
    <speed>12.385923</speed>
  </trkpt>
  <trkpt lat="6.152001" lon="-75.544755">
    <ele>2399</ele>
    <time>2014-06-15T20:05:53Z</time>
    <speed>12.08426</speed>
  </trkpt>
  <trkpt lat="6.151952" lon="-75.544981">
    <ele>2398</ele>
    <time>2014-06-15T20:05:55Z</time>
    <speed>12.056378</speed>
  </trkpt>
  <trkpt lat="6.151933" lon="-75.545197">
    <ele>2396</ele>
    <time>2014-06-15T20:05:57Z</time>
    <speed>12.315881</speed>
  </trkpt>
  <trkpt lat="6.151946" lon="-75.545427">
    <ele>2394</ele>
    <time>2014-06-15T20:05:59Z</time>
    <speed>13.083955</speed>
  </trkpt>
  <trkpt lat="6.151975" lon="-75.545657">
    <ele>2393</ele>
    <time>2014-06-15T20:06:01Z</time>
    <speed>12.872778</speed>
  </trkpt>
  <trkpt lat="6.152013" lon="-75.545893">
    <ele>2391</ele>
    <time>2014-06-15T20:06:03Z</time>
    <speed>12.690463</speed>
  </trkpt>
  <trkpt lat="6.152052" lon="-75.546107">
    <ele>2389</ele>
    <time>2014-06-15T20:06:05Z</time>
    <speed>12.491221</speed>
  </trkpt>
  <trkpt lat="6.152087" lon="-75.546307">
    <ele>2387</ele>
    <time>2014-06-15T20:06:07Z</time>
    <speed>10.913079</speed>
  </trkpt>
  <trkpt lat="6.152132" lon="-75.546517">
    <ele>2384</ele>
    <time>2014-06-15T20:06:09Z</time>
    <speed>10.349793</speed>
  </trkpt>
  <trkpt lat="6.152233" lon="-75.546679">
    <ele>2381</ele>
    <time>2014-06-15T20:06:11Z</time>
    <speed>9.318949</speed>
  </trkpt>
  <trkpt lat="6.152406" lon="-75.546749">
    <ele>2381</ele>
    <time>2014-06-15T20:06:13Z</time>
    <speed>9.067697</speed>
  </trkpt>
  <trkpt lat="6.152597" lon="-75.546691">
    <ele>2377</ele>
    <time>2014-06-15T20:06:15Z</time>
    <speed>9.486087</speed>
  </trkpt>
  <trkpt lat="6.152712" lon="-75.546541">
    <ele>2376</ele>
    <time>2014-06-15T20:06:17Z</time>
    <speed>9.31971</speed>
  </trkpt>
  <trkpt lat="6.152772" lon="-75.546310">
    <ele>2378</ele>
    <time>2014-06-15T20:06:19Z</time>
    <speed>11.545765</speed>
  </trkpt>
  <trkpt lat="6.152818" lon="-75.546057">
    <ele>2377</ele>
    <time>2014-06-15T20:06:21Z</time>
    <speed>11.849998</speed>
  </trkpt>
  <trkpt lat="6.152842" lon="-75.545835">
    <ele>2374</ele>
    <time>2014-06-15T20:06:23Z</time>
    <speed>11.556391</speed>
  </trkpt>
  <trkpt lat="6.152860" lon="-75.545643">
    <ele>2373</ele>
    <time>2014-06-15T20:06:25Z</time>
    <speed>10.796063</speed>
  </trkpt>
  <trkpt lat="6.152877" lon="-75.545456">
    <ele>2372</ele>
    <time>2014-06-15T20:06:27Z</time>
    <speed>10.315605</speed>
  </trkpt>
  <trkpt lat="6.152899" lon="-75.545262">
    <ele>2371</ele>
    <time>2014-06-15T20:06:29Z</time>
    <speed>10.266032</speed>
  </trkpt>
  <trkpt lat="6.152936" lon="-75.545060">
    <ele>2368</ele>
    <time>2014-06-15T20:06:31Z</time>
    <speed>10.042733</speed>
  </trkpt>
  <trkpt lat="6.152996" lon="-75.544872">
    <ele>2368</ele>
    <time>2014-06-15T20:06:33Z</time>
    <speed>9.842332</speed>
  </trkpt>
  <trkpt lat="6.153101" lon="-75.544731">
    <ele>2368</ele>
    <time>2014-06-15T20:06:35Z</time>
    <speed>10.184849</speed>
  </trkpt>
  <trkpt lat="6.153251" lon="-75.544610">
    <ele>2368</ele>
    <time>2014-06-15T20:06:37Z</time>
    <speed>10.211565</speed>
  </trkpt>
  <trkpt lat="6.153440" lon="-75.544502">
    <ele>2368</ele>
    <time>2014-06-15T20:06:39Z</time>
    <speed>10.809644</speed>
  </trkpt>
  <trkpt lat="6.153652" lon="-75.544455">
    <ele>2367</ele>
    <time>2014-06-15T20:06:41Z</time>
    <speed>10.325726</speed>
  </trkpt>
  <trkpt lat="6.153848" lon="-75.544471">
    <ele>2363</ele>
    <time>2014-06-15T20:06:43Z</time>
    <speed>10.111691</speed>
  </trkpt>
  <trkpt lat="6.154056" lon="-75.544536">
    <ele>2364</ele>
    <time>2014-06-15T20:06:45Z</time>
    <speed>10.290713</speed>
  </trkpt>
  <trkpt lat="6.154232" lon="-75.544634">
    <ele>2362</ele>
    <time>2014-06-15T20:06:47Z</time>
    <speed>10.529281</speed>
  </trkpt>
  <trkpt lat="6.154410" lon="-75.544780">
    <ele>2361</ele>
    <time>2014-06-15T20:06:49Z</time>
    <speed>11.215613</speed>
  </trkpt>
  <trkpt lat="6.154553" lon="-75.544951">
    <ele>2358</ele>
    <time>2014-06-15T20:06:51Z</time>
    <speed>11.738667</speed>
  </trkpt>
  <trkpt lat="6.154698" lon="-75.545129">
    <ele>2358</ele>
    <time>2014-06-15T20:06:53Z</time>
    <speed>11.186768</speed>
  </trkpt>
  <trkpt lat="6.154831" lon="-75.545296">
    <ele>2355</ele>
    <time>2014-06-15T20:06:55Z</time>
    <speed>11.522683</speed>
  </trkpt>
  <trkpt lat="6.154974" lon="-75.545471">
    <ele>2355</ele>
    <time>2014-06-15T20:06:57Z</time>
    <speed>11.655686</speed>
  </trkpt>
  <trkpt lat="6.155110" lon="-75.545629">
    <ele>2354</ele>
    <time>2014-06-15T20:06:59Z</time>
    <speed>11.399372</speed>
  </trkpt>
  <trkpt lat="6.155253" lon="-75.545792">
    <ele>2352</ele>
    <time>2014-06-15T20:07:01Z</time>
    <speed>11.347195</speed>
  </trkpt>
  <trkpt lat="6.155399" lon="-75.545957">
    <ele>2349</ele>
    <time>2014-06-15T20:07:03Z</time>
    <speed>11.255221</speed>
  </trkpt>
  <trkpt lat="6.155545" lon="-75.546117">
    <ele>2348</ele>
    <time>2014-06-15T20:07:05Z</time>
    <speed>11.271319</speed>
  </trkpt>
  <trkpt lat="6.155696" lon="-75.546284">
    <ele>2347</ele>
    <time>2014-06-15T20:07:07Z</time>
    <speed>11.3496895</speed>
  </trkpt>
  <trkpt lat="6.155835" lon="-75.546434">
    <ele>2345</ele>
    <time>2014-06-15T20:07:09Z</time>
    <speed>11.69201</speed>
  </trkpt>
  <trkpt lat="6.155993" lon="-75.546580">
    <ele>2343</ele>
    <time>2014-06-15T20:07:11Z</time>
    <speed>11.467615</speed>
  </trkpt>
  <trkpt lat="6.156157" lon="-75.546706">
    <ele>2340</ele>
    <time>2014-06-15T20:07:13Z</time>
    <speed>9.725979</speed>
  </trkpt>
  <trkpt lat="6.156319" lon="-75.546807">
    <ele>2340</ele>
    <time>2014-06-15T20:07:15Z</time>
    <speed>10.018588</speed>
  </trkpt>
  <trkpt lat="6.156469" lon="-75.546875">
    <ele>2339</ele>
    <time>2014-06-15T20:07:17Z</time>
    <speed>9.09901</speed>
  </trkpt>
  <trkpt lat="6.156643" lon="-75.546875">
    <ele>2338</ele>
    <time>2014-06-15T20:07:19Z</time>
    <speed>9.503167</speed>
  </trkpt>
  <trkpt lat="6.156843" lon="-75.546803">
    <ele>2336</ele>
    <time>2014-06-15T20:07:21Z</time>
    <speed>10.509569</speed>
  </trkpt>
  <trkpt lat="6.157039" lon="-75.546721">
    <ele>2333</ele>
    <time>2014-06-15T20:07:23Z</time>
    <speed>10.318977</speed>
  </trkpt>
  <trkpt lat="6.157237" lon="-75.546644">
    <ele>2333</ele>
    <time>2014-06-15T20:07:25Z</time>
    <speed>11.225347</speed>
  </trkpt>
  <trkpt lat="6.157457" lon="-75.546589">
    <ele>2331</ele>
    <time>2014-06-15T20:07:27Z</time>
    <speed>11.6720085</speed>
  </trkpt>
  <trkpt lat="6.157699" lon="-75.546554">
    <ele>2330</ele>
    <time>2014-06-15T20:07:29Z</time>
    <speed>11.856908</speed>
  </trkpt>
  <trkpt lat="6.157943" lon="-75.546533">
    <ele>2324</ele>
    <time>2014-06-15T20:07:31Z</time>
    <speed>11.617694</speed>
  </trkpt>
  <trkpt lat="6.158175" lon="-75.546513">
    <ele>2322</ele>
    <time>2014-06-15T20:07:33Z</time>
    <speed>11.858361</speed>
  </trkpt>
  <trkpt lat="6.158395" lon="-75.546494">
    <ele>2320</ele>
    <time>2014-06-15T20:07:35Z</time>
    <speed>11.763218</speed>
  </trkpt>
  <trkpt lat="6.158620" lon="-75.546483">
    <ele>2317</ele>
    <time>2014-06-15T20:07:37Z</time>
    <speed>12.619238</speed>
  </trkpt>
  <trkpt lat="6.158843" lon="-75.546493">
    <ele>2315</ele>
    <time>2014-06-15T20:07:39Z</time>
    <speed>12.448579</speed>
  </trkpt>
  <trkpt lat="6.159044" lon="-75.546566">
    <ele>2312</ele>
    <time>2014-06-15T20:07:41Z</time>
    <speed>11.875188</speed>
  </trkpt>
  <trkpt lat="6.159236" lon="-75.546631">
    <ele>2310</ele>
    <time>2014-06-15T20:07:43Z</time>
    <speed>12.127183</speed>
  </trkpt>
  <trkpt lat="6.159447" lon="-75.546675">
    <ele>2308</ele>
    <time>2014-06-15T20:07:45Z</time>
    <speed>12.55456</speed>
  </trkpt>
  <trkpt lat="6.159663" lon="-75.546647">
    <ele>2307</ele>
    <time>2014-06-15T20:07:47Z</time>
    <speed>11.835873</speed>
  </trkpt>
  <trkpt lat="6.159836" lon="-75.546520">
    <ele>2306</ele>
    <time>2014-06-15T20:07:49Z</time>
    <speed>12.096136</speed>
  </trkpt>
  <trkpt lat="6.159965" lon="-75.546346">
    <ele>2304</ele>
    <time>2014-06-15T20:07:51Z</time>
    <speed>11.081948</speed>
  </trkpt>
  <trkpt lat="6.160037" lon="-75.546119">
    <ele>2302</ele>
    <time>2014-06-15T20:07:53Z</time>
    <speed>10.726083</speed>
  </trkpt>
  <trkpt lat="6.160029" lon="-75.545889">
    <ele>2302</ele>
    <time>2014-06-15T20:07:55Z</time>
    <speed>9.739801</speed>
  </trkpt>
  <trkpt lat="6.159992" lon="-75.545626">
    <ele>2299</ele>
    <time>2014-06-15T20:07:57Z</time>
    <speed>11.795176</speed>
  </trkpt>
  <trkpt lat="6.160054" lon="-75.545360">
    <ele>2296</ele>
    <time>2014-06-15T20:07:59Z</time>
    <speed>13.9253025</speed>
  </trkpt>
  <trkpt lat="6.160198" lon="-75.545150">
    <ele>2293</ele>
    <time>2014-06-15T20:08:01Z</time>
    <speed>13.372776</speed>
  </trkpt>
  <trkpt lat="6.160385" lon="-75.545023">
    <ele>2292</ele>
    <time>2014-06-15T20:08:03Z</time>
    <speed>12.155649</speed>
  </trkpt>
  <trkpt lat="6.160611" lon="-75.544981">
    <ele>2289</ele>
    <time>2014-06-15T20:08:05Z</time>
    <speed>13.410951</speed>
  </trkpt>
  <trkpt lat="6.160863" lon="-75.544964">
    <ele>2289</ele>
    <time>2014-06-15T20:08:07Z</time>
    <speed>15.33187</speed>
  </trkpt>
  <trkpt lat="6.161133" lon="-75.544962">
    <ele>2289</ele>
    <time>2014-06-15T20:08:09Z</time>
    <speed>16.145252</speed>
  </trkpt>
  <trkpt lat="6.161401" lon="-75.544980">
    <ele>2286</ele>
    <time>2014-06-15T20:08:11Z</time>
    <speed>15.642824</speed>
  </trkpt>
  <trkpt lat="6.161685" lon="-75.545014">
    <ele>2283</ele>
    <time>2014-06-15T20:08:13Z</time>
    <speed>16.484964</speed>
  </trkpt>
  <trkpt lat="6.161969" lon="-75.545069">
    <ele>2281</ele>
    <time>2014-06-15T20:08:15Z</time>
    <speed>16.509285</speed>
  </trkpt>
  <trkpt lat="6.162235" lon="-75.545201">
    <ele>2280</ele>
    <time>2014-06-15T20:08:17Z</time>
    <speed>15.216132</speed>
  </trkpt>
  <trkpt lat="6.162464" lon="-75.545329">
    <ele>2278</ele>
    <time>2014-06-15T20:08:19Z</time>
    <speed>14.585711</speed>
  </trkpt>
  <trkpt lat="6.162703" lon="-75.545456">
    <ele>2276</ele>
    <time>2014-06-15T20:08:21Z</time>
    <speed>14.0237465</speed>
  </trkpt>
  <trkpt lat="6.162940" lon="-75.545562">
    <ele>2274</ele>
    <time>2014-06-15T20:08:23Z</time>
    <speed>13.69527</speed>
  </trkpt>
  <trkpt lat="6.163184" lon="-75.545648">
    <ele>2274</ele>
    <time>2014-06-15T20:08:25Z</time>
    <speed>13.81533</speed>
  </trkpt>
  <trkpt lat="6.163420" lon="-75.545693">
    <ele>2271</ele>
    <time>2014-06-15T20:08:27Z</time>
    <speed>13.471356</speed>
  </trkpt>
  <trkpt lat="6.163663" lon="-75.545706">
    <ele>2269</ele>
    <time>2014-06-15T20:08:29Z</time>
    <speed>13.7309475</speed>
  </trkpt>
  <trkpt lat="6.163914" lon="-75.545683">
    <ele>2268</ele>
    <time>2014-06-15T20:08:31Z</time>
    <speed>12.901043</speed>
  </trkpt>
  <trkpt lat="6.164156" lon="-75.545635">
    <ele>2266</ele>
    <time>2014-06-15T20:08:33Z</time>
    <speed>12.028956</speed>
  </trkpt>
  <trkpt lat="6.164378" lon="-75.545522">
    <ele>2266</ele>
    <time>2014-06-15T20:08:35Z</time>
    <speed>12.126086</speed>
  </trkpt>
  <trkpt lat="6.164587" lon="-75.545356">
    <ele>2262</ele>
    <time>2014-06-15T20:08:37Z</time>
    <speed>11.853745</speed>
  </trkpt>
  <trkpt lat="6.164751" lon="-75.545189">
    <ele>2261</ele>
    <time>2014-06-15T20:08:39Z</time>
    <speed>11.992896</speed>
  </trkpt>
  <trkpt lat="6.164921" lon="-75.545078">
    <ele>2259</ele>
    <time>2014-06-15T20:08:41Z</time>
    <speed>11.793061</speed>
  </trkpt>
  <trkpt lat="6.165129" lon="-75.545025">
    <ele>2259</ele>
    <time>2014-06-15T20:08:43Z</time>
    <speed>12.782537</speed>
  </trkpt>
  <trkpt lat="6.165341" lon="-75.545041">
    <ele>2257</ele>
    <time>2014-06-15T20:08:45Z</time>
    <speed>12.67932</speed>
  </trkpt>
  <trkpt lat="6.165545" lon="-75.545093">
    <ele>2255</ele>
    <time>2014-06-15T20:08:47Z</time>
    <speed>12.956152</speed>
  </trkpt>
  <trkpt lat="6.165750" lon="-75.545165">
    <ele>2255</ele>
    <time>2014-06-15T20:08:49Z</time>
    <speed>12.407751</speed>
  </trkpt>
  <trkpt lat="6.165960" lon="-75.545223">
    <ele>2249</ele>
    <time>2014-06-15T20:08:51Z</time>
    <speed>11.8555765</speed>
  </trkpt>
  <trkpt lat="6.166168" lon="-75.545190">
    <ele>2249</ele>
    <time>2014-06-15T20:08:53Z</time>
    <speed>12.066578</speed>
  </trkpt>
  <trkpt lat="6.166367" lon="-75.545135">
    <ele>2246</ele>
    <time>2014-06-15T20:08:55Z</time>
    <speed>11.855563</speed>
  </trkpt>
  <trkpt lat="6.166576" lon="-75.545075">
    <ele>2245</ele>
    <time>2014-06-15T20:08:57Z</time>
    <speed>12.032273</speed>
  </trkpt>
  <trkpt lat="6.166804" lon="-75.545030">
    <ele>2245</ele>
    <time>2014-06-15T20:08:59Z</time>
    <speed>12.636272</speed>
  </trkpt>
  <trkpt lat="6.167023" lon="-75.545060">
    <ele>2243</ele>
    <time>2014-06-15T20:09:01Z</time>
    <speed>12.72472</speed>
  </trkpt>
  <trkpt lat="6.167241" lon="-75.545158">
    <ele>2242</ele>
    <time>2014-06-15T20:09:03Z</time>
    <speed>13.256504</speed>
  </trkpt>
  <trkpt lat="6.167483" lon="-75.545265">
    <ele>2239</ele>
    <time>2014-06-15T20:09:05Z</time>
    <speed>14.0678</speed>
  </trkpt>
  <trkpt lat="6.167714" lon="-75.545368">
    <ele>2237</ele>
    <time>2014-06-15T20:09:07Z</time>
    <speed>14.318264</speed>
  </trkpt>
  <trkpt lat="6.167957" lon="-75.545474">
    <ele>2235</ele>
    <time>2014-06-15T20:09:09Z</time>
    <speed>13.707916</speed>
  </trkpt>
  <trkpt lat="6.168196" lon="-75.545553">
    <ele>2234</ele>
    <time>2014-06-15T20:09:11Z</time>
    <speed>13.09298</speed>
  </trkpt>
  <trkpt lat="6.168429" lon="-75.545560">
    <ele>2233</ele>
    <time>2014-06-15T20:09:13Z</time>
    <speed>13.193677</speed>
  </trkpt>
  <trkpt lat="6.168658" lon="-75.545556">
    <ele>2231</ele>
    <time>2014-06-15T20:09:15Z</time>
    <speed>12.806374</speed>
  </trkpt>
  <trkpt lat="6.168890" lon="-75.545540">
    <ele>2227</ele>
    <time>2014-06-15T20:09:17Z</time>
    <speed>13.474231</speed>
  </trkpt>
  <trkpt lat="6.169131" lon="-75.545521">
    <ele>2226</ele>
    <time>2014-06-15T20:09:19Z</time>
    <speed>13.2711735</speed>
  </trkpt>
  <trkpt lat="6.169357" lon="-75.545497">
    <ele>2223</ele>
    <time>2014-06-15T20:09:21Z</time>
    <speed>13.055616</speed>
  </trkpt>
  <trkpt lat="6.169603" lon="-75.545482">
    <ele>2221</ele>
    <time>2014-06-15T20:09:23Z</time>
    <speed>13.041351</speed>
  </trkpt>
  <trkpt lat="6.169834" lon="-75.545526">
    <ele>2219</ele>
    <time>2014-06-15T20:09:25Z</time>
    <speed>13.102001</speed>
  </trkpt>
  <trkpt lat="6.170057" lon="-75.545617">
    <ele>2218</ele>
    <time>2014-06-15T20:09:27Z</time>
    <speed>13.38991</speed>
  </trkpt>
  <trkpt lat="6.170284" lon="-75.545726">
    <ele>2215</ele>
    <time>2014-06-15T20:09:29Z</time>
    <speed>13.531734</speed>
  </trkpt>
  <trkpt lat="6.170506" lon="-75.545841">
    <ele>2214</ele>
    <time>2014-06-15T20:09:31Z</time>
    <speed>13.501717</speed>
  </trkpt>
  <trkpt lat="6.170719" lon="-75.545962">
    <ele>2212</ele>
    <time>2014-06-15T20:09:33Z</time>
    <speed>13.086002</speed>
  </trkpt>
  <trkpt lat="6.170940" lon="-75.546093">
    <ele>2210</ele>
    <time>2014-06-15T20:09:35Z</time>
    <speed>13.639477</speed>
  </trkpt>
  <trkpt lat="6.171152" lon="-75.546226">
    <ele>2207</ele>
    <time>2014-06-15T20:09:37Z</time>
    <speed>14.321719</speed>
  </trkpt>
  <trkpt lat="6.171371" lon="-75.546375">
    <ele>2209</ele>
    <time>2014-06-15T20:09:39Z</time>
    <speed>15.000174</speed>
  </trkpt>
  <trkpt lat="6.171584" lon="-75.546513">
    <ele>2205</ele>
    <time>2014-06-15T20:09:41Z</time>
    <speed>14.917474</speed>
  </trkpt>
  <trkpt lat="6.171800" lon="-75.546652">
    <ele>2202</ele>
    <time>2014-06-15T20:09:43Z</time>
    <speed>13.932659</speed>
  </trkpt>
  <trkpt lat="6.172013" lon="-75.546743">
    <ele>2200</ele>
    <time>2014-06-15T20:09:45Z</time>
    <speed>13.346073</speed>
  </trkpt>
  <trkpt lat="6.172249" lon="-75.546768">
    <ele>2198</ele>
    <time>2014-06-15T20:09:47Z</time>
    <speed>13.617395</speed>
  </trkpt>
  <trkpt lat="6.172502" lon="-75.546742">
    <ele>2196</ele>
    <time>2014-06-15T20:09:49Z</time>
    <speed>13.410862</speed>
  </trkpt>
  <trkpt lat="6.172770" lon="-75.546694">
    <ele>2195</ele>
    <time>2014-06-15T20:09:51Z</time>
    <speed>13.60677</speed>
  </trkpt>
  <trkpt lat="6.173028" lon="-75.546646">
    <ele>2194</ele>
    <time>2014-06-15T20:09:53Z</time>
    <speed>13.711821</speed>
  </trkpt>
  <trkpt lat="6.173268" lon="-75.546608">
    <ele>2193</ele>
    <time>2014-06-15T20:09:55Z</time>
    <speed>14.184701</speed>
  </trkpt>
  <trkpt lat="6.173533" lon="-75.546564">
    <ele>2190</ele>
    <time>2014-06-15T20:09:57Z</time>
    <speed>14.135788</speed>
  </trkpt>
  <trkpt lat="6.173807" lon="-75.546509">
    <ele>2188</ele>
    <time>2014-06-15T20:09:59Z</time>
    <speed>15.065189</speed>
  </trkpt>
  <trkpt lat="6.174065" lon="-75.546449">
    <ele>2188</ele>
    <time>2014-06-15T20:10:01Z</time>
    <speed>14.554561</speed>
  </trkpt>
  <trkpt lat="6.174315" lon="-75.546382">
    <ele>2185</ele>
    <time>2014-06-15T20:10:03Z</time>
    <speed>14.69337</speed>
  </trkpt>
  <trkpt lat="6.174574" lon="-75.546305">
    <ele>2183</ele>
    <time>2014-06-15T20:10:05Z</time>
    <speed>14.971682</speed>
  </trkpt>
  <trkpt lat="6.174840" lon="-75.546228">
    <ele>2181</ele>
    <time>2014-06-15T20:10:07Z</time>
    <speed>14.679271</speed>
  </trkpt>
  <trkpt lat="6.175072" lon="-75.546162">
    <ele>2180</ele>
    <time>2014-06-15T20:10:09Z</time>
    <speed>14.484434</speed>
  </trkpt>
  <trkpt lat="6.175305" lon="-75.546096">
    <ele>2177</ele>
    <time>2014-06-15T20:10:11Z</time>
    <speed>15.05891</speed>
  </trkpt>
  <trkpt lat="6.175526" lon="-75.546032">
    <ele>2175</ele>
    <time>2014-06-15T20:10:13Z</time>
    <speed>13.757891</speed>
  </trkpt>
  <trkpt lat="6.175748" lon="-75.545972">
    <ele>2174</ele>
    <time>2014-06-15T20:10:15Z</time>
    <speed>13.8422985</speed>
  </trkpt>
  <trkpt lat="6.175988" lon="-75.545902">
    <ele>2170</ele>
    <time>2014-06-15T20:10:17Z</time>
    <speed>13.787796</speed>
  </trkpt>
  <trkpt lat="6.176198" lon="-75.545817">
    <ele>2168</ele>
    <time>2014-06-15T20:10:19Z</time>
    <speed>13.02437</speed>
  </trkpt>
  <trkpt lat="6.176379" lon="-75.545708">
    <ele>2163</ele>
    <time>2014-06-15T20:10:21Z</time>
    <speed>12.149568</speed>
  </trkpt>
  <trkpt lat="6.176524" lon="-75.545594">
    <ele>2162</ele>
    <time>2014-06-15T20:10:23Z</time>
    <speed>10.847102</speed>
  </trkpt>
  <trkpt lat="6.176675" lon="-75.545461">
    <ele>2160</ele>
    <time>2014-06-15T20:10:25Z</time>
    <speed>10.629256</speed>
  </trkpt>
  <trkpt lat="6.176826" lon="-75.545317">
    <ele>2159</ele>
    <time>2014-06-15T20:10:27Z</time>
    <speed>10.68797</speed>
  </trkpt>
  <trkpt lat="6.176959" lon="-75.545185">
    <ele>2158</ele>
    <time>2014-06-15T20:10:29Z</time>
    <speed>10.831473</speed>
  </trkpt>
  <trkpt lat="6.177113" lon="-75.545100">
    <ele>2155</ele>
    <time>2014-06-15T20:10:31Z</time>
    <speed>10.310904</speed>
  </trkpt>
  <trkpt lat="6.177269" lon="-75.545095">
    <ele>2155</ele>
    <time>2014-06-15T20:10:33Z</time>
    <speed>10.284315</speed>
  </trkpt>
  <trkpt lat="6.177433" lon="-75.545134">
    <ele>2153</ele>
    <time>2014-06-15T20:10:35Z</time>
    <speed>9.948813</speed>
  </trkpt>
  <trkpt lat="6.177591" lon="-75.545159">
    <ele>2151</ele>
    <time>2014-06-15T20:10:37Z</time>
    <speed>10.276168</speed>
  </trkpt>
  <trkpt lat="6.177756" lon="-75.545131">
    <ele>2149</ele>
    <time>2014-06-15T20:10:39Z</time>
    <speed>9.309914</speed>
  </trkpt>
  <trkpt lat="6.177893" lon="-75.545011">
    <ele>2149</ele>
    <time>2014-06-15T20:10:41Z</time>
    <speed>9.36698</speed>
  </trkpt>
  <trkpt lat="6.178000" lon="-75.544858">
    <ele>2148</ele>
    <time>2014-06-15T20:10:43Z</time>
    <speed>10.168117</speed>
  </trkpt>
  <trkpt lat="6.178101" lon="-75.544679">
    <ele>2146</ele>
    <time>2014-06-15T20:10:45Z</time>
    <speed>11.085293</speed>
  </trkpt>
  <trkpt lat="6.178200" lon="-75.544488">
    <ele>2146</ele>
    <time>2014-06-15T20:10:47Z</time>
    <speed>11.32697</speed>
  </trkpt>
  <trkpt lat="6.178292" lon="-75.544299">
    <ele>2147</ele>
    <time>2014-06-15T20:10:49Z</time>
    <speed>11.466801</speed>
  </trkpt>
  <trkpt lat="6.178398" lon="-75.544087">
    <ele>2143</ele>
    <time>2014-06-15T20:10:51Z</time>
    <speed>11.755354</speed>
  </trkpt>
  <trkpt lat="6.178492" lon="-75.543893">
    <ele>2141</ele>
    <time>2014-06-15T20:10:53Z</time>
    <speed>11.761964</speed>
  </trkpt>
  <trkpt lat="6.178589" lon="-75.543699">
    <ele>2138</ele>
    <time>2014-06-15T20:10:55Z</time>
    <speed>11.747625</speed>
  </trkpt>
  <trkpt lat="6.178691" lon="-75.543508">
    <ele>2135</ele>
    <time>2014-06-15T20:10:57Z</time>
    <speed>11.477259</speed>
  </trkpt>
  <trkpt lat="6.178800" lon="-75.543315">
    <ele>2134</ele>
    <time>2014-06-15T20:10:59Z</time>
    <speed>11.310292</speed>
  </trkpt>
  <trkpt lat="6.178939" lon="-75.543184">
    <ele>2132</ele>
    <time>2014-06-15T20:11:01Z</time>
    <speed>10.923521</speed>
  </trkpt>
  <trkpt lat="6.179113" lon="-75.543112">
    <ele>2130</ele>
    <time>2014-06-15T20:11:03Z</time>
    <speed>11.7647705</speed>
  </trkpt>
  <trkpt lat="6.179310" lon="-75.543104">
    <ele>2129</ele>
    <time>2014-06-15T20:11:05Z</time>
    <speed>11.2190485</speed>
  </trkpt>
  <trkpt lat="6.179509" lon="-75.543185">
    <ele>2129</ele>
    <time>2014-06-15T20:11:07Z</time>
    <speed>11.531195</speed>
  </trkpt>
  <trkpt lat="6.179673" lon="-75.543297">
    <ele>2126</ele>
    <time>2014-06-15T20:11:09Z</time>
    <speed>11.721205</speed>
  </trkpt>
  <trkpt lat="6.179829" lon="-75.543448">
    <ele>2124</ele>
    <time>2014-06-15T20:11:11Z</time>
    <speed>12.216033</speed>
  </trkpt>
  <trkpt lat="6.179995" lon="-75.543617">
    <ele>2124</ele>
    <time>2014-06-15T20:11:13Z</time>
    <speed>12.311803</speed>
  </trkpt>
  <trkpt lat="6.180152" lon="-75.543775">
    <ele>2122</ele>
    <time>2014-06-15T20:11:15Z</time>
    <speed>11.306693</speed>
  </trkpt>
  <trkpt lat="6.180280" lon="-75.543906">
    <ele>2121</ele>
    <time>2014-06-15T20:11:17Z</time>
    <speed>11.355317</speed>
  </trkpt>
  <trkpt lat="6.180455" lon="-75.544051">
    <ele>2117</ele>
    <time>2014-06-15T20:11:19Z</time>
    <speed>10.996087</speed>
  </trkpt>
  <trkpt lat="6.180671" lon="-75.544129">
    <ele>2115</ele>
    <time>2014-06-15T20:11:21Z</time>
    <speed>11.620326</speed>
  </trkpt>
  <trkpt lat="6.180881" lon="-75.544167">
    <ele>2115</ele>
    <time>2014-06-15T20:11:23Z</time>
    <speed>11.55712</speed>
  </trkpt>
  <trkpt lat="6.181091" lon="-75.544195">
    <ele>2111</ele>
    <time>2014-06-15T20:11:25Z</time>
    <speed>11.531594</speed>
  </trkpt>
  <trkpt lat="6.181315" lon="-75.544222">
    <ele>2111</ele>
    <time>2014-06-15T20:11:27Z</time>
    <speed>11.279152</speed>
  </trkpt>
  <trkpt lat="6.181484" lon="-75.544304">
    <ele>2109</ele>
    <time>2014-06-15T20:11:29Z</time>
    <speed>11.072995</speed>
  </trkpt>
  <trkpt lat="6.181645" lon="-75.544442">
    <ele>2107</ele>
    <time>2014-06-15T20:11:31Z</time>
    <speed>11.635343</speed>
  </trkpt>
  <trkpt lat="6.181761" lon="-75.544588">
    <ele>2105</ele>
    <time>2014-06-15T20:11:33Z</time>
    <speed>11.552758</speed>
  </trkpt>
  <trkpt lat="6.181885" lon="-75.544752">
    <ele>2103</ele>
    <time>2014-06-15T20:11:35Z</time>
    <speed>11.718505</speed>
  </trkpt>
  <trkpt lat="6.182045" lon="-75.544924">
    <ele>2100</ele>
    <time>2014-06-15T20:11:37Z</time>
    <speed>11.991171</speed>
  </trkpt>
  <trkpt lat="6.182211" lon="-75.545054">
    <ele>2099</ele>
    <time>2014-06-15T20:11:39Z</time>
    <speed>11.340859</speed>
  </trkpt>
  <trkpt lat="6.182441" lon="-75.545092">
    <ele>2098</ele>
    <time>2014-06-15T20:11:41Z</time>
    <speed>12.008656</speed>
  </trkpt>
  <trkpt lat="6.182660" lon="-75.545121">
    <ele>2096</ele>
    <time>2014-06-15T20:11:43Z</time>
    <speed>12.163269</speed>
  </trkpt>
  <trkpt lat="6.182886" lon="-75.545146">
    <ele>2094</ele>
    <time>2014-06-15T20:11:45Z</time>
    <speed>11.886417</speed>
  </trkpt>
  <trkpt lat="6.183108" lon="-75.545170">
    <ele>2092</ele>
    <time>2014-06-15T20:11:47Z</time>
    <speed>11.823237</speed>
  </trkpt>
  <trkpt lat="6.183322" lon="-75.545185">
    <ele>2090</ele>
    <time>2014-06-15T20:11:49Z</time>
    <speed>11.559756</speed>
  </trkpt>
  <trkpt lat="6.183539" lon="-75.545194">
    <ele>2087</ele>
    <time>2014-06-15T20:11:51Z</time>
    <speed>11.691573</speed>
  </trkpt>
  <trkpt lat="6.183745" lon="-75.545208">
    <ele>2088</ele>
    <time>2014-06-15T20:11:53Z</time>
    <speed>11.699072</speed>
  </trkpt>
  <trkpt lat="6.183981" lon="-75.545234">
    <ele>2086</ele>
    <time>2014-06-15T20:11:55Z</time>
    <speed>11.997006</speed>
  </trkpt>
  <trkpt lat="6.184203" lon="-75.545285">
    <ele>2086</ele>
    <time>2014-06-15T20:11:57Z</time>
    <speed>12.005572</speed>
  </trkpt>
  <trkpt lat="6.184503" lon="-75.545440">
    <ele>2082</ele>
    <time>2014-06-15T20:12:00Z</time>
    <speed>12.2724285</speed>
  </trkpt>
  <trkpt lat="6.184686" lon="-75.545541">
    <ele>2081</ele>
    <time>2014-06-15T20:12:02Z</time>
    <speed>12.324668</speed>
  </trkpt>
  <trkpt lat="6.184877" lon="-75.545649">
    <ele>2078</ele>
    <time>2014-06-15T20:12:04Z</time>
    <speed>12.420008</speed>
  </trkpt>
  <trkpt lat="6.185062" lon="-75.545748">
    <ele>2076</ele>
    <time>2014-06-15T20:12:06Z</time>
    <speed>12.122093</speed>
  </trkpt>
  <trkpt lat="6.185238" lon="-75.545856">
    <ele>2075</ele>
    <time>2014-06-15T20:12:08Z</time>
    <speed>11.389043</speed>
  </trkpt>
  <trkpt lat="6.185391" lon="-75.545975">
    <ele>2072</ele>
    <time>2014-06-15T20:12:10Z</time>
    <speed>11.710141</speed>
  </trkpt>
  <trkpt lat="6.185554" lon="-75.546139">
    <ele>2069</ele>
    <time>2014-06-15T20:12:12Z</time>
    <speed>12.332823</speed>
  </trkpt>
  <trkpt lat="6.185712" lon="-75.546294">
    <ele>2069</ele>
    <time>2014-06-15T20:12:14Z</time>
    <speed>13.209288</speed>
  </trkpt>
  <trkpt lat="6.185900" lon="-75.546411">
    <ele>2066</ele>
    <time>2014-06-15T20:12:16Z</time>
    <speed>13.322411</speed>
  </trkpt>
  <trkpt lat="6.186085" lon="-75.546492">
    <ele>2063</ele>
    <time>2014-06-15T20:12:18Z</time>
    <speed>11.874553</speed>
  </trkpt>
  <trkpt lat="6.186281" lon="-75.546548">
    <ele>2060</ele>
    <time>2014-06-15T20:12:20Z</time>
    <speed>11.915953</speed>
  </trkpt>
  <trkpt lat="6.186497" lon="-75.546577">
    <ele>2059</ele>
    <time>2014-06-15T20:12:22Z</time>
    <speed>12.012681</speed>
  </trkpt>
  <trkpt lat="6.186714" lon="-75.546585">
    <ele>2058</ele>
    <time>2014-06-15T20:12:24Z</time>
    <speed>11.872544</speed>
  </trkpt>
  <trkpt lat="6.186921" lon="-75.546579">
    <ele>2055</ele>
    <time>2014-06-15T20:12:26Z</time>
    <speed>11.941398</speed>
  </trkpt>
  <trkpt lat="6.187119" lon="-75.546580">
    <ele>2054</ele>
    <time>2014-06-15T20:12:28Z</time>
    <speed>11.732189</speed>
  </trkpt>
  <trkpt lat="6.187384" lon="-75.546598">
    <ele>2054</ele>
    <time>2014-06-15T20:12:30Z</time>
    <speed>12.031273</speed>
  </trkpt>
  <trkpt lat="6.187601" lon="-75.546633">
    <ele>2052</ele>
    <time>2014-06-15T20:12:32Z</time>
    <speed>11.8000345</speed>
  </trkpt>
  <trkpt lat="6.187804" lon="-75.546676">
    <ele>2051</ele>
    <time>2014-06-15T20:12:34Z</time>
    <speed>12.28554</speed>
  </trkpt>
  <trkpt lat="6.188006" lon="-75.546728">
    <ele>2050</ele>
    <time>2014-06-15T20:12:36Z</time>
    <speed>12.20814</speed>
  </trkpt>
  <trkpt lat="6.188215" lon="-75.546787">
    <ele>2049</ele>
    <time>2014-06-15T20:12:38Z</time>
    <speed>12.13411</speed>
  </trkpt>
  <trkpt lat="6.188423" lon="-75.546846">
    <ele>2047</ele>
    <time>2014-06-15T20:12:40Z</time>
    <speed>12.2333145</speed>
  </trkpt>
  <trkpt lat="6.188635" lon="-75.546906">
    <ele>2046</ele>
    <time>2014-06-15T20:12:42Z</time>
    <speed>12.214169</speed>
  </trkpt>
  <trkpt lat="6.188858" lon="-75.546971">
    <ele>2043</ele>
    <time>2014-06-15T20:12:44Z</time>
    <speed>12.1927185</speed>
  </trkpt>
  <trkpt lat="6.189294" lon="-75.547086">
    <ele>2040</ele>
    <time>2014-06-15T20:12:48Z</time>
    <speed>12.526468</speed>
  </trkpt>
  <trkpt lat="6.189591" lon="-75.547160">
    <ele>2038</ele>
    <time>2014-06-15T20:12:51Z</time>
    <speed>12.34378</speed>
  </trkpt>
  <trkpt lat="6.189808" lon="-75.547227">
    <ele>2037</ele>
    <time>2014-06-15T20:12:53Z</time>
    <speed>12.166907</speed>
  </trkpt>
  <trkpt lat="6.190124" lon="-75.547296">
    <ele>2034</ele>
    <time>2014-06-15T20:12:56Z</time>
    <speed>11.437207</speed>
  </trkpt>
  <trkpt lat="6.190412" lon="-75.547315">
    <ele>2032</ele>
    <time>2014-06-15T20:12:59Z</time>
    <speed>10.7517395</speed>
  </trkpt>
  <trkpt lat="6.190603" lon="-75.547306">
    <ele>2029</ele>
    <time>2014-06-15T20:13:01Z</time>
    <speed>10.571081</speed>
  </trkpt>
  <trkpt lat="6.190784" lon="-75.547292">
    <ele>2028</ele>
    <time>2014-06-15T20:13:03Z</time>
    <speed>10.182665</speed>
  </trkpt>
  <trkpt lat="6.190989" lon="-75.547273">
    <ele>2026</ele>
    <time>2014-06-15T20:13:05Z</time>
    <speed>10.035742</speed>
  </trkpt>
  <trkpt lat="6.191176" lon="-75.547258">
    <ele>2025</ele>
    <time>2014-06-15T20:13:07Z</time>
    <speed>9.637635</speed>
  </trkpt>
  <trkpt lat="6.191358" lon="-75.547247">
    <ele>2024</ele>
    <time>2014-06-15T20:13:09Z</time>
    <speed>9.809702</speed>
  </trkpt>
  <trkpt lat="6.191626" lon="-75.547234">
    <ele>2024</ele>
    <time>2014-06-15T20:13:12Z</time>
    <speed>9.951252</speed>
  </trkpt>
  <trkpt lat="6.191815" lon="-75.547221">
    <ele>2022</ele>
    <time>2014-06-15T20:13:14Z</time>
    <speed>10.20058</speed>
  </trkpt>
  <trkpt lat="6.192146" lon="-75.547162">
    <ele>2019</ele>
    <time>2014-06-15T20:13:17Z</time>
    <speed>10.608122</speed>
  </trkpt>
  <trkpt lat="6.192358" lon="-75.547100">
    <ele>2018</ele>
    <time>2014-06-15T20:13:19Z</time>
    <speed>10.83297</speed>
  </trkpt>
  <trkpt lat="6.192540" lon="-75.547035">
    <ele>2017</ele>
    <time>2014-06-15T20:13:21Z</time>
    <speed>10.895209</speed>
  </trkpt>
  <trkpt lat="6.192713" lon="-75.546970">
    <ele>2015</ele>
    <time>2014-06-15T20:13:23Z</time>
    <speed>10.974251</speed>
  </trkpt>
  <trkpt lat="6.192892" lon="-75.546904">
    <ele>2015</ele>
    <time>2014-06-15T20:13:25Z</time>
    <speed>10.827511</speed>
  </trkpt>
  <trkpt lat="6.193198" lon="-75.546840">
    <ele>2013</ele>
    <time>2014-06-15T20:13:28Z</time>
    <speed>10.742622</speed>
  </trkpt>
  <trkpt lat="6.193620" lon="-75.546961">
    <ele>2009</ele>
    <time>2014-06-15T20:13:32Z</time>
    <speed>12.19067</speed>
  </trkpt>
  <trkpt lat="6.193922" lon="-75.547092">
    <ele>2005</ele>
    <time>2014-06-15T20:13:35Z</time>
    <speed>11.985122</speed>
  </trkpt>
  <trkpt lat="6.194129" lon="-75.547151">
    <ele>2003</ele>
    <time>2014-06-15T20:13:37Z</time>
    <speed>11.990018</speed>
  </trkpt>
  <trkpt lat="6.194340" lon="-75.547195">
    <ele>2002</ele>
    <time>2014-06-15T20:13:39Z</time>
    <speed>12.067756</speed>
  </trkpt>
  <trkpt lat="6.194673" lon="-75.547258">
    <ele>1997</ele>
    <time>2014-06-15T20:13:42Z</time>
    <speed>11.783253</speed>
  </trkpt>
  <trkpt lat="6.195020" lon="-75.547317">
    <ele>1994</ele>
    <time>2014-06-15T20:13:45Z</time>
    <speed>11.533956</speed>
  </trkpt>
  <trkpt lat="6.195651" lon="-75.547055">
    <ele>1991</ele>
    <time>2014-06-15T20:13:51Z</time>
    <speed>11.708863</speed>
  </trkpt>
  <trkpt lat="6.195922" lon="-75.546888">
    <ele>1989</ele>
    <time>2014-06-15T20:13:54Z</time>
    <speed>11.706918</speed>
  </trkpt>
  <trkpt lat="6.196112" lon="-75.546814">
    <ele>1986</ele>
    <time>2014-06-15T20:13:56Z</time>
    <speed>10.7455225</speed>
  </trkpt>
  <trkpt lat="6.196313" lon="-75.546787">
    <ele>1985</ele>
    <time>2014-06-15T20:13:58Z</time>
    <speed>10.251839</speed>
  </trkpt>
  <trkpt lat="6.196702" lon="-75.546881">
    <ele>1982</ele>
    <time>2014-06-15T20:14:02Z</time>
    <speed>10.775915</speed>
  </trkpt>
  <trkpt lat="6.196901" lon="-75.546959">
    <ele>1981</ele>
    <time>2014-06-15T20:14:04Z</time>
    <speed>10.911101</speed>
  </trkpt>
  <trkpt lat="6.197121" lon="-75.547030">
    <ele>1979</ele>
    <time>2014-06-15T20:14:06Z</time>
    <speed>11.616905</speed>
  </trkpt>
  <trkpt lat="6.197327" lon="-75.547090">
    <ele>1978</ele>
    <time>2014-06-15T20:14:08Z</time>
    <speed>11.599957</speed>
  </trkpt>
  <trkpt lat="6.197548" lon="-75.547136">
    <ele>1977</ele>
    <time>2014-06-15T20:14:10Z</time>
    <speed>12.096828</speed>
  </trkpt>
  <trkpt lat="6.197763" lon="-75.547168">
    <ele>1974</ele>
    <time>2014-06-15T20:14:12Z</time>
    <speed>12.037089</speed>
  </trkpt>
  <trkpt lat="6.197985" lon="-75.547174">
    <ele>1973</ele>
    <time>2014-06-15T20:14:14Z</time>
    <speed>12.217766</speed>
  </trkpt>
  <trkpt lat="6.198217" lon="-75.547157">
    <ele>1972</ele>
    <time>2014-06-15T20:14:16Z</time>
    <speed>12.152569</speed>
  </trkpt>
  <trkpt lat="6.198449" lon="-75.547109">
    <ele>1969</ele>
    <time>2014-06-15T20:14:18Z</time>
    <speed>12.149503</speed>
  </trkpt>
  <trkpt lat="6.198671" lon="-75.547036">
    <ele>1969</ele>
    <time>2014-06-15T20:14:20Z</time>
    <speed>11.995386</speed>
  </trkpt>
  <trkpt lat="6.198857" lon="-75.546885">
    <ele>1968</ele>
    <time>2014-06-15T20:14:22Z</time>
    <speed>12.052388</speed>
  </trkpt>
  <trkpt lat="6.199026" lon="-75.546715">
    <ele>1962</ele>
    <time>2014-06-15T20:14:24Z</time>
    <speed>12.560473</speed>
  </trkpt>
  <trkpt lat="6.199184" lon="-75.546552">
    <ele>1961</ele>
    <time>2014-06-15T20:14:26Z</time>
    <speed>12.700973</speed>
  </trkpt>
  <trkpt lat="6.199396" lon="-75.546421">
    <ele>1959</ele>
    <time>2014-06-15T20:14:28Z</time>
    <speed>13.129489</speed>
  </trkpt>
  <trkpt lat="6.199631" lon="-75.546349">
    <ele>1957</ele>
    <time>2014-06-15T20:14:30Z</time>
    <speed>13.456081</speed>
  </trkpt>
  <trkpt lat="6.199865" lon="-75.546377">
    <ele>1953</ele>
    <time>2014-06-15T20:14:32Z</time>
    <speed>13.176578</speed>
  </trkpt>
  <trkpt lat="6.200051" lon="-75.546419">
    <ele>1952</ele>
    <time>2014-06-15T20:14:34Z</time>
    <speed>10.650798</speed>
  </trkpt>
  <trkpt lat="6.200317" lon="-75.546446">
    <ele>1950</ele>
    <time>2014-06-15T20:14:37Z</time>
    <speed>9.010143</speed>
  </trkpt>
  <trkpt lat="6.200436" lon="-75.546318">
    <ele>1949</ele>
    <time>2014-06-15T20:14:39Z</time>
    <speed>9.164373</speed>
  </trkpt>
  <trkpt lat="6.200446" lon="-75.546142">
    <ele>1946</ele>
    <time>2014-06-15T20:14:41Z</time>
    <speed>8.625387</speed>
  </trkpt>
  <trkpt lat="6.200374" lon="-75.545973">
    <ele>1945</ele>
    <time>2014-06-15T20:14:43Z</time>
    <speed>9.065512</speed>
  </trkpt>
  <trkpt lat="6.200273" lon="-75.545777">
    <ele>1945</ele>
    <time>2014-06-15T20:14:45Z</time>
    <speed>10.780517</speed>
  </trkpt>
  <trkpt lat="6.200210" lon="-75.545581">
    <ele>1943</ele>
    <time>2014-06-15T20:14:47Z</time>
    <speed>12.302246</speed>
  </trkpt>
  <trkpt lat="6.200190" lon="-75.545220">
    <ele>1939</ele>
    <time>2014-06-15T20:14:50Z</time>
    <speed>12.782493</speed>
  </trkpt>
  <trkpt lat="6.200238" lon="-75.544973">
    <ele>1938</ele>
    <time>2014-06-15T20:14:52Z</time>
    <speed>13.028331</speed>
  </trkpt>
  <trkpt lat="6.200361" lon="-75.544771">
    <ele>1936</ele>
    <time>2014-06-15T20:14:54Z</time>
    <speed>13.525663</speed>
  </trkpt>
  <trkpt lat="6.200612" lon="-75.544526">
    <ele>1935</ele>
    <time>2014-06-15T20:14:57Z</time>
    <speed>13.562406</speed>
  </trkpt>
  <trkpt lat="6.200936" lon="-75.544399">
    <ele>1931</ele>
    <time>2014-06-15T20:15:00Z</time>
    <speed>13.23072</speed>
  </trkpt>
  <trkpt lat="6.201236" lon="-75.544370">
    <ele>1928</ele>
    <time>2014-06-15T20:15:03Z</time>
    <speed>11.683799</speed>
  </trkpt>
  <trkpt lat="6.201391" lon="-75.544381">
    <ele>1927</ele>
    <time>2014-06-15T20:15:05Z</time>
    <speed>10.910436</speed>
  </trkpt>
  <trkpt lat="6.201571" lon="-75.544336">
    <ele>1924</ele>
    <time>2014-06-15T20:15:07Z</time>
    <speed>11.3075905</speed>
  </trkpt>
  <trkpt lat="6.201900" lon="-75.544136">
    <ele>1920</ele>
    <time>2014-06-15T20:15:11Z</time>
    <speed>11.460103</speed>
  </trkpt>
  <trkpt lat="6.202843" lon="-75.543932">
    <ele>1916</ele>
    <time>2014-06-15T20:15:20Z</time>
    <speed>10.8395195</speed>
  </trkpt>
  <trkpt lat="6.202916" lon="-75.543952">
    <ele>1913</ele>
    <time>2014-06-15T20:15:23Z</time>
    <speed>0.0</speed>
  </trkpt>
  <trkpt lat="6.203120" lon="-75.544121">
    <ele>1911</ele>
    <time>2014-06-15T20:15:28Z</time>
    <speed>5.8706465</speed>
  </trkpt>
  <trkpt lat="6.203458" lon="-75.544286">
    <ele>1911</ele>
    <time>2014-06-15T20:15:30Z</time>
    <speed>12.546209</speed>
  </trkpt>
  <trkpt lat="6.203747" lon="-75.544422">
    <ele>1907</ele>
    <time>2014-06-15T20:15:32Z</time>
    <speed>10.908273</speed>
  </trkpt>
  <trkpt lat="6.203970" lon="-75.544529">
    <ele>1905</ele>
    <time>2014-06-15T20:15:34Z</time>
    <speed>9.681133</speed>
  </trkpt>
  <trkpt lat="6.204222" lon="-75.544560">
    <ele>1904</ele>
    <time>2014-06-15T20:15:36Z</time>
    <speed>10.621208</speed>
  </trkpt>
  <trkpt lat="6.204441" lon="-75.544561">
    <ele>1904</ele>
    <time>2014-06-15T20:15:38Z</time>
    <speed>11.437343</speed>
  </trkpt>
  <trkpt lat="6.204689" lon="-75.544543">
    <ele>1903</ele>
    <time>2014-06-15T20:15:40Z</time>
    <speed>11.733194</speed>
  </trkpt>
  <trkpt lat="6.204918" lon="-75.544531">
    <ele>1901</ele>
    <time>2014-06-15T20:15:42Z</time>
    <speed>11.960395</speed>
  </trkpt>
  <trkpt lat="6.205129" lon="-75.544592">
    <ele>1901</ele>
    <time>2014-06-15T20:15:44Z</time>
    <speed>12.112463</speed>
  </trkpt>
  <trkpt lat="6.205346" lon="-75.544683">
    <ele>1898</ele>
    <time>2014-06-15T20:15:46Z</time>
    <speed>12.017191</speed>
  </trkpt>
  <trkpt lat="6.205538" lon="-75.544799">
    <ele>1897</ele>
    <time>2014-06-15T20:15:48Z</time>
    <speed>12.022071</speed>
  </trkpt>
  <trkpt lat="6.205722" lon="-75.544929">
    <ele>1894</ele>
    <time>2014-06-15T20:15:50Z</time>
    <speed>12.978363</speed>
  </trkpt>
  <trkpt lat="6.205906" lon="-75.545063">
    <ele>1891</ele>
    <time>2014-06-15T20:15:52Z</time>
    <speed>12.43588</speed>
  </trkpt>
  <trkpt lat="6.206102" lon="-75.545171">
    <ele>1889</ele>
    <time>2014-06-15T20:15:54Z</time>
    <speed>12.769838</speed>
  </trkpt>
  <trkpt lat="6.206317" lon="-75.545262">
    <ele>1884</ele>
    <time>2014-06-15T20:15:56Z</time>
    <speed>13.046486</speed>
  </trkpt>
  <trkpt lat="6.206538" lon="-75.545343">
    <ele>1883</ele>
    <time>2014-06-15T20:15:58Z</time>
    <speed>13.127171</speed>
  </trkpt>
  <trkpt lat="6.206754" lon="-75.545417">
    <ele>1883</ele>
    <time>2014-06-15T20:16:00Z</time>
    <speed>12.921246</speed>
  </trkpt>
  <trkpt lat="6.206961" lon="-75.545474">
    <ele>1880</ele>
    <time>2014-06-15T20:16:02Z</time>
    <speed>12.584594</speed>
  </trkpt>
  <trkpt lat="6.207171" lon="-75.545546">
    <ele>1878</ele>
    <time>2014-06-15T20:16:04Z</time>
    <speed>12.492047</speed>
  </trkpt>
  <trkpt lat="6.207387" lon="-75.545630">
    <ele>1877</ele>
    <time>2014-06-15T20:16:06Z</time>
    <speed>12.303741</speed>
  </trkpt>
  <trkpt lat="6.207591" lon="-75.545698">
    <ele>1875</ele>
    <time>2014-06-15T20:16:08Z</time>
    <speed>11.978</speed>
  </trkpt>
  <trkpt lat="6.207803" lon="-75.545722">
    <ele>1872</ele>
    <time>2014-06-15T20:16:10Z</time>
    <speed>11.341794</speed>
  </trkpt>
  <trkpt lat="6.208008" lon="-75.545712">
    <ele>1870</ele>
    <time>2014-06-15T20:16:12Z</time>
    <speed>11.3842325</speed>
  </trkpt>
  <trkpt lat="6.208221" lon="-75.545686">
    <ele>1868</ele>
    <time>2014-06-15T20:16:14Z</time>
    <speed>11.950967</speed>
  </trkpt>
  <trkpt lat="6.208453" lon="-75.545652">
    <ele>1866</ele>
    <time>2014-06-15T20:16:16Z</time>
    <speed>11.899484</speed>
  </trkpt>
  <trkpt lat="6.208677" lon="-75.545666">
    <ele>1866</ele>
    <time>2014-06-15T20:16:18Z</time>
    <speed>11.996505</speed>
  </trkpt>
  <trkpt lat="6.208897" lon="-75.545718">
    <ele>1863</ele>
    <time>2014-06-15T20:16:20Z</time>
    <speed>12.094492</speed>
  </trkpt>
  <trkpt lat="6.209107" lon="-75.545777">
    <ele>1862</ele>
    <time>2014-06-15T20:16:22Z</time>
    <speed>11.906716</speed>
  </trkpt>
  <trkpt lat="6.209323" lon="-75.545845">
    <ele>1861</ele>
    <time>2014-06-15T20:16:24Z</time>
    <speed>12.027403</speed>
  </trkpt>
  <trkpt lat="6.209530" lon="-75.545871">
    <ele>1857</ele>
    <time>2014-06-15T20:16:26Z</time>
    <speed>11.377453</speed>
  </trkpt>
  <trkpt lat="6.209725" lon="-75.545826">
    <ele>1857</ele>
    <time>2014-06-15T20:16:28Z</time>
    <speed>10.80936</speed>
  </trkpt>
  <trkpt lat="6.209941" lon="-75.545743">
    <ele>1858</ele>
    <time>2014-06-15T20:16:30Z</time>
    <speed>11.812952</speed>
  </trkpt>
  <trkpt lat="6.210151" lon="-75.545687">
    <ele>1857</ele>
    <time>2014-06-15T20:16:32Z</time>
    <speed>11.255411</speed>
  </trkpt>
  <trkpt lat="6.210346" lon="-75.545708">
    <ele>1856</ele>
    <time>2014-06-15T20:16:34Z</time>
    <speed>11.2151375</speed>
  </trkpt>
  <trkpt lat="6.210515" lon="-75.545830">
    <ele>1854</ele>
    <time>2014-06-15T20:16:36Z</time>
    <speed>11.254535</speed>
  </trkpt>
  <trkpt lat="6.210604" lon="-75.545981">
    <ele>1853</ele>
    <time>2014-06-15T20:16:38Z</time>
    <speed>11.128449</speed>
  </trkpt>
  <trkpt lat="6.210655" lon="-75.546201">
    <ele>1851</ele>
    <time>2014-06-15T20:16:40Z</time>
    <speed>13.327258</speed>
  </trkpt>
  <trkpt lat="6.210699" lon="-75.546436">
    <ele>1849</ele>
    <time>2014-06-15T20:16:42Z</time>
    <speed>12.119953</speed>
  </trkpt>
  <trkpt lat="6.210803" lon="-75.546636">
    <ele>1848</ele>
    <time>2014-06-15T20:16:44Z</time>
    <speed>11.858485</speed>
  </trkpt>
  <trkpt lat="6.210978" lon="-75.546739">
    <ele>1847</ele>
    <time>2014-06-15T20:16:46Z</time>
    <speed>11.020638</speed>
  </trkpt>
  <trkpt lat="6.211172" lon="-75.546749">
    <ele>1846</ele>
    <time>2014-06-15T20:16:48Z</time>
    <speed>10.29647</speed>
  </trkpt>
  <trkpt lat="6.211369" lon="-75.546665">
    <ele>1844</ele>
    <time>2014-06-15T20:16:50Z</time>
    <speed>11.403764</speed>
  </trkpt>
  <trkpt lat="6.211580" lon="-75.546551">
    <ele>1844</ele>
    <time>2014-06-15T20:16:52Z</time>
    <speed>12.550604</speed>
  </trkpt>
  <trkpt lat="6.211781" lon="-75.546427">
    <ele>1843</ele>
    <time>2014-06-15T20:16:54Z</time>
    <speed>12.612637</speed>
  </trkpt>
  <trkpt lat="6.211987" lon="-75.546305">
    <ele>1841</ele>
    <time>2014-06-15T20:16:56Z</time>
    <speed>12.704508</speed>
  </trkpt>
  <trkpt lat="6.212212" lon="-75.546267">
    <ele>1840</ele>
    <time>2014-06-15T20:16:58Z</time>
    <speed>12.427361</speed>
  </trkpt>
  <trkpt lat="6.212395" lon="-75.546330">
    <ele>1840</ele>
    <time>2014-06-15T20:17:00Z</time>
    <speed>11.729769</speed>
  </trkpt>
  <trkpt lat="6.212546" lon="-75.546463">
    <ele>1838</ele>
    <time>2014-06-15T20:17:02Z</time>
    <speed>11.030199</speed>
  </trkpt>
  <trkpt lat="6.212690" lon="-75.546608">
    <ele>1835</ele>
    <time>2014-06-15T20:17:04Z</time>
    <speed>11.497314</speed>
  </trkpt>
  <trkpt lat="6.212861" lon="-75.546730">
    <ele>1834</ele>
    <time>2014-06-15T20:17:06Z</time>
    <speed>11.703833</speed>
  </trkpt>
  <trkpt lat="6.213077" lon="-75.546800">
    <ele>1831</ele>
    <time>2014-06-15T20:17:08Z</time>
    <speed>12.062488</speed>
  </trkpt>
  <trkpt lat="6.213299" lon="-75.546838">
    <ele>1829</ele>
    <time>2014-06-15T20:17:10Z</time>
    <speed>13.274973</speed>
  </trkpt>
  <trkpt lat="6.213537" lon="-75.546867">
    <ele>1831</ele>
    <time>2014-06-15T20:17:12Z</time>
    <speed>12.918229</speed>
  </trkpt>
  <trkpt lat="6.213787" lon="-75.546889">
    <ele>1827</ele>
    <time>2014-06-15T20:17:14Z</time>
    <speed>12.634354</speed>
  </trkpt>
  <trkpt lat="6.214004" lon="-75.546912">
    <ele>1826</ele>
    <time>2014-06-15T20:17:16Z</time>
    <speed>12.524732</speed>
  </trkpt>
  <trkpt lat="6.214224" lon="-75.546944">
    <ele>1824</ele>
    <time>2014-06-15T20:17:18Z</time>
    <speed>12.384372</speed>
  </trkpt>
  <trkpt lat="6.214379" lon="-75.547006">
    <ele>1821</ele>
    <time>2014-06-15T20:17:20Z</time>
    <speed>10.814968</speed>
  </trkpt>
  <trkpt lat="6.214487" lon="-75.547145">
    <ele>1821</ele>
    <time>2014-06-15T20:17:22Z</time>
    <speed>10.526202</speed>
  </trkpt>
  <trkpt lat="6.214494" lon="-75.547352">
    <ele>1817</ele>
    <time>2014-06-15T20:17:24Z</time>
    <speed>11.601075</speed>
  </trkpt>
  <trkpt lat="6.214436" lon="-75.547562">
    <ele>1815</ele>
    <time>2014-06-15T20:17:26Z</time>
    <speed>12.044637</speed>
  </trkpt>
  <trkpt lat="6.214336" lon="-75.547777">
    <ele>1813</ele>
    <time>2014-06-15T20:17:28Z</time>
    <speed>12.423353</speed>
  </trkpt>
  <trkpt lat="6.214229" lon="-75.548004">
    <ele>1812</ele>
    <time>2014-06-15T20:17:30Z</time>
    <speed>12.603415</speed>
  </trkpt>
  <trkpt lat="6.214133" lon="-75.548207">
    <ele>1812</ele>
    <time>2014-06-15T20:17:32Z</time>
    <speed>12.262454</speed>
  </trkpt>
  <trkpt lat="6.214033" lon="-75.548407">
    <ele>1810</ele>
    <time>2014-06-15T20:17:34Z</time>
    <speed>11.047579</speed>
  </trkpt>
  <trkpt lat="6.213928" lon="-75.548606">
    <ele>1808</ele>
    <time>2014-06-15T20:17:36Z</time>
    <speed>11.856052</speed>
  </trkpt>
  <trkpt lat="6.213828" lon="-75.548813">
    <ele>1804</ele>
    <time>2014-06-15T20:17:38Z</time>
    <speed>12.237212</speed>
  </trkpt>
  <trkpt lat="6.213752" lon="-75.549032">
    <ele>1804</ele>
    <time>2014-06-15T20:17:40Z</time>
    <speed>12.836565</speed>
  </trkpt>
  <trkpt lat="6.213715" lon="-75.549271">
    <ele>1802</ele>
    <time>2014-06-15T20:17:42Z</time>
    <speed>12.247105</speed>
  </trkpt>
  <trkpt lat="6.213702" lon="-75.549496">
    <ele>1802</ele>
    <time>2014-06-15T20:17:44Z</time>
    <speed>11.659824</speed>
  </trkpt>
  <trkpt lat="6.213699" lon="-75.549705">
    <ele>1801</ele>
    <time>2014-06-15T20:17:46Z</time>
    <speed>11.418237</speed>
  </trkpt>
  <trkpt lat="6.213692" lon="-75.549929">
    <ele>1802</ele>
    <time>2014-06-15T20:17:48Z</time>
    <speed>12.005016</speed>
  </trkpt>
  <trkpt lat="6.213679" lon="-75.550159">
    <ele>1801</ele>
    <time>2014-06-15T20:17:50Z</time>
    <speed>11.864504</speed>
  </trkpt>
  <trkpt lat="6.213659" lon="-75.550377">
    <ele>1800</ele>
    <time>2014-06-15T20:17:52Z</time>
    <speed>11.631409</speed>
  </trkpt>
  <trkpt lat="6.213649" lon="-75.550600">
    <ele>1798</ele>
    <time>2014-06-15T20:17:54Z</time>
    <speed>11.814549</speed>
  </trkpt>
  <trkpt lat="6.213665" lon="-75.550818">
    <ele>1796</ele>
    <time>2014-06-15T20:17:56Z</time>
    <speed>11.437019</speed>
  </trkpt>
  <trkpt lat="6.213695" lon="-75.551032">
    <ele>1793</ele>
    <time>2014-06-15T20:17:58Z</time>
    <speed>11.2971735</speed>
  </trkpt>
  <trkpt lat="6.213794" lon="-75.551237">
    <ele>1791</ele>
    <time>2014-06-15T20:18:00Z</time>
    <speed>10.484708</speed>
  </trkpt>
  <trkpt lat="6.213963" lon="-75.551381">
    <ele>1789</ele>
    <time>2014-06-15T20:18:02Z</time>
    <speed>9.898268</speed>
  </trkpt>
  <trkpt lat="6.214145" lon="-75.551422">
    <ele>1787</ele>
    <time>2014-06-15T20:18:04Z</time>
    <speed>9.495257</speed>
  </trkpt>
  <trkpt lat="6.214341" lon="-75.551397">
    <ele>1786</ele>
    <time>2014-06-15T20:18:06Z</time>
    <speed>10.052751</speed>
  </trkpt>
  <trkpt lat="6.214559" lon="-75.551349">
    <ele>1784</ele>
    <time>2014-06-15T20:18:08Z</time>
    <speed>11.299179</speed>
  </trkpt>
  <trkpt lat="6.214772" lon="-75.551341">
    <ele>1783</ele>
    <time>2014-06-15T20:18:10Z</time>
    <speed>11.096292</speed>
  </trkpt>
  <trkpt lat="6.214959" lon="-75.551418">
    <ele>1782</ele>
    <time>2014-06-15T20:18:12Z</time>
    <speed>11.207757</speed>
  </trkpt>
  <trkpt lat="6.215115" lon="-75.551555">
    <ele>1781</ele>
    <time>2014-06-15T20:18:14Z</time>
    <speed>12.012751</speed>
  </trkpt>
  <trkpt lat="6.215261" lon="-75.551704">
    <ele>1779</ele>
    <time>2014-06-15T20:18:16Z</time>
    <speed>12.014857</speed>
  </trkpt>
  <trkpt lat="6.215410" lon="-75.551860">
    <ele>1778</ele>
    <time>2014-06-15T20:18:18Z</time>
    <speed>12.052788</speed>
  </trkpt>
  <trkpt lat="6.215556" lon="-75.552016">
    <ele>1777</ele>
    <time>2014-06-15T20:18:20Z</time>
    <speed>11.863462</speed>
  </trkpt>
  <trkpt lat="6.215698" lon="-75.552169">
    <ele>1775</ele>
    <time>2014-06-15T20:18:22Z</time>
    <speed>11.339418</speed>
  </trkpt>
  <trkpt lat="6.215836" lon="-75.552317">
    <ele>1774</ele>
    <time>2014-06-15T20:18:24Z</time>
    <speed>11.206727</speed>
  </trkpt>
  <trkpt lat="6.215976" lon="-75.552468">
    <ele>1772</ele>
    <time>2014-06-15T20:18:26Z</time>
    <speed>10.72339</speed>
  </trkpt>
  <trkpt lat="6.216109" lon="-75.552615">
    <ele>1770</ele>
    <time>2014-06-15T20:18:27Z</time>
    <speed>10.68611</speed>
  </trkpt>
  <trkpt lat="6.216248" lon="-75.552776">
    <ele>1768</ele>
    <time>2014-06-15T20:18:29Z</time>
    <speed>11.324963</speed>
  </trkpt>
  <trkpt lat="6.216409" lon="-75.552957">
    <ele>1769</ele>
    <time>2014-06-15T20:18:31Z</time>
    <speed>13.809366</speed>
  </trkpt>
  <trkpt lat="6.216591" lon="-75.553157">
    <ele>1765</ele>
    <time>2014-06-15T20:18:33Z</time>
    <speed>14.579524</speed>
  </trkpt>
  <trkpt lat="6.216769" lon="-75.553345">
    <ele>1764</ele>
    <time>2014-06-15T20:18:35Z</time>
    <speed>14.909727</speed>
  </trkpt>
  <trkpt lat="6.216961" lon="-75.553534">
    <ele>1761</ele>
    <time>2014-06-15T20:18:37Z</time>
    <speed>14.931776</speed>
  </trkpt>
  <trkpt lat="6.217161" lon="-75.553723">
    <ele>1758</ele>
    <time>2014-06-15T20:18:39Z</time>
    <speed>15.382331</speed>
  </trkpt>
  <trkpt lat="6.217346" lon="-75.553915">
    <ele>1759</ele>
    <time>2014-06-15T20:18:41Z</time>
    <speed>14.88663</speed>
  </trkpt>
  <trkpt lat="6.217517" lon="-75.554130">
    <ele>1756</ele>
    <time>2014-06-15T20:18:43Z</time>
    <speed>14.871482</speed>
  </trkpt>
  <trkpt lat="6.217646" lon="-75.554350">
    <ele>1755</ele>
    <time>2014-06-15T20:18:45Z</time>
    <speed>14.096151</speed>
  </trkpt>
  <trkpt lat="6.217762" lon="-75.554550">
    <ele>1753</ele>
    <time>2014-06-15T20:18:47Z</time>
    <speed>12.909941</speed>
  </trkpt>
  <trkpt lat="6.217937" lon="-75.554710">
    <ele>1754</ele>
    <time>2014-06-15T20:18:49Z</time>
    <speed>13.2473755</speed>
  </trkpt>
  <trkpt lat="6.218159" lon="-75.554825">
    <ele>1752</ele>
    <time>2014-06-15T20:18:51Z</time>
    <speed>13.747751</speed>
  </trkpt>
  <trkpt lat="6.218386" lon="-75.554946">
    <ele>1751</ele>
    <time>2014-06-15T20:18:53Z</time>
    <speed>13.795092</speed>
  </trkpt>
  <trkpt lat="6.218614" lon="-75.555076">
    <ele>1751</ele>
    <time>2014-06-15T20:18:55Z</time>
    <speed>14.075217</speed>
  </trkpt>
  <trkpt lat="6.218825" lon="-75.555220">
    <ele>1747</ele>
    <time>2014-06-15T20:18:57Z</time>
    <speed>13.718128</speed>
  </trkpt>
  <trkpt lat="6.218983" lon="-75.555390">
    <ele>1749</ele>
    <time>2014-06-15T20:18:59Z</time>
    <speed>12.809372</speed>
  </trkpt>
  <trkpt lat="6.219105" lon="-75.555599">
    <ele>1747</ele>
    <time>2014-06-15T20:19:01Z</time>
    <speed>13.275792</speed>
  </trkpt>
  <trkpt lat="6.219208" lon="-75.555837">
    <ele>1747</ele>
    <time>2014-06-15T20:19:03Z</time>
    <speed>14.332081</speed>
  </trkpt>
  <trkpt lat="6.219279" lon="-75.556085">
    <ele>1747</ele>
    <time>2014-06-15T20:19:05Z</time>
    <speed>14.363742</speed>
  </trkpt>
  <trkpt lat="6.219343" lon="-75.556351">
    <ele>1747</ele>
    <time>2014-06-15T20:19:07Z</time>
    <speed>13.9693985</speed>
  </trkpt>
  <trkpt lat="6.219378" lon="-75.556612">
    <ele>1746</ele>
    <time>2014-06-15T20:19:09Z</time>
    <speed>13.504813</speed>
  </trkpt>
  <trkpt lat="6.219401" lon="-75.556877">
    <ele>1745</ele>
    <time>2014-06-15T20:19:11Z</time>
    <speed>14.161674</speed>
  </trkpt>
  <trkpt lat="6.219426" lon="-75.557128">
    <ele>1743</ele>
    <time>2014-06-15T20:19:13Z</time>
    <speed>12.99568</speed>
  </trkpt>
  <trkpt lat="6.219469" lon="-75.557354">
    <ele>1742</ele>
    <time>2014-06-15T20:19:15Z</time>
    <speed>12.952551</speed>
  </trkpt>
  <trkpt lat="6.219592" lon="-75.557544">
    <ele>1743</ele>
    <time>2014-06-15T20:19:17Z</time>
    <speed>13.90464</speed>
  </trkpt>
  <trkpt lat="6.219736" lon="-75.557742">
    <ele>1742</ele>
    <time>2014-06-15T20:19:19Z</time>
    <speed>14.379991</speed>
  </trkpt>
  <trkpt lat="6.219912" lon="-75.557959">
    <ele>1741</ele>
    <time>2014-06-15T20:19:21Z</time>
    <speed>14.312587</speed>
  </trkpt>
  <trkpt lat="6.220092" lon="-75.558169">
    <ele>1738</ele>
    <time>2014-06-15T20:19:23Z</time>
    <speed>14.023</speed>
  </trkpt>
  <trkpt lat="6.220265" lon="-75.558363">
    <ele>1738</ele>
    <time>2014-06-15T20:19:25Z</time>
    <speed>14.335732</speed>
  </trkpt>
  <trkpt lat="6.220440" lon="-75.558565">
    <ele>1738</ele>
    <time>2014-06-15T20:19:27Z</time>
    <speed>14.436057</speed>
  </trkpt>
  <trkpt lat="6.220618" lon="-75.558791">
    <ele>1738</ele>
    <time>2014-06-15T20:19:29Z</time>
    <speed>14.946305</speed>
  </trkpt>
  <trkpt lat="6.220782" lon="-75.558997">
    <ele>1738</ele>
    <time>2014-06-15T20:19:31Z</time>
    <speed>14.1131</speed>
  </trkpt>
  <trkpt lat="6.220943" lon="-75.559190">
    <ele>1739</ele>
    <time>2014-06-15T20:19:33Z</time>
    <speed>13.756763</speed>
  </trkpt>
  <trkpt lat="6.221094" lon="-75.559392">
    <ele>1738</ele>
    <time>2014-06-15T20:19:35Z</time>
    <speed>13.5408745</speed>
  </trkpt>
  <trkpt lat="6.221214" lon="-75.559618">
    <ele>1737</ele>
    <time>2014-06-15T20:19:37Z</time>
    <speed>13.677077</speed>
  </trkpt>
  <trkpt lat="6.221265" lon="-75.559874">
    <ele>1734</ele>
    <time>2014-06-15T20:19:39Z</time>
    <speed>13.613571</speed>
  </trkpt>
  <trkpt lat="6.221300" lon="-75.560143">
    <ele>1734</ele>
    <time>2014-06-15T20:19:41Z</time>
    <speed>13.795403</speed>
  </trkpt>
  <trkpt lat="6.221258" lon="-75.560397">
    <ele>1731</ele>
    <time>2014-06-15T20:19:43Z</time>
    <speed>14.102311</speed>
  </trkpt>
  <trkpt lat="6.221192" lon="-75.560661">
    <ele>1728</ele>
    <time>2014-06-15T20:19:45Z</time>
    <speed>14.411909</speed>
  </trkpt>
  <trkpt lat="6.221112" lon="-75.560930">
    <ele>1726</ele>
    <time>2014-06-15T20:19:47Z</time>
    <speed>15.6072235</speed>
  </trkpt>
  <trkpt lat="6.221030" lon="-75.561181">
    <ele>1725</ele>
    <time>2014-06-15T20:19:49Z</time>
    <speed>15.159017</speed>
  </trkpt>
  <trkpt lat="6.220947" lon="-75.561416">
    <ele>1722</ele>
    <time>2014-06-15T20:19:51Z</time>
    <speed>13.863186</speed>
  </trkpt>
  <trkpt lat="6.220863" lon="-75.561622">
    <ele>1721</ele>
    <time>2014-06-15T20:19:53Z</time>
    <speed>13.491269</speed>
  </trkpt>
  <trkpt lat="6.220790" lon="-75.561834">
    <ele>1718</ele>
    <time>2014-06-15T20:19:55Z</time>
    <speed>13.258786</speed>
  </trkpt>
  <trkpt lat="6.220721" lon="-75.562067">
    <ele>1717</ele>
    <time>2014-06-15T20:19:57Z</time>
    <speed>13.559376</speed>
  </trkpt>
  <trkpt lat="6.220608" lon="-75.562289">
    <ele>1716</ele>
    <time>2014-06-15T20:19:59Z</time>
    <speed>12.946957</speed>
  </trkpt>
  <trkpt lat="6.220421" lon="-75.562469">
    <ele>1712</ele>
    <time>2014-06-15T20:20:01Z</time>
    <speed>12.658228</speed>
  </trkpt>
  <trkpt lat="6.220212" lon="-75.562575">
    <ele>1712</ele>
    <time>2014-06-15T20:20:03Z</time>
    <speed>11.522296</speed>
  </trkpt>
  <trkpt lat="6.219971" lon="-75.562587">
    <ele>1714</ele>
    <time>2014-06-15T20:20:05Z</time>
    <speed>11.821612</speed>
  </trkpt>
  <trkpt lat="6.219736" lon="-75.562524">
    <ele>1714</ele>
    <time>2014-06-15T20:20:07Z</time>
    <speed>11.416528</speed>
  </trkpt>
  <trkpt lat="6.219551" lon="-75.562383">
    <ele>1714</ele>
    <time>2014-06-15T20:20:09Z</time>
    <speed>11.791967</speed>
  </trkpt>
  <trkpt lat="6.219399" lon="-75.562218">
    <ele>1711</ele>
    <time>2014-06-15T20:20:11Z</time>
    <speed>12.226648</speed>
  </trkpt>
  <trkpt lat="6.219328" lon="-75.561989">
    <ele>1708</ele>
    <time>2014-06-15T20:20:13Z</time>
    <speed>12.056937</speed>
  </trkpt>
  <trkpt lat="6.219339" lon="-75.561725">
    <ele>1705</ele>
    <time>2014-06-15T20:20:15Z</time>
    <speed>12.480774</speed>
  </trkpt>
  <trkpt lat="6.219424" lon="-75.561478">
    <ele>1702</ele>
    <time>2014-06-15T20:20:17Z</time>
    <speed>11.969995</speed>
  </trkpt>
  <trkpt lat="6.219551" lon="-75.561268">
    <ele>1704</ele>
    <time>2014-06-15T20:20:19Z</time>
    <speed>11.6730795</speed>
  </trkpt>
  <trkpt lat="6.219691" lon="-75.561068">
    <ele>1700</ele>
    <time>2014-06-15T20:20:21Z</time>
    <speed>13.002715</speed>
  </trkpt>
  <trkpt lat="6.219831" lon="-75.560870">
    <ele>1699</ele>
    <time>2014-06-15T20:20:23Z</time>
    <speed>12.665269</speed>
  </trkpt>
  <trkpt lat="6.219958" lon="-75.560661">
    <ele>1699</ele>
    <time>2014-06-15T20:20:25Z</time>
    <speed>12.809255</speed>
  </trkpt>
  <trkpt lat="6.220066" lon="-75.560443">
    <ele>1697</ele>
    <time>2014-06-15T20:20:27Z</time>
    <speed>11.709228</speed>
  </trkpt>
  <trkpt lat="6.220095" lon="-75.560229">
    <ele>1697</ele>
    <time>2014-06-15T20:20:29Z</time>
    <speed>11.311115</speed>
  </trkpt>
  <trkpt lat="6.220050" lon="-75.560021">
    <ele>1697</ele>
    <time>2014-06-15T20:20:31Z</time>
    <speed>12.097896</speed>
  </trkpt>
  <trkpt lat="6.219915" lon="-75.559845">
    <ele>1697</ele>
    <time>2014-06-15T20:20:33Z</time>
    <speed>12.324863</speed>
  </trkpt>
  <trkpt lat="6.219729" lon="-75.559749">
    <ele>1697</ele>
    <time>2014-06-15T20:20:35Z</time>
    <speed>12.766015</speed>
  </trkpt>
  <trkpt lat="6.219508" lon="-75.559645">
    <ele>1696</ele>
    <time>2014-06-15T20:20:37Z</time>
    <speed>14.346521</speed>
  </trkpt>
  <trkpt lat="6.219258" lon="-75.559529">
    <ele>1696</ele>
    <time>2014-06-15T20:20:39Z</time>
    <speed>14.597032</speed>
  </trkpt>
  <trkpt lat="6.219014" lon="-75.559423">
    <ele>1694</ele>
    <time>2014-06-15T20:20:41Z</time>
    <speed>14.566438</speed>
  </trkpt>
  <trkpt lat="6.218767" lon="-75.559320">
    <ele>1693</ele>
    <time>2014-06-15T20:20:43Z</time>
    <speed>14.3960285</speed>
  </trkpt>
  <trkpt lat="6.218529" lon="-75.559211">
    <ele>1693</ele>
    <time>2014-06-15T20:20:45Z</time>
    <speed>14.309508</speed>
  </trkpt>
  <trkpt lat="6.218276" lon="-75.559092">
    <ele>1692</ele>
    <time>2014-06-15T20:20:47Z</time>
    <speed>14.529335</speed>
  </trkpt>
  <trkpt lat="6.218050" lon="-75.558972">
    <ele>1691</ele>
    <time>2014-06-15T20:20:49Z</time>
    <speed>13.690863</speed>
  </trkpt>
  <trkpt lat="6.217832" lon="-75.558849">
    <ele>1689</ele>
    <time>2014-06-15T20:20:51Z</time>
    <speed>12.94227</speed>
  </trkpt>
  <trkpt lat="6.217604" lon="-75.558735">
    <ele>1688</ele>
    <time>2014-06-15T20:20:53Z</time>
    <speed>13.330415</speed>
  </trkpt>
  <trkpt lat="6.217388" lon="-75.558636">
    <ele>1688</ele>
    <time>2014-06-15T20:20:55Z</time>
    <speed>13.10896</speed>
  </trkpt>
  <trkpt lat="6.217176" lon="-75.558536">
    <ele>1686</ele>
    <time>2014-06-15T20:20:57Z</time>
    <speed>13.214837</speed>
  </trkpt>
  <trkpt lat="6.216972" lon="-75.558438">
    <ele>1686</ele>
    <time>2014-06-15T20:20:59Z</time>
    <speed>12.638017</speed>
  </trkpt>
  <trkpt lat="6.216748" lon="-75.558336">
    <ele>1685</ele>
    <time>2014-06-15T20:21:01Z</time>
    <speed>13.231731</speed>
  </trkpt>
  <trkpt lat="6.216531" lon="-75.558230">
    <ele>1682</ele>
    <time>2014-06-15T20:21:03Z</time>
    <speed>12.6275015</speed>
  </trkpt>
  <trkpt lat="6.216357" lon="-75.558130">
    <ele>1680</ele>
    <time>2014-06-15T20:21:05Z</time>
    <speed>11.220673</speed>
  </trkpt>
  <trkpt lat="6.216185" lon="-75.558023">
    <ele>1678</ele>
    <time>2014-06-15T20:21:07Z</time>
    <speed>10.916657</speed>
  </trkpt>
  <trkpt lat="6.216006" lon="-75.557908">
    <ele>1675</ele>
    <time>2014-06-15T20:21:09Z</time>
    <speed>10.863303</speed>
  </trkpt>
  <trkpt lat="6.215829" lon="-75.557805">
    <ele>1674</ele>
    <time>2014-06-15T20:21:11Z</time>
    <speed>11.5999155</speed>
  </trkpt>
  <trkpt lat="6.215662" lon="-75.557709">
    <ele>1671</ele>
    <time>2014-06-15T20:21:13Z</time>
    <speed>11.771081</speed>
  </trkpt>
  <trkpt lat="6.215479" lon="-75.557604">
    <ele>1670</ele>
    <time>2014-06-15T20:21:15Z</time>
    <speed>11.497395</speed>
  </trkpt>
  <trkpt lat="6.215302" lon="-75.557508">
    <ele>1667</ele>
    <time>2014-06-15T20:21:17Z</time>
    <speed>10.167936</speed>
  </trkpt>
  <trkpt lat="6.215125" lon="-75.557456">
    <ele>1666</ele>
    <time>2014-06-15T20:21:19Z</time>
    <speed>9.828103</speed>
  </trkpt>
  <trkpt lat="6.214927" lon="-75.557463">
    <ele>1665</ele>
    <time>2014-06-15T20:21:21Z</time>
    <speed>10.542056</speed>
  </trkpt>
  <trkpt lat="6.214733" lon="-75.557526">
    <ele>1664</ele>
    <time>2014-06-15T20:21:23Z</time>
    <speed>10.362799</speed>
  </trkpt>
  <trkpt lat="6.214577" lon="-75.557622">
    <ele>1661</ele>
    <time>2014-06-15T20:21:25Z</time>
    <speed>9.905031</speed>
  </trkpt>
  <trkpt lat="6.214521" lon="-75.557803">
    <ele>1659</ele>
    <time>2014-06-15T20:21:27Z</time>
    <speed>11.006251</speed>
  </trkpt>
  <trkpt lat="6.214504" lon="-75.558019">
    <ele>1657</ele>
    <time>2014-06-15T20:21:29Z</time>
    <speed>11.083671</speed>
  </trkpt>
  <trkpt lat="6.214545" lon="-75.558258">
    <ele>1656</ele>
    <time>2014-06-15T20:21:31Z</time>
    <speed>11.308067</speed>
  </trkpt>
  <trkpt lat="6.214600" lon="-75.558495">
    <ele>1654</ele>
    <time>2014-06-15T20:21:33Z</time>
    <speed>11.495684</speed>
  </trkpt>
  <trkpt lat="6.214658" lon="-75.558719">
    <ele>1654</ele>
    <time>2014-06-15T20:21:35Z</time>
    <speed>11.916615</speed>
  </trkpt>
  <trkpt lat="6.214711" lon="-75.558941">
    <ele>1653</ele>
    <time>2014-06-15T20:21:37Z</time>
    <speed>11.85602</speed>
  </trkpt>
  <trkpt lat="6.214761" lon="-75.559160">
    <ele>1650</ele>
    <time>2014-06-15T20:21:39Z</time>
    <speed>12.034379</speed>
  </trkpt>
  <trkpt lat="6.214811" lon="-75.559369">
    <ele>1646</ele>
    <time>2014-06-15T20:21:41Z</time>
    <speed>11.510235</speed>
  </trkpt>
  <trkpt lat="6.214860" lon="-75.559566">
    <ele>1645</ele>
    <time>2014-06-15T20:21:43Z</time>
    <speed>10.573208</speed>
  </trkpt>
  <trkpt lat="6.214903" lon="-75.559762">
    <ele>1645</ele>
    <time>2014-06-15T20:21:45Z</time>
    <speed>10.946656</speed>
  </trkpt>
  <trkpt lat="6.214942" lon="-75.559973">
    <ele>1644</ele>
    <time>2014-06-15T20:21:47Z</time>
    <speed>11.375181</speed>
  </trkpt>
  <trkpt lat="6.214976" lon="-75.560183">
    <ele>1643</ele>
    <time>2014-06-15T20:21:49Z</time>
    <speed>12.105704</speed>
  </trkpt>
  <trkpt lat="6.215013" lon="-75.560409">
    <ele>1641</ele>
    <time>2014-06-15T20:21:51Z</time>
    <speed>11.643675</speed>
  </trkpt>
  <trkpt lat="6.215052" lon="-75.560628">
    <ele>1640</ele>
    <time>2014-06-15T20:21:53Z</time>
    <speed>11.261557</speed>
  </trkpt>
  <trkpt lat="6.215090" lon="-75.560812">
    <ele>1637</ele>
    <time>2014-06-15T20:21:55Z</time>
    <speed>10.325888</speed>
  </trkpt>
  <trkpt lat="6.215128" lon="-75.560982">
    <ele>1636</ele>
    <time>2014-06-15T20:21:57Z</time>
    <speed>10.250796</speed>
  </trkpt>
  <trkpt lat="6.215169" lon="-75.561177">
    <ele>1636</ele>
    <time>2014-06-15T20:21:59Z</time>
    <speed>10.917028</speed>
  </trkpt>
  <trkpt lat="6.215218" lon="-75.561380">
    <ele>1634</ele>
    <time>2014-06-15T20:22:01Z</time>
    <speed>11.071268</speed>
  </trkpt>
  <trkpt lat="6.215265" lon="-75.561586">
    <ele>1633</ele>
    <time>2014-06-15T20:22:03Z</time>
    <speed>11.226361</speed>
  </trkpt>
  <trkpt lat="6.215310" lon="-75.561784">
    <ele>1632</ele>
    <time>2014-06-15T20:22:05Z</time>
    <speed>11.156438</speed>
  </trkpt>
  <trkpt lat="6.215355" lon="-75.561981">
    <ele>1630</ele>
    <time>2014-06-15T20:22:07Z</time>
    <speed>11.19428</speed>
  </trkpt>
  <trkpt lat="6.215400" lon="-75.562174">
    <ele>1629</ele>
    <time>2014-06-15T20:22:09Z</time>
    <speed>11.258317</speed>
  </trkpt>
  <trkpt lat="6.215442" lon="-75.562353">
    <ele>1628</ele>
    <time>2014-06-15T20:22:11Z</time>
    <speed>10.7061205</speed>
  </trkpt>
  <trkpt lat="6.215488" lon="-75.562543">
    <ele>1627</ele>
    <time>2014-06-15T20:22:13Z</time>
    <speed>10.710731</speed>
  </trkpt>
  <trkpt lat="6.215536" lon="-75.562726">
    <ele>1627</ele>
    <time>2014-06-15T20:22:15Z</time>
    <speed>10.910729</speed>
  </trkpt>
  <trkpt lat="6.215599" lon="-75.562915">
    <ele>1625</ele>
    <time>2014-06-15T20:22:17Z</time>
    <speed>10.694772</speed>
  </trkpt>
  <trkpt lat="6.215666" lon="-75.563103">
    <ele>1625</ele>
    <time>2014-06-15T20:22:19Z</time>
    <speed>10.687264</speed>
  </trkpt>
  <trkpt lat="6.215740" lon="-75.563280">
    <ele>1624</ele>
    <time>2014-06-15T20:22:21Z</time>
    <speed>10.46028</speed>
  </trkpt>
  <trkpt lat="6.215824" lon="-75.563458">
    <ele>1624</ele>
    <time>2014-06-15T20:22:23Z</time>
    <speed>9.90773</speed>
  </trkpt>
  <trkpt lat="6.215924" lon="-75.563630">
    <ele>1621</ele>
    <time>2014-06-15T20:22:25Z</time>
    <speed>9.855781</speed>
  </trkpt>
  <trkpt lat="6.216056" lon="-75.563767">
    <ele>1622</ele>
    <time>2014-06-15T20:22:27Z</time>
    <speed>9.688878</speed>
  </trkpt>
  <trkpt lat="6.216191" lon="-75.563906">
    <ele>1621</ele>
    <time>2014-06-15T20:22:29Z</time>
    <speed>10.37643</speed>
  </trkpt>
  <trkpt lat="6.216340" lon="-75.564059">
    <ele>1620</ele>
    <time>2014-06-15T20:22:31Z</time>
    <speed>10.209658</speed>
  </trkpt>
  <trkpt lat="6.216494" lon="-75.564211">
    <ele>1619</ele>
    <time>2014-06-15T20:22:33Z</time>
    <speed>10.448154</speed>
  </trkpt>
  <trkpt lat="6.216645" lon="-75.564313">
    <ele>1616</ele>
    <time>2014-06-15T20:22:35Z</time>
    <speed>10.731385</speed>
  </trkpt>
  <trkpt lat="6.216812" lon="-75.564384">
    <ele>1616</ele>
    <time>2014-06-15T20:22:37Z</time>
    <speed>10.390022</speed>
  </trkpt>
  <trkpt lat="6.216989" lon="-75.564415">
    <ele>1615</ele>
    <time>2014-06-15T20:22:39Z</time>
    <speed>10.039112</speed>
  </trkpt>
  <trkpt lat="6.217162" lon="-75.564411">
    <ele>1613</ele>
    <time>2014-06-15T20:22:41Z</time>
    <speed>8.87138</speed>
  </trkpt>
  <trkpt lat="6.217324" lon="-75.564376">
    <ele>1612</ele>
    <time>2014-06-15T20:22:43Z</time>
    <speed>9.64258</speed>
  </trkpt>
  <trkpt lat="6.217505" lon="-75.564314">
    <ele>1611</ele>
    <time>2014-06-15T20:22:45Z</time>
    <speed>10.140129</speed>
  </trkpt>
  <trkpt lat="6.217701" lon="-75.564260">
    <ele>1610</ele>
    <time>2014-06-15T20:22:47Z</time>
    <speed>9.780927</speed>
  </trkpt>
  <trkpt lat="6.217917" lon="-75.564226">
    <ele>1612</ele>
    <time>2014-06-15T20:22:49Z</time>
    <speed>10.343665</speed>
  </trkpt>
  <trkpt lat="6.218113" lon="-75.564273">
    <ele>1612</ele>
    <time>2014-06-15T20:22:51Z</time>
    <speed>9.853827</speed>
  </trkpt>
  <trkpt lat="6.218212" lon="-75.564407">
    <ele>1611</ele>
    <time>2014-06-15T20:22:53Z</time>
    <speed>9.588926</speed>
  </trkpt>
  <trkpt lat="6.218236" lon="-75.564604">
    <ele>1611</ele>
    <time>2014-06-15T20:22:55Z</time>
    <speed>10.649649</speed>
  </trkpt>
  <trkpt lat="6.218245" lon="-75.564814">
    <ele>1609</ele>
    <time>2014-06-15T20:22:57Z</time>
    <speed>10.712011</speed>
  </trkpt>
  <trkpt lat="6.218238" lon="-75.565027">
    <ele>1607</ele>
    <time>2014-06-15T20:22:59Z</time>
    <speed>10.589141</speed>
  </trkpt>
  <trkpt lat="6.218217" lon="-75.565228">
    <ele>1604</ele>
    <time>2014-06-15T20:23:01Z</time>
    <speed>10.3365755</speed>
  </trkpt>
  <trkpt lat="6.218187" lon="-75.565422">
    <ele>1602</ele>
    <time>2014-06-15T20:23:03Z</time>
    <speed>10.153194</speed>
  </trkpt>
  <trkpt lat="6.218163" lon="-75.565589">
    <ele>1601</ele>
    <time>2014-06-15T20:23:05Z</time>
    <speed>9.110475</speed>
  </trkpt>
  <trkpt lat="6.218157" lon="-75.565744">
    <ele>1601</ele>
    <time>2014-06-15T20:23:07Z</time>
    <speed>8.394909</speed>
  </trkpt>
  <trkpt lat="6.218217" lon="-75.565875">
    <ele>1600</ele>
    <time>2014-06-15T20:23:09Z</time>
    <speed>8.603507</speed>
  </trkpt>
  <trkpt lat="6.218343" lon="-75.565998">
    <ele>1601</ele>
    <time>2014-06-15T20:23:11Z</time>
    <speed>9.584502</speed>
  </trkpt>
  <trkpt lat="6.218518" lon="-75.566089">
    <ele>1599</ele>
    <time>2014-06-15T20:23:13Z</time>
    <speed>9.613361</speed>
  </trkpt>
  <trkpt lat="6.218714" lon="-75.566120">
    <ele>1599</ele>
    <time>2014-06-15T20:23:15Z</time>
    <speed>9.678995</speed>
  </trkpt>
  <trkpt lat="6.218934" lon="-75.566121">
    <ele>1598</ele>
    <time>2014-06-15T20:23:17Z</time>
    <speed>10.11103</speed>
  </trkpt>
  <trkpt lat="6.219140" lon="-75.566123">
    <ele>1597</ele>
    <time>2014-06-15T20:23:19Z</time>
    <speed>10.801433</speed>
  </trkpt>
  <trkpt lat="6.219345" lon="-75.566147">
    <ele>1595</ele>
    <time>2014-06-15T20:23:21Z</time>
    <speed>10.967861</speed>
  </trkpt>
  <trkpt lat="6.219556" lon="-75.566193">
    <ele>1594</ele>
    <time>2014-06-15T20:23:23Z</time>
    <speed>11.091869</speed>
  </trkpt>
  <trkpt lat="6.219746" lon="-75.566257">
    <ele>1594</ele>
    <time>2014-06-15T20:23:25Z</time>
    <speed>10.9399185</speed>
  </trkpt>
  <trkpt lat="6.219909" lon="-75.566325">
    <ele>1592</ele>
    <time>2014-06-15T20:23:27Z</time>
    <speed>10.313934</speed>
  </trkpt>
  <trkpt lat="6.220073" lon="-75.566385">
    <ele>1592</ele>
    <time>2014-06-15T20:23:29Z</time>
    <speed>10.228783</speed>
  </trkpt>
  <trkpt lat="6.220264" lon="-75.566405">
    <ele>1591</ele>
    <time>2014-06-15T20:23:31Z</time>
    <speed>10.332435</speed>
  </trkpt>
  <trkpt lat="6.220443" lon="-75.566326">
    <ele>1590</ele>
    <time>2014-06-15T20:23:33Z</time>
    <speed>10.460767</speed>
  </trkpt>
  <trkpt lat="6.220591" lon="-75.566160">
    <ele>1588</ele>
    <time>2014-06-15T20:23:35Z</time>
    <speed>11.329289</speed>
  </trkpt>
  <trkpt lat="6.220729" lon="-75.565951">
    <ele>1587</ele>
    <time>2014-06-15T20:23:37Z</time>
    <speed>11.8456955</speed>
  </trkpt>
  <trkpt lat="6.220833" lon="-75.565750">
    <ele>1585</ele>
    <time>2014-06-15T20:23:39Z</time>
    <speed>12.25451</speed>
  </trkpt>
  <trkpt lat="6.220934" lon="-75.565563">
    <ele>1586</ele>
    <time>2014-06-15T20:23:41Z</time>
    <speed>10.970571</speed>
  </trkpt>
  <trkpt lat="6.221067" lon="-75.565442">
    <ele>1585</ele>
    <time>2014-06-15T20:23:43Z</time>
    <speed>10.246356</speed>
  </trkpt>
  <trkpt lat="6.221231" lon="-75.565370">
    <ele>1582</ele>
    <time>2014-06-15T20:23:45Z</time>
    <speed>10.480675</speed>
  </trkpt>
  <trkpt lat="6.221414" lon="-75.565325">
    <ele>1584</ele>
    <time>2014-06-15T20:23:47Z</time>
    <speed>10.8336315</speed>
  </trkpt>
  <trkpt lat="6.221611" lon="-75.565301">
    <ele>1580</ele>
    <time>2014-06-15T20:23:49Z</time>
    <speed>10.223041</speed>
  </trkpt>
  <trkpt lat="6.221816" lon="-75.565272">
    <ele>1580</ele>
    <time>2014-06-15T20:23:51Z</time>
    <speed>11.016992</speed>
  </trkpt>
  <trkpt lat="6.222036" lon="-75.565241">
    <ele>1580</ele>
    <time>2014-06-15T20:23:53Z</time>
    <speed>11.365219</speed>
  </trkpt>
  <trkpt lat="6.222247" lon="-75.565204">
    <ele>1577</ele>
    <time>2014-06-15T20:23:55Z</time>
    <speed>10.615075</speed>
  </trkpt>
  <trkpt lat="6.222451" lon="-75.565169">
    <ele>1577</ele>
    <time>2014-06-15T20:23:57Z</time>
    <speed>10.396732</speed>
  </trkpt>
  <trkpt lat="6.222643" lon="-75.565135">
    <ele>1576</ele>
    <time>2014-06-15T20:23:59Z</time>
    <speed>10.319995</speed>
  </trkpt>
  <trkpt lat="6.222832" lon="-75.565105">
    <ele>1575</ele>
    <time>2014-06-15T20:24:01Z</time>
    <speed>10.624722</speed>
  </trkpt>
  <trkpt lat="6.223015" lon="-75.565073">
    <ele>1574</ele>
    <time>2014-06-15T20:24:03Z</time>
    <speed>10.51789</speed>
  </trkpt>
  <trkpt lat="6.223191" lon="-75.565043">
    <ele>1574</ele>
    <time>2014-06-15T20:24:05Z</time>
    <speed>10.077948</speed>
  </trkpt>
  <trkpt lat="6.223378" lon="-75.565008">
    <ele>1572</ele>
    <time>2014-06-15T20:24:07Z</time>
    <speed>10.715317</speed>
  </trkpt>
  <trkpt lat="6.223599" lon="-75.564970">
    <ele>1571</ele>
    <time>2014-06-15T20:24:09Z</time>
    <speed>11.532986</speed>
  </trkpt>
  <trkpt lat="6.223832" lon="-75.564948">
    <ele>1569</ele>
    <time>2014-06-15T20:24:11Z</time>
    <speed>11.687487</speed>
  </trkpt>
  <trkpt lat="6.224057" lon="-75.564953">
    <ele>1570</ele>
    <time>2014-06-15T20:24:13Z</time>
    <speed>11.763804</speed>
  </trkpt>
  <trkpt lat="6.224277" lon="-75.564988">
    <ele>1568</ele>
    <time>2014-06-15T20:24:15Z</time>
    <speed>12.309582</speed>
  </trkpt>
  <trkpt lat="6.224481" lon="-75.565036">
    <ele>1566</ele>
    <time>2014-06-15T20:24:17Z</time>
    <speed>11.60342</speed>
  </trkpt>
  <trkpt lat="6.224674" lon="-75.565102">
    <ele>1567</ele>
    <time>2014-06-15T20:24:19Z</time>
    <speed>11.940105</speed>
  </trkpt>
  <trkpt lat="6.224882" lon="-75.565166">
    <ele>1564</ele>
    <time>2014-06-15T20:24:21Z</time>
    <speed>11.545298</speed>
  </trkpt>
  <trkpt lat="6.225095" lon="-75.565207">
    <ele>1563</ele>
    <time>2014-06-15T20:24:23Z</time>
    <speed>10.891128</speed>
  </trkpt>
  <trkpt lat="6.225268" lon="-75.565185">
    <ele>1562</ele>
    <time>2014-06-15T20:24:25Z</time>
    <speed>8.898743</speed>
  </trkpt>
  <trkpt lat="6.225420" lon="-75.565130">
    <ele>1561</ele>
    <time>2014-06-15T20:24:27Z</time>
    <speed>9.991872</speed>
  </trkpt>
  <trkpt lat="6.225582" lon="-75.565043">
    <ele>1562</ele>
    <time>2014-06-15T20:24:29Z</time>
    <speed>10.038873</speed>
  </trkpt>
  <trkpt lat="6.225746" lon="-75.564929">
    <ele>1563</ele>
    <time>2014-06-15T20:24:31Z</time>
    <speed>11.069034</speed>
  </trkpt>
  <trkpt lat="6.225917" lon="-75.564823">
    <ele>1563</ele>
    <time>2014-06-15T20:24:33Z</time>
    <speed>10.611142</speed>
  </trkpt>
  <trkpt lat="6.226104" lon="-75.564770">
    <ele>1563</ele>
    <time>2014-06-15T20:24:35Z</time>
    <speed>10.7240715</speed>
  </trkpt>
  <trkpt lat="6.226286" lon="-75.564790">
    <ele>1564</ele>
    <time>2014-06-15T20:24:37Z</time>
    <speed>9.778937</speed>
  </trkpt>
  <trkpt lat="6.226449" lon="-75.564860">
    <ele>1562</ele>
    <time>2014-06-15T20:24:39Z</time>
    <speed>10.506698</speed>
  </trkpt>
  <trkpt lat="6.226638" lon="-75.564955">
    <ele>1561</ele>
    <time>2014-06-15T20:24:41Z</time>
    <speed>11.158954</speed>
  </trkpt>
  <trkpt lat="6.226821" lon="-75.565072">
    <ele>1560</ele>
    <time>2014-06-15T20:24:43Z</time>
    <speed>11.489321</speed>
  </trkpt>
  <trkpt lat="6.227006" lon="-75.565200">
    <ele>1558</ele>
    <time>2014-06-15T20:24:45Z</time>
    <speed>11.767128</speed>
  </trkpt>
  <trkpt lat="6.227185" lon="-75.565327">
    <ele>1557</ele>
    <time>2014-06-15T20:24:47Z</time>
    <speed>12.225844</speed>
  </trkpt>
  <trkpt lat="6.227367" lon="-75.565462">
    <ele>1552</ele>
    <time>2014-06-15T20:24:49Z</time>
    <speed>12.522796</speed>
  </trkpt>
  <trkpt lat="6.227528" lon="-75.565606">
    <ele>1551</ele>
    <time>2014-06-15T20:24:51Z</time>
    <speed>11.950915</speed>
  </trkpt>
  <trkpt lat="6.227684" lon="-75.565776">
    <ele>1551</ele>
    <time>2014-06-15T20:24:53Z</time>
    <speed>11.715919</speed>
  </trkpt>
  <trkpt lat="6.227822" lon="-75.565943">
    <ele>1548</ele>
    <time>2014-06-15T20:24:55Z</time>
    <speed>11.542993</speed>
  </trkpt>
  <trkpt lat="6.227948" lon="-75.566102">
    <ele>1548</ele>
    <time>2014-06-15T20:24:57Z</time>
    <speed>11.299719</speed>
  </trkpt>
  <trkpt lat="6.228072" lon="-75.566263">
    <ele>1547</ele>
    <time>2014-06-15T20:24:59Z</time>
    <speed>11.202767</speed>
  </trkpt>
  <trkpt lat="6.228198" lon="-75.566419">
    <ele>1545</ele>
    <time>2014-06-15T20:25:01Z</time>
    <speed>11.0378475</speed>
  </trkpt>
  <trkpt lat="6.228370" lon="-75.566536">
    <ele>1545</ele>
    <time>2014-06-15T20:25:03Z</time>
    <speed>11.596028</speed>
  </trkpt>
  <trkpt lat="6.228573" lon="-75.566596">
    <ele>1543</ele>
    <time>2014-06-15T20:25:05Z</time>
    <speed>10.456947</speed>
  </trkpt>
  <trkpt lat="6.228782" lon="-75.566615">
    <ele>1541</ele>
    <time>2014-06-15T20:25:07Z</time>
    <speed>11.220038</speed>
  </trkpt>
  <trkpt lat="6.228997" lon="-75.566609">
    <ele>1540</ele>
    <time>2014-06-15T20:25:09Z</time>
    <speed>11.96793</speed>
  </trkpt>
  <trkpt lat="6.229217" lon="-75.566580">
    <ele>1540</ele>
    <time>2014-06-15T20:25:11Z</time>
    <speed>12.317478</speed>
  </trkpt>
  <trkpt lat="6.229442" lon="-75.566547">
    <ele>1538</ele>
    <time>2014-06-15T20:25:13Z</time>
    <speed>11.916003</speed>
  </trkpt>
  <trkpt lat="6.229669" lon="-75.566512">
    <ele>1537</ele>
    <time>2014-06-15T20:25:15Z</time>
    <speed>11.555106</speed>
  </trkpt>
  <trkpt lat="6.229860" lon="-75.566480">
    <ele>1536</ele>
    <time>2014-06-15T20:25:17Z</time>
    <speed>11.71737</speed>
  </trkpt>
  <trkpt lat="6.230053" lon="-75.566408">
    <ele>1532</ele>
    <time>2014-06-15T20:25:19Z</time>
    <speed>11.692138</speed>
  </trkpt>
  <trkpt lat="6.230241" lon="-75.566289">
    <ele>1532</ele>
    <time>2014-06-15T20:25:21Z</time>
    <speed>11.608987</speed>
  </trkpt>
  <trkpt lat="6.230420" lon="-75.566156">
    <ele>1532</ele>
    <time>2014-06-15T20:25:23Z</time>
    <speed>11.943948</speed>
  </trkpt>
  <trkpt lat="6.230602" lon="-75.566015">
    <ele>1530</ele>
    <time>2014-06-15T20:25:25Z</time>
    <speed>11.6733675</speed>
  </trkpt>
  <trkpt lat="6.230748" lon="-75.565877">
    <ele>1530</ele>
    <time>2014-06-15T20:25:27Z</time>
    <speed>11.38446</speed>
  </trkpt>
  <trkpt lat="6.230900" lon="-75.565728">
    <ele>1526</ele>
    <time>2014-06-15T20:25:29Z</time>
    <speed>11.252595</speed>
  </trkpt>
  <trkpt lat="6.231073" lon="-75.565627">
    <ele>1524</ele>
    <time>2014-06-15T20:25:31Z</time>
    <speed>9.875799</speed>
  </trkpt>
  <trkpt lat="6.231284" lon="-75.565609">
    <ele>1526</ele>
    <time>2014-06-15T20:25:33Z</time>
    <speed>11.640404</speed>
  </trkpt>
  <trkpt lat="6.231496" lon="-75.565679">
    <ele>1524</ele>
    <time>2014-06-15T20:25:35Z</time>
    <speed>11.958883</speed>
  </trkpt>
  <trkpt lat="6.231670" lon="-75.565788">
    <ele>1523</ele>
    <time>2014-06-15T20:25:37Z</time>
    <speed>12.33725</speed>
  </trkpt>
  <trkpt lat="6.231833" lon="-75.565909">
    <ele>1519</ele>
    <time>2014-06-15T20:25:39Z</time>
    <speed>12.294602</speed>
  </trkpt>
  <trkpt lat="6.231996" lon="-75.566039">
    <ele>1519</ele>
    <time>2014-06-15T20:25:41Z</time>
    <speed>12.23539</speed>
  </trkpt>
  <trkpt lat="6.232159" lon="-75.566171">
    <ele>1517</ele>
    <time>2014-06-15T20:25:43Z</time>
    <speed>12.216747</speed>
  </trkpt>
  <trkpt lat="6.232331" lon="-75.566302">
    <ele>1515</ele>
    <time>2014-06-15T20:25:45Z</time>
    <speed>12.004054</speed>
  </trkpt>
  <trkpt lat="6.232513" lon="-75.566425">
    <ele>1514</ele>
    <time>2014-06-15T20:25:47Z</time>
    <speed>11.692642</speed>
  </trkpt>
  <trkpt lat="6.232693" lon="-75.566536">
    <ele>1512</ele>
    <time>2014-06-15T20:25:49Z</time>
    <speed>11.559214</speed>
  </trkpt>
  <trkpt lat="6.232877" lon="-75.566647">
    <ele>1511</ele>
    <time>2014-06-15T20:25:51Z</time>
    <speed>11.213527</speed>
  </trkpt>
  <trkpt lat="6.233058" lon="-75.566764">
    <ele>1509</ele>
    <time>2014-06-15T20:25:53Z</time>
    <speed>11.078347</speed>
  </trkpt>
  <trkpt lat="6.233219" lon="-75.566886">
    <ele>1507</ele>
    <time>2014-06-15T20:25:55Z</time>
    <speed>10.973776</speed>
  </trkpt>
  <trkpt lat="6.233360" lon="-75.567018">
    <ele>1507</ele>
    <time>2014-06-15T20:25:57Z</time>
    <speed>11.285673</speed>
  </trkpt>
  <trkpt lat="6.233502" lon="-75.567168">
    <ele>1506</ele>
    <time>2014-06-15T20:25:59Z</time>
    <speed>11.57622</speed>
  </trkpt>
  <trkpt lat="6.233655" lon="-75.567329">
    <ele>1506</ele>
    <time>2014-06-15T20:26:01Z</time>
    <speed>11.430776</speed>
  </trkpt>
  <trkpt lat="6.233816" lon="-75.567491">
    <ele>1505</ele>
    <time>2014-06-15T20:26:03Z</time>
    <speed>11.176734</speed>
  </trkpt>
  <trkpt lat="6.233966" lon="-75.567625">
    <ele>1504</ele>
    <time>2014-06-15T20:26:05Z</time>
    <speed>11.691273</speed>
  </trkpt>
  <trkpt lat="6.234150" lon="-75.567763">
    <ele>1503</ele>
    <time>2014-06-15T20:26:07Z</time>
    <speed>12.401123</speed>
  </trkpt>
  <trkpt lat="6.234348" lon="-75.567882">
    <ele>1499</ele>
    <time>2014-06-15T20:26:09Z</time>
    <speed>11.915028</speed>
  </trkpt>
  <trkpt lat="6.234558" lon="-75.567979">
    <ele>1500</ele>
    <time>2014-06-15T20:26:11Z</time>
    <speed>12.390968</speed>
  </trkpt>
  <trkpt lat="6.234761" lon="-75.568056">
    <ele>1499</ele>
    <time>2014-06-15T20:26:13Z</time>
    <speed>12.238632</speed>
  </trkpt>
  <trkpt lat="6.234972" lon="-75.568128">
    <ele>1497</ele>
    <time>2014-06-15T20:26:15Z</time>
    <speed>11.919321</speed>
  </trkpt>
  <trkpt lat="6.235181" lon="-75.568194">
    <ele>1495</ele>
    <time>2014-06-15T20:26:17Z</time>
    <speed>12.063248</speed>
  </trkpt>
  <trkpt lat="6.235398" lon="-75.568260">
    <ele>1495</ele>
    <time>2014-06-15T20:26:19Z</time>
    <speed>12.397121</speed>
  </trkpt>
  <trkpt lat="6.235605" lon="-75.568332">
    <ele>1495</ele>
    <time>2014-06-15T20:26:21Z</time>
    <speed>12.418673</speed>
  </trkpt>
  <trkpt lat="6.235815" lon="-75.568405">
    <ele>1492</ele>
    <time>2014-06-15T20:26:23Z</time>
    <speed>12.622953</speed>
  </trkpt>
  <trkpt lat="6.236024" lon="-75.568478">
    <ele>1491</ele>
    <time>2014-06-15T20:26:25Z</time>
    <speed>12.311873</speed>
  </trkpt>
  <trkpt lat="6.236215" lon="-75.568547">
    <ele>1491</ele>
    <time>2014-06-15T20:26:27Z</time>
    <speed>11.645616</speed>
  </trkpt>
  <trkpt lat="6.236407" lon="-75.568631">
    <ele>1490</ele>
    <time>2014-06-15T20:26:29Z</time>
    <speed>10.570205</speed>
  </trkpt>
  <trkpt lat="6.236561" lon="-75.568735">
    <ele>1488</ele>
    <time>2014-06-15T20:26:31Z</time>
    <speed>9.887865</speed>
  </trkpt>
  <trkpt lat="6.236697" lon="-75.568819">
    <ele>1486</ele>
    <time>2014-06-15T20:26:33Z</time>
    <speed>9.4146185</speed>
  </trkpt>
  <trkpt lat="6.236779" lon="-75.568943">
    <ele>1486</ele>
    <time>2014-06-15T20:26:35Z</time>
    <speed>7.4449315</speed>
  </trkpt>
  <trkpt lat="6.236838" lon="-75.569064">
    <ele>1485</ele>
    <time>2014-06-15T20:26:37Z</time>
    <speed>7.2878475</speed>
  </trkpt>
  <trkpt lat="6.236890" lon="-75.569156">
    <ele>1483</ele>
    <time>2014-06-15T20:26:39Z</time>
    <speed>4.964355</speed>
  </trkpt>
  <trkpt lat="6.236925" lon="-75.569231">
    <ele>1483</ele>
    <time>2014-06-15T20:26:41Z</time>
    <speed>2.4554262</speed>
  </trkpt>
  <trkpt lat="6.236951" lon="-75.569275">
    <ele>1481</ele>
    <time>2014-06-15T20:26:44Z</time>
    <speed>1.11738</speed>
  </trkpt>
  <trkpt lat="6.236977" lon="-75.569313">
    <ele>1479</ele>
    <time>2014-06-15T20:29:16Z</time>
    <speed>1.0274395</speed>
  </trkpt>
  <trkpt lat="6.236927" lon="-75.569335">
    <ele>1479</ele>
    <time>2014-06-15T20:30:34Z</time>
    <speed>1.1576229</speed>
  </trkpt>
  <trkpt lat="6.236885" lon="-75.569356">
    <ele>1481</ele>
    <time>2014-06-15T20:30:38Z</time>
    <speed>1.0327405</speed>
  </trkpt>
  <trkpt lat="6.236843" lon="-75.569383">
    <ele>1480</ele>
    <time>2014-06-15T20:30:44Z</time>
    <speed>1.4948256</speed>
  </trkpt>
  <trkpt lat="6.236787" lon="-75.569405">
    <ele>1480</ele>
    <time>2014-06-15T20:31:06Z</time>
    <speed>1.6791764</speed>
  </trkpt>
  <trkpt lat="6.236740" lon="-75.569405">
    <ele>1480</ele>
    <time>2014-06-15T20:31:10Z</time>
    <speed>1.8248464</speed>
  </trkpt>
  <trkpt lat="6.236710" lon="-75.569443">
    <ele>1481</ele>
    <time>2014-06-15T20:31:29Z</time>
    <speed>1.143599</speed>
  </trkpt>
 </trkseg>
</trk>
</gpx>
